Provisional Data: Sterling Run near Sterling Run, PA


Please select a monitoring station.
Please select start date.
Please select start date.

Toggle Unit: C/F Toggle Unit: C/F
Sample Time Temperature (C) Temperature (F) Specific Conductivity (mS/cm) pH   Turbidity (NTU+) DO (mg/L)
10/17/2022 12:00:00 AM 8.86 47.948 0.084 6.65 1.2 10.6
10/17/2022 12:15:00 AM 8.84 47.912 0.085 6.6 1.16 10.53
10/17/2022 12:30:00 AM 8.81 47.858 0.085 6.61 1.16 10.47
10/17/2022 12:45:00 AM 8.76 47.768 0.085 6.65 1.17 10.64
10/17/2022 1:00:00 AM 8.74 47.732 0.084 6.61 1.19 10.65
10/17/2022 1:15:00 AM 8.75 47.75 0.085 6.61 1.22 10.56
10/17/2022 1:30:00 AM 8.72 47.696 0.085 6.62 1.18 10.6
10/17/2022 1:45:00 AM 8.71 47.678 0.085 6.59 1.17 10.54
10/17/2022 2:00:00 AM 8.71 47.678 0.085 6.59 1.17 10.54
10/17/2022 2:15:00 AM 8.7 47.66 0.085 6.6 1.18 10.53
10/17/2022 2:30:00 AM 8.6 47.48 0.084 6.63 1.19 10.7
10/17/2022 2:45:00 AM 8.59 47.462 0.084 6.62 1.19 10.73
10/17/2022 3:00:00 AM 8.56 47.408 0.084 6.62 1.19 10.69
10/17/2022 3:15:00 AM 8.56 47.408 0.085 6.62 1.19 10.67
10/17/2022 3:30:00 AM 8.57 47.426 0.085 6.64 1.19 10.59
10/17/2022 3:45:00 AM 8.55 47.39 0.085 6.61 1.21 10.58
10/17/2022 4:00:00 AM 8.54 47.372 0.085 6.61 1.21 10.55
10/17/2022 4:15:00 AM 8.5 47.3 0.085 6.64 1.23 10.63
10/17/2022 4:30:00 AM 8.47 47.246 0.084 6.63 1.22 10.74
10/17/2022 4:45:00 AM 8.48 47.264 0.085 6.61 1.15 10.67
10/17/2022 5:00:00 AM 8.43 47.174 0.084 6.66 1.21 10.77
10/17/2022 5:15:00 AM 8.53 47.354 0.085 6.55 1.21 10.52
10/17/2022 5:30:00 AM 8.45 47.21 0.085 6.61 1.24 10.64
10/17/2022 5:45:00 AM 8.45 47.21 0.085 6.6 1.17 10.65
10/17/2022 6:00:00 AM 8.43 47.174 0.085 6.6 1.14 10.63
10/17/2022 6:15:00 AM 8.37 47.066 0.084 6.61 1.23 10.78
10/17/2022 6:30:00 AM 8.36 47.048 0.084 6.6 1.14 10.8
10/17/2022 6:45:00 AM 8.35 47.03 0.084 6.67 1.18 10.8
10/17/2022 7:00:00 AM 8.39 47.102 0.085 6.61 1.2 10.7
10/17/2022 7:15:00 AM 8.37 47.066 0.085 6.65 1.27 10.71
10/17/2022 7:30:00 AM 8.41 47.138 0.085 6.62 1.18 10.63
10/17/2022 7:45:00 AM 8.37 47.066 0.085 6.61 1.15 10.74
10/17/2022 8:00:00 AM 8.33 46.994 0.084 6.67 1.2 10.82
10/17/2022 8:15:00 AM 8.43 47.174 0.085 6.61 1.16 10.67
10/17/2022 8:30:00 AM 8.42 47.156 0.084 6.61 1.16 10.76
10/17/2022 8:45:00 AM 8.42 47.156 0.084 6.66 1.17 10.84
10/17/2022 9:00:00 AM 8.44 47.192 0.084 6.66 1.16 10.93
10/17/2022 9:15:00 AM 8.51 47.318 0.084 6.64 1.19 10.96
10/17/2022 9:30:00 AM 8.56 47.408 0.084 6.67 1.2 10.94
10/17/2022 9:45:00 AM 8.63 47.534 0.084 6.65 1.23 10.96
10/17/2022 10:00:00 AM 8.75 47.75 0.085 6.64 1.13 10.84
10/17/2022 10:15:00 AM 8.77 47.786 0.084 6.67 1.27 11
10/17/2022 10:30:00 AM 8.89 48.002 0.084 6.68 1.16 10.92
10/17/2022 10:45:00 AM 9.06 48.308 0.084 6.68 1.11 10.97
10/17/2022 11:00:00 AM 9.12 48.416 0.084 6.74 1.16 11.11
10/17/2022 11:15:00 AM 9.1 48.38 0.084 6.71 1.18 10.96
10/17/2022 11:30:00 AM 9.01 48.218 0.083 6.73 1.37 11.11
10/17/2022 11:45:00 AM 9.04 48.272 0.084 6.74 1.16 10.95
10/17/2022 12:00:00 PM 9.09 48.362 0.084 6.66 1.18 10.78
10/17/2022 12:15:00 PM 9.13 48.434 0.084 6.7 1.15 10.99
10/17/2022 12:30:00 PM 9.24 48.632 0.083 6.73 1.15 10.99
10/17/2022 12:45:00 PM 9.29 48.722 0.084 6.71 1.12 11.01
10/17/2022 1:00:00 PM 9.33 48.794 0.083 6.73 1.15 10.96
10/17/2022 1:15:00 PM 9.43 48.974 0.084 6.67 1.15 10.88
10/17/2022 1:30:00 PM 9.49 49.082 0.084 6.7 1.12 10.88
10/17/2022 1:45:00 PM 9.57 49.226 0.084 6.7 1.12 10.83
10/17/2022 2:00:00 PM 9.56 49.208 0.084 6.72 1.13 10.85
10/17/2022 2:15:00 PM 9.56 49.208 0.084 6.75 1.16 10.9
10/17/2022 2:30:00 PM 9.56 49.208 0.083 6.7 1.19 10.91
10/17/2022 2:45:00 PM 9.55 49.19 0.083 6.74 1.1 10.88
10/17/2022 3:00:00 PM 9.61 49.298 0.083 6.77 1.15 10.95
10/17/2022 3:15:00 PM 9.58 49.244 0.084 6.67 1.16 10.78
10/17/2022 3:30:00 PM 9.57 49.226 0.084 6.71 1.14 10.88
10/17/2022 3:45:00 PM 9.58 49.244 0.084 6.7 1.17 10.77
10/17/2022 4:00:00 PM 9.6 49.28 0.084 6.68 1.18 10.65
10/17/2022 4:15:00 PM 9.56 49.208 0.084 6.75 1.14 10.75
10/17/2022 4:30:00 PM 9.53 49.154 0.084 6.69 1.16 10.66
10/17/2022 4:45:00 PM 9.5 49.1 0.084 6.69 1.17 10.66
10/17/2022 5:00:00 PM 9.51 49.118 0.084 6.69 1.17 10.56
10/17/2022 5:15:00 PM 9.48 49.064 0.084 6.71 1.13 10.66
10/17/2022 5:30:00 PM 9.46 49.028 0.084 6.65 1.2 10.64
10/17/2022 5:45:00 PM 9.42 48.956 0.084 6.67 1.18 10.61
10/17/2022 6:00:00 PM 9.39 48.902 0.084 6.66 1.16 10.64
10/17/2022 6:15:00 PM 9.37 48.866 0.084 6.6 1.14 10.5
10/17/2022 6:30:00 PM 9.34 48.812 0.085 6.64 1.15 10.36
10/17/2022 6:45:00 PM 9.31 48.758 0.085 6.63 1.14 10.34
10/17/2022 7:00:00 PM 9.31 48.758 0.085 6.56 1.3 10.14
10/17/2022 7:15:00 PM 9.29 48.722 0.085 6.59 1.18 10.07
10/17/2022 7:30:00 PM 9.23 48.614 0.085 6.62 1.2 10.18
10/17/2022 7:45:00 PM 9.19 48.542 0.085 6.58 1.18 10.11
10/17/2022 8:00:00 PM 9.16 48.488 0.085 6.59 1.22 10.04
10/17/2022 8:15:00 PM 9.13 48.434 0.086 6.52 1.17 9.78
10/17/2022 8:30:00 PM 9.03 48.254 0.086 6.57 1.17 9.96
10/17/2022 8:45:00 PM 8.96 48.128 0.085 6.56 1.18 10.2
10/17/2022 9:00:00 PM 8.85 47.93 0.085 6.57 1.23 10.37
10/17/2022 9:15:00 PM 8.83 47.894 0.085 6.61 1.22 10.25
10/17/2022 9:30:00 PM 8.76 47.768 0.085 6.57 1.17 10.14
10/17/2022 9:45:00 PM 8.7 47.66 0.085 6.61 1.17 10.17
10/17/2022 10:00:00 PM 8.64 47.552 0.086 6.57 1.17 10.18
10/17/2022 10:15:00 PM 8.61 47.498 0.086 6.57 1.19 10.07
10/17/2022 10:30:00 PM 8.52 47.336 0.086 6.58 1.21 10.18
10/17/2022 10:45:00 PM 8.45 47.21 0.086 6.56 1.16 10.16
10/17/2022 11:00:00 PM 8.42 47.156 0.086 6.58 1.19 10.11
10/17/2022 11:15:00 PM 8.31 46.958 0.085 6.6 1.15 10.28
10/17/2022 11:30:00 PM 8.19 46.742 0.085 6.59 1.22 10.54
10/17/2022 11:45:00 PM 8.12 46.616 0.085 6.57 1.19 10.59
10/18/2022 12:00:00 AM 8.07 46.526 0.085 6.59 1.19 10.52
10/18/2022 12:15:00 AM 8.06 46.508 0.086 6.57 1.14 10.33
10/18/2022 12:30:00 AM 7.92 46.256 0.085 6.58 1.25 10.44
10/18/2022 12:45:00 AM 7.95 46.31 0.086 6.56 1.2 10.39
10/18/2022 1:00:00 AM 7.86 46.148 0.086 6.58 1.18 10.39
10/18/2022 1:15:00 AM 7.84 46.112 0.086 6.55 1.29 10.38
10/18/2022 1:30:00 AM 7.76 45.968 0.086 6.6 1.22 10.45
10/18/2022 1:45:00 AM 7.66 45.788 0.086 6.58 1.27 10.53
10/18/2022 2:00:00 AM 7.69 45.842 0.086 6.54 1.21 10.45
10/18/2022 2:15:00 AM 7.76 45.968 0.087 6.56 1.19 10.23
10/18/2022 2:30:00 AM 7.71 45.878 0.086 6.53 1.19 10.3
10/18/2022 2:45:00 AM 7.66 45.788 0.086 6.59 1.22 10.39
10/18/2022 3:00:00 AM 7.62 45.716 0.086 6.55 1.17 10.49
10/18/2022 3:15:00 AM 7.65 45.77 0.086 6.57 1.2 10.41
10/18/2022 3:30:00 AM 7.69 45.842 0.086 6.55 1.16 10.38
10/18/2022 3:45:00 AM 7.57 45.626 0.086 6.55 1.2 10.58
10/18/2022 4:00:00 AM 7.57 45.626 0.086 6.57 1.18 10.67
10/18/2022 4:15:00 AM 7.54 45.572 0.086 6.59 1.27 10.7
10/18/2022 4:30:00 AM 7.5 45.5 0.085 6.57 1.21 10.8
10/18/2022 4:45:00 AM 7.64 45.752 0.086 6.53 1.13 10.47
10/18/2022 5:00:00 AM 7.56 45.608 0.086 6.56 1.22 10.55
10/18/2022 5:15:00 AM 7.47 45.446 0.085 6.6 1.42 10.75
10/18/2022 5:30:00 AM 7.5 45.5 0.085 6.55 1.22 10.64
10/18/2022 5:45:00 AM 7.51 45.518 0.086 6.6 1.2 10.53
10/18/2022 6:00:00 AM 7.49 45.482 0.086 6.55 1.19 10.58
10/18/2022 6:15:00 AM 7.44 45.392 0.085 6.59 1.19 10.64
10/18/2022 6:30:00 AM 7.4 45.32 0.085 6.58 1.17 10.75
10/18/2022 6:45:00 AM 7.4 45.32 0.085 6.62 1.18 10.77
10/18/2022 7:00:00 AM 7.38 45.284 0.085 6.57 1.19 10.82
10/18/2022 7:15:00 AM 7.39 45.302 0.085 6.64 1.23 10.79
10/18/2022 7:30:00 AM 7.34 45.212 0.085 6.57 1.4 10.84
10/18/2022 7:45:00 AM 7.39 45.302 0.085 6.58 1.83 10.74
10/18/2022 8:00:00 AM 7.42 45.356 0.086 6.58 1.18 10.69
10/18/2022 8:15:00 AM 7.43 45.374 0.086 6.58 1.21 10.7
10/18/2022 8:30:00 AM 7.68 45.824 0.088 6.51 1.16 10.21
10/18/2022 8:45:00 AM 7.43 45.374 0.085 6.58 1.27 10.7
10/18/2022 9:00:00 AM 7.46 45.428 0.086 6.56 1.21 10.74
10/18/2022 9:15:00 AM 7.49 45.482 0.086 6.59 1.15 10.71
10/18/2022 9:30:00 AM 7.47 45.446 0.085 6.61 1.21 10.83
10/18/2022 9:45:00 AM 7.55 45.59 0.085 6.58 1.15 10.86
10/18/2022 10:00:00 AM 7.6 45.68 0.086 6.61 1.13 10.78
10/18/2022 10:15:00 AM 7.55 45.59 0.085 6.61 1.23 10.91
10/18/2022 10:30:00 AM 7.52 45.536 0.085 6.62 1.2 11
10/18/2022 10:45:00 AM 7.53 45.554 0.084 6.66 1.2 11.22
10/18/2022 11:00:00 AM 7.54 45.572 0.084 6.67 1.26 11.33
10/18/2022 11:15:00 AM 7.59 45.662 0.084 6.7 1.18 11.3
10/18/2022 11:30:00 AM 7.68 45.824 0.085 6.65 1.16 11.07
10/18/2022 11:45:00 AM 7.7 45.86 0.085 6.66 1.13 11.07
10/18/2022 12:00:00 PM 7.72 45.896 0.085 6.66 1.19 11.16
10/18/2022 12:15:00 PM 7.73 45.914 0.085 6.66 1.19 11.18
10/18/2022 12:30:00 PM 7.89 46.202 0.085 6.6 1.15 10.89
10/18/2022 12:45:00 PM 7.86 46.148 0.085 6.63 1.15 11.02
10/18/2022 1:00:00 PM 7.85 46.13 0.084 6.66 1.16 11.17
10/18/2022 1:15:00 PM 7.93 46.274 0.084 6.66 1.17 11.15
10/18/2022 1:30:00 PM 7.99 46.382 0.085 6.64 1.17 11.03
10/18/2022 1:45:00 PM 7.98 46.364 0.085 6.65 1.19 11.03
10/18/2022 2:00:00 PM 7.99 46.382 0.084 6.66 1.25 11.08
10/18/2022 2:15:00 PM 8.08 46.544 0.085 6.67 1.19 11.04
10/18/2022 2:30:00 PM 8.11 46.598 0.084 6.66 1.23 11.14
10/18/2022 2:45:00 PM 8.15 46.67 0.085 6.63 1.19 11.02
10/18/2022 3:00:00 PM 8.15 46.67 0.084 6.66 1.13 11.02
10/18/2022 3:15:00 PM 8.14 46.652 0.084 6.66 1.15 11.02
10/18/2022 3:30:00 PM 8.15 46.67 0.084 6.69 1.18 11.11
10/18/2022 3:45:00 PM 8.18 46.724 0.084 6.71 1.18 11.2
10/18/2022 4:00:00 PM 8.22 46.796 0.084 6.66 1.17 11.12
10/18/2022 4:15:00 PM 8.22 46.796 0.084 6.66 1.15 11.15
10/18/2022 4:30:00 PM 8.23 46.814 0.084 6.69 1.16 11.13
10/18/2022 4:45:00 PM 8.22 46.796 0.084 6.68 1.18 11.13
10/18/2022 5:00:00 PM 8.23 46.814 0.085 6.65 1.16 10.93
10/18/2022 5:15:00 PM 8.18 46.724 0.084 6.68 1.19 10.97
10/18/2022 5:30:00 PM 8.15 46.67 0.084 6.69 1.16 11
10/18/2022 5:45:00 PM 8.17 46.706 0.085 6.62 1.17 10.77
10/18/2022 6:00:00 PM 8.22 46.796 0.086 6.58 1.18 10.54
10/18/2022 6:15:00 PM 8.18 46.724 0.085 6.62 1.36 10.41
10/18/2022 6:30:00 PM 8.18 46.724 0.086 6.56 1.24 10.45
10/18/2022 6:45:00 PM 8.12 46.616 0.085 6.61 1.24 10.49
10/18/2022 7:00:00 PM 8.09 46.562 0.085 6.6 1.21 10.51
10/18/2022 7:15:00 PM 8.04 46.472 0.085 6.56 1.19 10.52
10/18/2022 7:30:00 PM 8.01 46.418 0.085 6.61 1.2 10.59
10/18/2022 7:45:00 PM 8 46.4 0.086 6.6 1.29 10.49
10/18/2022 8:00:00 PM 7.99 46.382 0.085 6.58 1.2 10.51
10/18/2022 8:15:00 PM 7.97 46.346 0.085 6.6 1.22 10.54
10/18/2022 8:30:00 PM 7.95 46.31 0.085 6.59 1.61 10.55
10/18/2022 8:45:00 PM 7.93 46.274 0.085 6.56 1.3 10.55
10/18/2022 9:00:00 PM 7.89 46.202 0.085 6.6 1.19 10.58
10/18/2022 9:15:00 PM 7.9 46.22 0.086 6.58 1.2 10.58
10/18/2022 9:30:00 PM 7.89 46.202 0.085 6.58 1.27 10.56
10/18/2022 9:45:00 PM 7.87 46.166 0.085 6.62 1.21 10.59
10/18/2022 10:00:00 PM 7.82 46.076 0.085 6.57 1.14 10.61
10/18/2022 10:15:00 PM 7.86 46.148 0.086 6.58 1.15 10.57
10/18/2022 10:30:00 PM 7.85 46.13 0.086 6.58 1.28 10.48
10/18/2022 10:45:00 PM 7.78 46.004 0.085 6.59 1.19 10.64
10/18/2022 11:00:00 PM 7.74 45.932 0.085 6.62 1.21 10.7
10/18/2022 11:15:00 PM 7.78 46.004 0.086 6.59 1.21 10.59
10/18/2022 11:30:00 PM 7.72 45.896 0.085 6.63 1.21 10.68
10/18/2022 11:45:00 PM 7.73 45.914 0.085 6.62 1.2 10.66
10/19/2022 12:00:00 AM 7.69 45.842 0.085 6.61 1.17 10.75
10/19/2022 12:15:00 AM 7.75 45.95 0.086 6.55 1.18 10.59
10/19/2022 12:30:00 AM 7.68 45.824 0.085 6.58 1.18 10.67
10/19/2022 12:45:00 AM 7.64 45.752 0.085 6.59 1.21 10.79
10/19/2022 1:00:00 AM 7.64 45.752 0.085 6.64 1.17 10.78
10/19/2022 1:15:00 AM 7.67 45.806 0.086 6.61 1.23 10.67
10/19/2022 1:30:00 AM 7.61 45.698 0.085 6.58 1.19 10.74
10/19/2022 1:45:00 AM 7.59 45.662 0.085 6.61 1.26 10.83
10/19/2022 2:00:00 AM 7.61 45.698 0.085 6.6 1.18 10.77
10/19/2022 2:15:00 AM 7.59 45.662 0.085 6.59 1.22 10.79
10/19/2022 2:30:00 AM 7.55 45.59 0.085 6.61 1.23 10.82
10/19/2022 2:45:00 AM 7.49 45.482 0.085 6.62 1.21 10.73
10/19/2022 3:00:00 AM 7.52 45.536 0.085 6.6 1.16 10.89
10/19/2022 3:15:00 AM 7.55 45.59 0.086 6.57 1.2 10.7
10/19/2022 3:30:00 AM 7.52 45.536 0.085 6.61 1.19 10.81
10/19/2022 3:45:00 AM 7.48 45.464 0.085 6.6 1.18 10.87
10/19/2022 4:00:00 AM 7.45 45.41 0.085 6.62 1.19 10.9
10/19/2022 4:15:00 AM 7.51 45.518 0.086 6.59 1.22 10.76
10/19/2022 4:30:00 AM 7.56 45.608 0.086 6.54 1.24 10.6
10/19/2022 4:45:00 AM 7.52 45.536 0.086 6.54 1.19 10.6
10/19/2022 5:00:00 AM 7.43 45.374 0.086 6.59 1.15 10.76
10/19/2022 5:15:00 AM 7.42 45.356 0.086 6.58 1.16 10.74
10/19/2022 5:30:00 AM 7.44 45.392 0.086 6.61 1.17 10.74
10/19/2022 5:45:00 AM 7.4 45.32 0.086 6.59 1.19 10.75
10/19/2022 6:00:00 AM 7.4 45.32 0.086 6.55 1.16 10.77
10/19/2022 6:15:00 AM 7.4 45.32 0.086 6.58 1.2 10.7
10/19/2022 6:30:00 AM 7.37 45.266 0.086 6.57 1.18 10.74
10/19/2022 6:45:00 AM 7.35 45.23 0.086 6.58 1.23 10.73
10/19/2022 7:00:00 AM 7.35 45.23 0.086 6.57 1.18 10.71
10/19/2022 7:15:00 AM 7.29 45.122 0.086 6.57 1.18 10.78
10/19/2022 7:30:00 AM 7.26 45.068 0.085 6.59 1.17 10.83
10/19/2022 7:45:00 AM 7.27 45.086 0.085 6.58 1.22 10.83
10/19/2022 8:00:00 AM 7.2 44.96 0.085 6.6 1.2 10.94
10/19/2022 8:15:00 AM 7.25 45.05 0.085 6.59 1.19 10.86
10/19/2022 8:30:00 AM 7.28 45.104 0.086 6.59 1.2 10.73
10/19/2022 8:45:00 AM 7.29 45.122 0.086 6.58 1.16 10.69
10/19/2022 9:00:00 AM 7.25 45.05 0.086 6.57 1.18 10.78
10/19/2022 9:15:00 AM 7.18 44.924 0.085 6.6 1.22 10.96
10/19/2022 9:30:00 AM 7.21 44.978 0.085 6.61 1.23 10.96
10/19/2022 9:45:00 AM 7.25 45.05 0.085 6.6 1.2 10.94
10/19/2022 10:00:00 AM 7.23 45.014 0.085 6.64 1.24 11.1
10/19/2022 10:15:00 AM 7.22 44.996 0.084 6.63 1.23 11.22
10/19/2022 10:30:00 AM 7.22 44.996 0.084 6.66 1.26 11.36
10/19/2022 10:45:00 AM 7.3 45.14 0.084 6.64 1.25 11.36
10/19/2022 11:00:00 AM 7.47 45.446 0.085 6.68 1.21 11.22
10/19/2022 11:15:00 AM 7.51 45.518 0.084 6.63 1.19 11.28
10/19/2022 11:30:00 AM 7.52 45.536 0.084 6.69 1.16 11.36
10/19/2022 11:45:00 AM 7.57 45.626 0.084 6.65 1.19 11.3
10/19/2022 12:00:00 PM 7.72 45.896 0.085 6.61 1.19 11.06
10/19/2022 12:15:00 PM 7.68 45.824 0.084 6.66 1.17 11.22
10/19/2022 12:30:00 PM 7.7 45.86 0.083 6.69 1.23 11.39
10/19/2022 12:45:00 PM 7.8 46.04 0.084 6.62 1.18 11.13
10/19/2022 1:00:00 PM 7.93 46.274 0.085 6.65 1.15 10.89
10/19/2022 1:15:00 PM 7.96 46.328 0.084 6.67 1.12 11.09
10/19/2022 1:30:00 PM 8.07 46.526 0.085 6.59 1.22 10.98
10/19/2022 1:45:00 PM 8.04 46.472 0.084 6.65 1.19 11.12
10/19/2022 2:00:00 PM 8.07 46.526 0.084 6.69 1.17 11.19
10/19/2022 2:15:00 PM 8.11 46.598 0.084 6.67 1.18 11.2
10/19/2022 2:30:00 PM 8.15 46.67 0.084 6.68 1.18 11.19
10/19/2022 2:45:00 PM 8.21 46.778 0.084 6.65 1.13 11.06
10/19/2022 3:00:00 PM 8.23 46.814 0.083 6.66 1.5 11.14
10/19/2022 3:15:00 PM 8.25 46.85 0.083 6.7 1.15 11.24
10/19/2022 3:30:00 PM 8.3 46.94 0.083 6.68 1.19 11.17
10/19/2022 3:45:00 PM 8.37 47.066 0.083 6.67 1.23 11.14
10/19/2022 4:00:00 PM 8.38 47.084 0.084 6.7 1.17 11.06
10/19/2022 4:15:00 PM 8.39 47.102 0.083 6.68 1.24 11.06
10/19/2022 4:30:00 PM 8.38 47.084 0.083 6.71 1.14 11.15
10/19/2022 4:45:00 PM 8.35 47.03 0.084 6.71 1.16 11.02
10/19/2022 5:00:00 PM 8.31 46.958 0.083 6.66 1.28 11.03
10/19/2022 5:15:00 PM 8.28 46.904 0.084 6.67 1.33 10.93
10/19/2022 5:30:00 PM 8.25 46.85 0.084 6.66 1.31 10.92
10/19/2022 5:45:00 PM 8.23 46.814 0.084 6.67 1.28 10.89
10/19/2022 6:00:00 PM 8.2 46.76 0.084 6.62 1.22 10.84
10/19/2022 6:15:00 PM 8.18 46.724 0.085 6.59 1.23 10.68
10/19/2022 6:30:00 PM 8.11 46.598 0.084 6.67 1.24 10.77
10/19/2022 6:45:00 PM 8.07 46.526 0.084 6.62 1.29 10.83
10/19/2022 7:00:00 PM 8.01 46.418 0.084 6.64 1.22 10.81
10/19/2022 7:15:00 PM 7.99 46.382 0.084 6.61 1.36 10.71
10/19/2022 7:30:00 PM 7.98 46.364 0.084 6.61 1.26 10.73
10/19/2022 7:45:00 PM 7.97 46.346 0.085 6.61 1.17 10.57
10/19/2022 8:00:00 PM 7.91 46.238 0.084 6.61 1.2 10.72
10/19/2022 8:15:00 PM 7.93 46.274 0.085 6.55 1.19 10.53
10/19/2022 8:30:00 PM 7.87 46.166 0.084 6.61 1.19 10.64
10/19/2022 8:45:00 PM 7.87 46.166 0.085 6.57 1.22 10.56
10/19/2022 9:00:00 PM 7.82 46.076 0.085 6.65 1.14 10.61
10/19/2022 9:15:00 PM 7.79 46.022 0.085 6.58 1.25 10.69
10/19/2022 9:30:00 PM 7.79 46.022 0.085 6.57 1.21 10.69
10/19/2022 9:45:00 PM 7.8 46.04 0.085 6.61 1.24 10.63
10/19/2022 10:00:00 PM 7.77 45.986 0.085 6.58 1.22 10.68
10/19/2022 10:15:00 PM 7.73 45.914 0.085 6.64 1.19 10.77
10/19/2022 10:30:00 PM 7.7 45.86 0.085 6.6 1.23 10.86
10/19/2022 10:45:00 PM 7.7 45.86 0.085 6.62 1.19 10.77
10/19/2022 11:00:00 PM 7.68 45.824 0.085 6.6 1.19 10.73
10/19/2022 11:15:00 PM 7.68 45.824 0.085 6.62 1.19 10.74
10/19/2022 11:30:00 PM 7.66 45.788 0.085 6.58 1.29 10.8
10/19/2022 11:45:00 PM 7.73 45.914 0.086 6.57 1.16 10.55
10/20/2022 12:00:00 AM 7.7 45.86 0.086 6.55 1.17 10.54
10/20/2022 12:15:00 AM 7.66 45.788 0.085 6.56 1.2 10.69
10/20/2022 12:30:00 AM 7.7 45.86 0.086 6.56 1.19 10.59
10/20/2022 12:45:00 AM 7.66 45.788 0.086 6.57 1.19 10.65
10/20/2022 1:00:00 AM 7.66 45.788 0.086 6.58 1.18 10.61
10/20/2022 1:15:00 AM 7.55 45.59 0.085 6.6 1.18 10.81
10/20/2022 1:30:00 AM 7.54 45.572 0.086 6.59 1.2 10.79
10/20/2022 1:45:00 AM 7.53 45.554 0.086 6.56 1.23 10.67
10/20/2022 2:00:00 AM 7.46 45.428 0.086 6.61 1.24 10.57
10/20/2022 2:15:00 AM 7.4 45.32 0.085 6.57 1.22 10.82
10/20/2022 2:30:00 AM 7.36 45.248 0.086 6.58 1.21 10.82
10/20/2022 2:45:00 AM 7.24 45.032 0.085 6.6 1.2 10.87
10/20/2022 3:00:00 AM 7.22 44.996 0.086 6.58 1.22 10.91
10/20/2022 3:15:00 AM 7.14 44.852 0.085 6.63 1.22 10.95
10/20/2022 3:30:00 AM 7.07 44.726 0.085 6.59 1.19 11.07
10/20/2022 3:45:00 AM 7.05 44.69 0.085 6.63 1.2 11.02
10/20/2022 4:00:00 AM 6.99 44.582 0.085 6.58 1.24 11.09
10/20/2022 4:15:00 AM 6.93 44.474 0.085 6.62 1.29 11.08
10/20/2022 4:30:00 AM 6.91 44.438 0.086 6.59 1.22 11.06
10/20/2022 4:45:00 AM 6.83 44.294 0.085 6.6 1.25 11.14
10/20/2022 5:00:00 AM 6.8 44.24 0.086 6.54 1.3 11.1
10/20/2022 5:15:00 AM 6.73 44.114 0.085 6.52 1.3 11.13
10/20/2022 5:30:00 AM 6.71 44.078 0.086 6.49 1.21 11.06
10/20/2022 5:45:00 AM 6.72 44.096 0.086 6.55 1.19 10.92
10/20/2022 6:00:00 AM 6.61 43.898 0.086 6.52 1.21 10.92
10/20/2022 6:15:00 AM 6.56 43.808 0.086 6.52 1.2 11.05
10/20/2022 6:30:00 AM 6.55 43.79 0.086 6.53 1.17 11.04
10/20/2022 6:45:00 AM 6.51 43.718 0.086 6.51 1.36 11.02
10/20/2022 7:00:00 AM 6.39 43.502 0.086 6.51 1.2 11.1
10/20/2022 7:15:00 AM 6.3 43.34 0.086 6.53 1.33 11.22
10/20/2022 7:30:00 AM 6.26 43.268 0.086 6.57 1.26 11.21
10/20/2022 7:45:00 AM 6.17 43.106 0.086 6.56 1.3 11.28
10/20/2022 8:00:00 AM 6.2 43.16 0.086 6.54 1.23 11.25
10/20/2022 8:15:00 AM 6.13 43.034 0.086 6.58 1.64 11.22
10/20/2022 8:30:00 AM 6.13 43.034 0.086 6.58 1.29 11.3
10/20/2022 8:45:00 AM 6.17 43.106 0.086 6.54 1.24 11.25
10/20/2022 9:00:00 AM 5.99 42.782 0.085 6.57 1.23 11.49
10/20/2022 9:15:00 AM 5.98 42.764 0.085 6.58 1.27 11.64
10/20/2022 9:30:00 AM 6.2 43.16 0.086 6.63 1.5 11.53
10/20/2022 9:45:00 AM 6.15 43.07 0.085 6.63 1.2 11.68
10/20/2022 10:00:00 AM 6.19 43.142 0.085 6.66 1.3 11.82
10/20/2022 10:15:00 AM 6.33 43.394 0.085 6.68 1.2 11.79
10/20/2022 10:30:00 AM 6.41 43.538 0.085 6.68 1.35 11.85
10/20/2022 10:45:00 AM 6.65 43.97 0.086 6.66 1.19 11.73
10/20/2022 11:00:00 AM 6.74 44.132 0.085 6.68 1.22 11.69
10/20/2022 11:15:00 AM 6.88 44.384 0.085 6.68 1.15 11.7
10/20/2022 11:30:00 AM 6.99 44.582 0.085 6.67 1.26 11.63
10/20/2022 11:45:00 AM 7.32 45.176 0.086 6.63 1.21 11.39
10/20/2022 12:00:00 PM 7.27 45.086 0.085 6.71 1.15 11.6
10/20/2022 12:15:00 PM 7.63 45.734 0.086 6.63 1.2 11.37
10/20/2022 12:30:00 PM 7.43 45.374 0.085 6.68 1.22 11.6
10/20/2022 12:45:00 PM 7.39 45.302 0.085 6.71 1.18 11.73
10/20/2022 1:00:00 PM 7.44 45.392 0.085 6.69 1.15 11.7
10/20/2022 1:15:00 PM 7.48 45.464 0.085 6.7 1.2 11.66
10/20/2022 1:30:00 PM 7.54 45.572 0.085 6.74 1.17 11.73
10/20/2022 1:45:00 PM 7.72 45.896 0.085 6.72 1.18 11.65
10/20/2022 2:00:00 PM 7.81 46.058 0.085 6.73 1.14 11.65
10/20/2022 2:15:00 PM 7.91 46.238 0.085 6.71 1.16 11.5
10/20/2022 2:30:00 PM 7.89 46.202 0.085 6.71 1.38 11.48
10/20/2022 2:45:00 PM 7.87 46.166 0.085 6.7 1.18 11.5
10/20/2022 3:00:00 PM 7.89 46.202 0.085 6.7 1.2 11.52
10/20/2022 3:15:00 PM 7.93 46.274 0.085 6.67 1.18 11.29
10/20/2022 3:30:00 PM 7.96 46.328 0.085 6.69 1.19 11.33
10/20/2022 3:45:00 PM 7.98 46.364 0.085 6.67 1.16 11.37
10/20/2022 4:00:00 PM 7.98 46.364 0.085 6.71 1.24 11.4
10/20/2022 4:15:00 PM 8.03 46.454 0.086 6.63 1.13 11.07
10/20/2022 4:30:00 PM 8.03 46.454 0.086 6.65 1.13 11.05
10/20/2022 4:45:00 PM 7.99 46.382 0.085 6.66 1.16 11.13
10/20/2022 5:00:00 PM 7.93 46.274 0.085 6.65 1.21 11.12
10/20/2022 5:15:00 PM 7.91 46.238 0.085 6.7 1.16 11.15
10/20/2022 5:30:00 PM 7.89 46.202 0.085 6.64 1.21 11.11
10/20/2022 5:45:00 PM 7.88 46.184 0.085 6.68 1.23 11.11
10/20/2022 6:00:00 PM 7.86 46.148 0.085 6.64 1.18 11.07
10/20/2022 6:15:00 PM 7.84 46.112 0.086 6.63 1.18 11.03
10/20/2022 6:30:00 PM 7.84 46.112 0.086 6.63 1.2 10.97
10/20/2022 6:45:00 PM 7.81 46.058 0.086 6.6 1.26 10.92
10/20/2022 7:00:00 PM 7.78 46.004 0.086 6.63 1.18 10.95
10/20/2022 7:15:00 PM 7.76 45.968 0.086 6.62 1.28 10.94
10/20/2022 7:30:00 PM 7.73 45.914 0.086 6.61 1.26 10.91
10/20/2022 7:45:00 PM 7.7 45.86 0.086 6.67 1.21 10.98
10/20/2022 8:00:00 PM 7.68 45.824 0.086 6.62 1.27 10.99
10/20/2022 8:15:00 PM 7.68 45.824 0.086 6.6 1.22 10.87
10/20/2022 8:30:00 PM 7.65 45.77 0.086 6.64 1.16 10.9
10/20/2022 8:45:00 PM 7.65 45.77 0.087 6.54 1.17 10.66
10/20/2022 9:00:00 PM 7.63 45.734 0.086 6.57 1.29 10.69
10/20/2022 9:15:00 PM 7.59 45.662 0.086 6.58 1.23 10.78
10/20/2022 9:30:00 PM 7.56 45.608 0.087 6.59 1.18 10.74
10/20/2022 9:45:00 PM 7.51 45.518 0.086 6.65 1.19 10.88
10/20/2022 10:00:00 PM 7.48 45.464 0.086 6.57 1.25 10.93
10/20/2022 10:15:00 PM 7.45 45.41 0.086 6.59 1.28 10.89
10/20/2022 10:30:00 PM 7.44 45.392 0.086 6.58 1.24 10.92
10/20/2022 10:45:00 PM 7.41 45.338 0.086 6.59 1.22 10.94
10/20/2022 11:00:00 PM 7.39 45.302 0.086 6.62 1.24 10.99
10/20/2022 11:15:00 PM 7.37 45.266 0.086 6.6 1.19 11.09
10/20/2022 11:30:00 PM 7.37 45.266 0.086 6.57 1.25 10.95
10/20/2022 11:45:00 PM 7.33 45.194 0.086 6.59 1.2 10.92
10/21/2022 12:00:00 AM 7.29 45.122 0.087 6.58 1.23 10.88
10/21/2022 12:15:00 AM 7.24 45.032 0.087 6.58 1.22 10.82
10/21/2022 12:30:00 AM 7.12 44.816 0.086 6.58 1.33 10.97
10/21/2022 12:45:00 AM 7.09 44.762 0.087 6.6 1.3 10.98
10/21/2022 1:00:00 AM 7.12 44.816 0.087 6.54 1.18 10.73
10/21/2022 1:15:00 AM 6.98 44.564 0.087 6.57 1.24 10.87
10/21/2022 1:30:00 AM 7 44.6 0.087 6.6 1.22 10.82
10/21/2022 1:45:00 AM 6.91 44.438 0.087 6.58 1.21 10.84
10/21/2022 2:00:00 AM 6.88 44.384 0.087 6.57 1.17 10.79
10/21/2022 2:15:00 AM 6.76 44.168 0.087 6.55 1.23 10.91
10/21/2022 2:30:00 AM 6.71 44.078 0.087 6.59 1.23 10.92
10/21/2022 2:45:00 AM 6.57 43.826 0.087 6.63 1.24 11.12
10/21/2022 3:00:00 AM 6.53 43.754 0.087 6.57 1.25 11.18
10/21/2022 3:15:00 AM 6.47 43.646 0.087 6.56 1.21 11.2
10/21/2022 3:30:00 AM 6.42 43.556 0.087 6.6 1.21 11.2
10/21/2022 3:45:00 AM 6.33 43.394 0.086 6.57 1.22 11.33
10/21/2022 4:00:00 AM 6.26 43.268 0.086 6.61 1.23 11.43
10/21/2022 4:15:00 AM 6.17 43.106 0.086 6.62 1.22 11.53
10/21/2022 4:30:00 AM 6.23 43.214 0.087 6.58 1.19 11.28
10/21/2022 4:45:00 AM 6.14 43.052 0.087 6.57 1.22 11.24
10/21/2022 5:00:00 AM 6.07 42.926 0.087 6.57 1.26 11.34
10/21/2022 5:15:00 AM 6 42.8 0.087 6.58 1.26 11.4
10/21/2022 5:30:00 AM 5.98 42.764 0.087 6.59 1.3 11.35
10/21/2022 5:45:00 AM 6 42.8 0.087 6.56 1.24 11.25
10/21/2022 6:00:00 AM 5.93 42.674 0.087 6.61 1.21 11.26
10/21/2022 6:15:00 AM 5.83 42.494 0.087 6.56 1.26 11.37
10/21/2022 6:30:00 AM 5.76 42.368 0.087 6.52 1.27 11.54
10/21/2022 6:45:00 AM 5.7 42.26 0.087 6.54 1.29 11.56
10/21/2022 7:00:00 AM 5.67 42.206 0.087 6.59 1.23 11.52
10/21/2022 7:15:00 AM 5.58 42.044 0.086 6.55 1.34 11.65
10/21/2022 7:30:00 AM 5.53 41.954 0.086 6.6 1.41 11.72
10/21/2022 7:45:00 AM 5.49 41.882 0.086 6.53 1.3 11.66
10/21/2022 8:00:00 AM 5.5 41.9 0.087 6.57 1.25 11.6
10/21/2022 8:15:00 AM 5.63 42.134 0.088 6.5 1.53 11.34
10/21/2022 8:30:00 AM 5.53 41.954 0.087 6.53 1.3 11.37
10/21/2022 8:45:00 AM 5.41 41.738 0.087 6.56 1.21 11.63
10/21/2022 9:00:00 AM 5.38 41.684 0.087 6.6 1.22 11.76
10/21/2022 9:15:00 AM 5.29 41.522 0.086 6.58 1.35 11.95
10/21/2022 9:30:00 AM 5.35 41.63 0.086 6.63 1.22 11.96
10/21/2022 9:45:00 AM 5.39 41.702 0.086 6.64 1.21 11.95
10/21/2022 10:00:00 AM 5.5 41.9 0.086 6.62 1.2 11.97
10/21/2022 10:15:00 AM 5.56 42.008 0.086 6.66 1.24 12.01
10/21/2022 10:30:00 AM 5.68 42.224 0.086 6.67 1.23 12.03
10/21/2022 10:45:00 AM 5.76 42.368 0.086 6.65 1.22 12.08
10/21/2022 11:00:00 AM 5.88 42.584 0.086 6.65 1.23 12.07
10/21/2022 11:15:00 AM 6.12 43.016 0.086 6.69 1.17 11.95
10/21/2022 11:30:00 AM 6.35 43.43 0.086 6.68 1.17 11.95
10/21/2022 11:45:00 AM 6.81 44.258 0.087 6.66 1.2 11.75
10/21/2022 12:00:00 PM 6.8 44.24 0.086 6.68 1.23 11.95
10/21/2022 12:15:00 PM 7.13 44.834 0.086 6.65 1.2 11.83
10/21/2022 12:30:00 PM 7.11 44.798 0.086 6.7 1.44 11.91
10/21/2022 12:45:00 PM 7.14 44.852 0.085 6.71 1.22 11.89
10/21/2022 1:00:00 PM 7.23 45.014 0.085 6.73 1.29 11.9
10/21/2022 1:15:00 PM 7.31 45.158 0.086 6.71 1.41 11.91
10/21/2022 1:30:00 PM 7.47 45.446 0.086 6.69 1.22 11.75
10/21/2022 1:45:00 PM 7.51 45.518 0.086 6.69 1.21 11.67
10/21/2022 2:00:00 PM 7.51 45.518 0.086 6.71 1.23 11.71
10/21/2022 2:15:00 PM 7.54 45.572 0.086 6.69 1.2 11.74
10/21/2022 2:30:00 PM 7.7 45.86 0.086 6.69 1.36 11.65
10/21/2022 2:45:00 PM 7.78 46.004 0.086 6.69 1.21 11.5
10/21/2022 3:00:00 PM 7.85 46.13 0.087 6.7 1.16 11.34
10/21/2022 3:15:00 PM 7.82 46.076 0.086 6.65 1.21 11.38
10/21/2022 3:30:00 PM 7.76 45.968 0.086 6.72 1.19 11.48
10/21/2022 3:45:00 PM 7.77 45.986 0.086 6.72 1.2 11.44
10/21/2022 4:00:00 PM 7.8 46.04 0.086 6.67 1.2 11.26
10/21/2022 4:15:00 PM 7.77 45.986 0.086 6.67 1.24 11.28
10/21/2022 4:30:00 PM 7.74 45.932 0.086 6.68 1.19 11.34
10/21/2022 4:45:00 PM 7.74 45.932 0.086 6.68 1.19 11.33
10/21/2022 5:00:00 PM 7.75 45.95 0.086 6.7 1.2 11.33
10/21/2022 5:15:00 PM 7.76 45.968 0.086 6.68 1.2 11.32
10/21/2022 5:30:00 PM 7.77 45.986 0.086 6.7 1.21 11.33
10/21/2022 5:45:00 PM 7.78 46.004 0.086 6.68 1.21 11.28
10/21/2022 6:00:00 PM 7.78 46.004 0.086 6.71 1.19 11.32
10/21/2022 6:15:00 PM 7.78 46.004 0.086 6.7 1.22 11.27
10/21/2022 6:30:00 PM 7.77 45.986 0.086 6.67 1.23 11.29
10/21/2022 6:45:00 PM 7.76 45.968 0.086 6.64 1.28 11.24
10/21/2022 7:00:00 PM 7.74 45.932 0.086 6.7 1.22 11.21
10/21/2022 7:15:00 PM 7.72 45.896 0.086 6.64 1.19 11.18
10/21/2022 7:30:00 PM 7.68 45.824 0.086 6.66 1.35 11.19
10/21/2022 7:45:00 PM 7.65 45.77 0.086 6.64 1.2 11.18
10/21/2022 8:00:00 PM 7.61 45.698 0.086 6.64 1.23 11.19
10/21/2022 8:15:00 PM 7.57 45.626 0.086 6.62 1.19 11.17
10/21/2022 8:30:00 PM 7.53 45.554 0.086 6.67 1.2 11.22
10/21/2022 8:45:00 PM 7.48 45.464 0.086 6.69 1.22 11.22
10/21/2022 9:00:00 PM 7.44 45.392 0.086 6.68 1.21 11.2
10/21/2022 9:15:00 PM 7.39 45.302 0.086 6.6 1.2 11.22
10/21/2022 9:30:00 PM 7.35 45.23 0.086 6.63 1.25 11.24
10/21/2022 9:45:00 PM 7.31 45.158 0.086 6.67 1.24 11.23
10/21/2022 10:00:00 PM 7.27 45.086 0.086 6.65 1.29 11.23
10/21/2022 10:15:00 PM 7.23 45.014 0.086 6.66 1.23 11.25
10/21/2022 10:30:00 PM 7.19 44.942 0.086 6.65 1.29 11.23
10/21/2022 10:45:00 PM 7.14 44.852 0.087 6.6 1.21 11.24
10/21/2022 11:00:00 PM 7.08 44.744 0.086 6.67 1.22 11.28
10/21/2022 11:15:00 PM 7.04 44.672 0.087 6.64 1.22 11.27
10/21/2022 11:30:00 PM 7 44.6 0.087 6.66 1.26 11.27
10/21/2022 11:45:00 PM 6.94 44.492 0.087 6.58 1.27 11.28
10/22/2022 12:00:00 AM 6.9 44.42 0.087 6.66 1.25 11.29
10/22/2022 12:15:00 AM 6.85 44.33 0.087 6.62 1.31 11.3
10/22/2022 12:30:00 AM 6.81 44.258 0.087 6.59 1.31 11.28
10/22/2022 12:45:00 AM 6.74 44.132 0.087 6.61 1.21 11.31
10/22/2022 1:00:00 AM 6.71 44.078 0.087 6.61 1.22 11.3
10/22/2022 1:15:00 AM 6.62 43.916 0.087 6.61 1.25 11.43
10/22/2022 1:30:00 AM 6.58 43.844 0.087 6.61 1.24 11.46
10/22/2022 1:45:00 AM 6.57 43.826 0.087 6.61 1.22 11.4
10/22/2022 2:00:00 AM 6.55 43.79 0.087 6.6 1.28 11.3
10/22/2022 2:15:00 AM 6.46 43.628 0.087 6.66 1.23 11.45
10/22/2022 2:30:00 AM 6.39 43.502 0.087 6.59 3.28 11.54
10/22/2022 2:45:00 AM 6.36 43.448 0.087 6.65 1.21 11.57
10/22/2022 3:00:00 AM 6.31 43.358 0.087 6.61 1.17 11.56
10/22/2022 3:15:00 AM 6.24 43.232 0.087 6.63 1.6 11.65
10/22/2022 3:30:00 AM 6.22 43.196 0.087 6.63 1.18 11.57
10/22/2022 3:45:00 AM 6.2 43.16 0.087 6.65 1.22 11.53
10/22/2022 4:00:00 AM 6.1 42.98 0.087 6.63 1.21 11.64
10/22/2022 4:15:00 AM 6.06 42.908 0.087 6.67 1.19 11.66
10/22/2022 4:30:00 AM 6.04 42.872 0.087 6.64 1.2 11.64
10/22/2022 4:45:00 AM 5.97 42.746 0.087 6.62 1.23 11.71
10/22/2022 5:00:00 AM 5.94 42.692 0.087 6.63 1.19 11.75
10/22/2022 5:15:00 AM 5.9 42.62 0.087 6.59 1.25 11.73
10/22/2022 5:30:00 AM 5.83 42.494 0.087 6.66 1.21 11.82
10/22/2022 5:45:00 AM 5.81 42.458 0.087 6.67 1.23 11.81
10/22/2022 6:00:00 AM 5.79 42.422 0.087 6.61 1.29 11.75
10/22/2022 6:15:00 AM 5.71 42.278 0.087 6.62 1.25 11.83
10/22/2022 6:30:00 AM 5.76 42.368 0.087 6.58 1.22 11.71
10/22/2022 6:45:00 AM 5.66 42.188 0.087 6.61 1.18 11.84
10/22/2022 7:00:00 AM 5.61 42.098 0.087 6.63 1.22 11.91
10/22/2022 7:15:00 AM 5.62 42.116 0.087 6.65 1.2 11.83
10/22/2022 7:30:00 AM 5.53 41.954 0.087 6.6 1.19 11.94
10/22/2022 7:45:00 AM 5.54 41.972 0.087 6.6 1.22 11.9
10/22/2022 8:00:00 AM 5.48 41.864 0.087 6.63 1.26 12
10/22/2022 8:15:00 AM 5.51 41.918 0.087 6.63 1.34 11.94
10/22/2022 8:30:00 AM 5.45 41.81 0.087 6.63 1.22 12.03
10/22/2022 8:45:00 AM 5.46 41.828 0.087 6.62 1.24 12.03
10/22/2022 9:00:00 AM 5.43 41.774 0.087 6.63 1.23 12.12
10/22/2022 9:15:00 AM 5.44 41.792 0.086 6.65 1.25 12.23
10/22/2022 9:30:00 AM 5.52 41.936 0.087 6.66 1.19 12.21
10/22/2022 9:45:00 AM 5.61 42.098 0.087 6.66 1.21 12.19
10/22/2022 10:00:00 AM 5.68 42.224 0.086 6.66 1.21 12.25
10/22/2022 10:15:00 AM 5.81 42.458 0.086 6.69 1.18 12.21
10/22/2022 10:30:00 AM 5.96 42.728 0.086 6.7 1.19 12.22
10/22/2022 10:45:00 AM 6.13 43.034 0.086 6.66 1.24 12.2
10/22/2022 11:00:00 AM 6.29 43.322 0.086 6.68 1.18 12.17
10/22/2022 11:15:00 AM 6.49 43.682 0.086 6.69 1.21 12.18
10/22/2022 11:30:00 AM 6.71 44.078 0.086 6.69 1.29 12.12
10/22/2022 11:45:00 AM 7.18 44.924 0.087 6.63 1.15 11.8
10/22/2022 12:00:00 PM 7.32 45.176 0.087 6.65 1.22 11.77
10/22/2022 12:15:00 PM 7.4 45.32 0.086 6.67 1.21 11.87
10/22/2022 12:30:00 PM 7.44 45.392 0.086 6.69 1.17 12
10/22/2022 12:45:00 PM 7.63 45.734 0.086 6.7 1.15 11.92
10/22/2022 1:00:00 PM 7.75 45.95 0.086 6.65 1.17 11.69
10/22/2022 1:15:00 PM 7.82 46.076 0.086 6.64 1.15 11.63
10/22/2022 1:30:00 PM 7.83 46.094 0.086 6.69 1.13 11.74
10/22/2022 1:45:00 PM 7.93 46.274 0.086 6.69 1.14 11.68
10/22/2022 2:00:00 PM 8.04 46.472 0.086 6.74 1.13 11.65
10/22/2022 2:15:00 PM 8.12 46.616 0.086 6.68 1.15 11.65
10/22/2022 2:30:00 PM 8.2 46.76 0.086 6.68 1.14 11.53
10/22/2022 2:45:00 PM 8.26 46.868 0.086 6.68 1.14 11.47
10/22/2022 3:00:00 PM 8.32 46.976 0.086 6.66 1.13 11.48
10/22/2022 3:15:00 PM 8.44 47.192 0.086 6.64 1.14 11.35
10/22/2022 3:30:00 PM 8.48 47.264 0.087 6.64 1.14 11.1
10/22/2022 3:45:00 PM 8.42 47.156 0.087 6.65 1.16 11.06
10/22/2022 4:00:00 PM 8.37 47.066 0.086 6.67 1.21 11.21
10/22/2022 4:15:00 PM 8.35 47.03 0.086 6.7 1.23 11.15
10/22/2022 4:30:00 PM 8.36 47.048 0.086 6.73 1.21 11.21
10/22/2022 4:45:00 PM 8.37 47.066 0.086 6.66 1.18 11.21
10/22/2022 5:00:00 PM 8.38 47.084 0.086 6.68 1.25 11.2
10/22/2022 5:15:00 PM 8.38 47.084 0.086 6.66 1.2 11.17
10/22/2022 5:30:00 PM 8.39 47.102 0.086 6.69 1.17 11.1
10/22/2022 5:45:00 PM 8.4 47.12 0.086 6.69 1.17 11.1
10/22/2022 6:00:00 PM 8.4 47.12 0.086 6.65 1.12 11.11
10/22/2022 6:15:00 PM 8.4 47.12 0.086 6.68 1.16 11.09
10/22/2022 6:30:00 PM 8.37 47.066 0.086 6.69 1.15 11.01
10/22/2022 6:45:00 PM 8.36 47.048 0.086 6.62 1.17 11.03
10/22/2022 7:00:00 PM 8.35 47.03 0.086 6.64 1.21 11.07
10/22/2022 7:15:00 PM 8.32 46.976 0.086 6.62 1.17 11.03
10/22/2022 7:30:00 PM 8.29 46.922 0.086 6.66 1.18 11.03
10/22/2022 7:45:00 PM 8.26 46.868 0.086 6.62 1.2 10.99
10/22/2022 8:00:00 PM 8.22 46.796 0.086 6.62 1.25 11
10/22/2022 8:15:00 PM 8.19 46.742 0.086 6.65 1.23 11.02
10/22/2022 8:30:00 PM 8.14 46.652 0.086 6.64 1.17 11.04
10/22/2022 8:45:00 PM 8.1 46.58 0.087 6.61 1.21 11
10/22/2022 9:00:00 PM 8.06 46.508 0.086 6.63 1.24 11.02
10/22/2022 9:15:00 PM 8.02 46.436 0.087 6.63 1.21 11.02
10/22/2022 9:30:00 PM 7.97 46.346 0.087 6.67 1.24 11.01
10/22/2022 9:45:00 PM 7.93 46.274 0.087 6.62 1.17 11.01
10/22/2022 10:00:00 PM 7.88 46.184 0.087 6.59 1.21 11.04
10/22/2022 10:15:00 PM 7.84 46.112 0.087 6.62 1.18 11.03
10/22/2022 10:30:00 PM 7.79 46.022 0.087 6.6 1.2 11.04
10/22/2022 10:45:00 PM 7.74 45.932 0.087 6.62 1.19 11.09
10/22/2022 11:00:00 PM 7.69 45.842 0.087 6.59 1.16 11.08
10/22/2022 11:15:00 PM 7.65 45.77 0.087 6.6 1.22 11.06
10/22/2022 11:30:00 PM 7.6 45.68 0.087 6.59 1.24 11
10/22/2022 11:45:00 PM 7.55 45.59 0.087 6.59 1.2 11.03
10/23/2022 12:00:00 AM 7.5 45.5 0.087 6.62 1.25 11.01
10/23/2022 12:15:00 AM 7.45 45.41 0.087 6.59 1.25 11.02
10/23/2022 12:30:00 AM 7.4 45.32 0.087 6.57 1.15 11.03
10/23/2022 12:45:00 AM 7.35 45.23 0.087 6.59 1.22 11.07
10/23/2022 1:00:00 AM 7.28 45.104 0.087 6.59 1.25 11.1
10/23/2022 1:15:00 AM 7.24 45.032 0.087 6.58 1.16 11.1
10/23/2022 1:30:00 AM 7.17 44.906 0.087 6.6 1.2 11.23
10/23/2022 1:45:00 AM 7.12 44.816 0.087 6.6 1.25 11.24
10/23/2022 2:00:00 AM 7.1 44.78 0.087 6.61 1.23 11.14
10/23/2022 2:15:00 AM 7.04 44.672 0.087 6.6 1.21 11.23
10/23/2022 2:30:00 AM 6.99 44.582 0.087 6.58 1.2 11.22
10/23/2022 2:45:00 AM 6.94 44.492 0.087 6.61 1.21 11.24
10/23/2022 3:00:00 AM 6.88 44.384 0.087 6.65 1.17 11.32
10/23/2022 3:15:00 AM 6.84 44.312 0.087 6.6 1.22 11.34
10/23/2022 3:30:00 AM 6.81 44.258 0.087 6.64 1.21 11.26
10/23/2022 3:45:00 AM 6.75 44.15 0.087 6.65 1.29 11.31
10/23/2022 4:00:00 AM 6.7 44.06 0.087 6.57 1.26 11.35
10/23/2022 4:15:00 AM 6.68 44.024 0.087 6.6 1.25 11.27
10/23/2022 4:30:00 AM 6.61 43.898 0.087 6.59 2.95 11.35
10/23/2022 4:45:00 AM 6.56 43.808 0.087 6.59 1.34 11.32
10/23/2022 5:00:00 AM 6.53 43.754 0.087 6.55 1.46 11.26
10/23/2022 5:15:00 AM 6.51 43.718 0.087 6.6 1.32 11.26
10/23/2022 5:30:00 AM 6.43 43.574 0.087 6.61 1.51 11.41
10/23/2022 5:45:00 AM 6.41 43.538 0.087 6.65 1.29 11.38
10/23/2022 6:00:00 AM 6.39 43.502 0.087 6.58 1.41 11.35
10/23/2022 6:15:00 AM 6.38 43.484 0.087 6.57 1.22 11.41
10/23/2022 6:30:00 AM 6.27 43.286 0.087 6.58 1.22 11.52
10/23/2022 6:45:00 AM 6.2 43.16 0.087 6.59 1.28 11.6
10/23/2022 7:00:00 AM 6.24 43.232 0.087 6.57 1.24 11.44
10/23/2022 7:15:00 AM 6.18 43.124 0.087 6.62 1.29 11.47
10/23/2022 7:30:00 AM 6.09 42.962 0.087 6.6 1.31 11.56
10/23/2022 7:45:00 AM 6.11 42.998 0.087 6.55 1.29 11.49
10/23/2022 8:00:00 AM 6.09 42.962 0.087 6.58 1.38 11.54
10/23/2022 8:15:00 AM 6.07 42.926 0.087 6.6 1.31 11.58
10/23/2022 8:30:00 AM 6.13 43.034 0.087 6.59 1.37 11.5
10/23/2022 8:45:00 AM 6.09 42.962 0.087 6.6 1.23 11.65
10/23/2022 9:00:00 AM 6.11 42.998 0.087 6.61 1.29 11.68
10/23/2022 9:15:00 AM 6.08 42.944 0.087 6.62 1.22 11.81
10/23/2022 9:30:00 AM 6.06 42.908 0.087 6.64 1.27 11.92
10/23/2022 9:45:00 AM 6.15 43.07 0.087 6.66 1.28 11.99
10/23/2022 10:00:00 AM 6.2 43.16 0.087 6.65 2.65 11.97
10/23/2022 10:15:00 AM 6.28 43.304 0.087 6.66 1.21 11.93
10/23/2022 10:30:00 AM 6.36 43.448 0.087 6.64 1.41 11.94
10/23/2022 10:45:00 AM 6.51 43.718 0.087 6.66 1.2 11.95
10/23/2022 11:00:00 AM 6.64 43.952 0.087 6.69 1.22 11.93
10/23/2022 11:15:00 AM 6.8 44.24 0.087 6.7 1.46 11.88
10/23/2022 11:30:00 AM 7 44.6 0.086 6.66 1.49 11.9
10/23/2022 11:45:00 AM 7.31 45.158 0.086 6.69 1.5 11.9
10/23/2022 12:00:00 PM 7.51 45.518 0.086 6.65 1.91 11.82
10/23/2022 12:15:00 PM 7.73 45.914 0.086 6.67 1.24 11.79
10/23/2022 12:30:00 PM 7.82 46.076 0.086 6.67 1.28 11.83
10/23/2022 12:45:00 PM 7.89 46.202 0.086 6.68 1.25 11.73
10/23/2022 1:00:00 PM 8.01 46.418 0.086 6.69 2.05 11.68
10/23/2022 1:15:00 PM 8.09 46.562 0.086 6.73 1.25 11.7
10/23/2022 1:30:00 PM 8.21 46.778 0.086 6.65 2.19 11.66
10/23/2022 1:45:00 PM 8.29 46.922 0.086 6.67 1.64 11.51
10/23/2022 2:00:00 PM 8.4 47.12 0.086 6.66 1.39 11.41
10/23/2022 2:15:00 PM 8.46 47.228 0.086 6.68 1.96 11.46
10/23/2022 2:30:00 PM 8.54 47.372 0.086 6.67 1.84 11.39
10/23/2022 2:45:00 PM 8.6 47.48 0.086 6.7 1.99 11.27
10/23/2022 3:00:00 PM 8.7 47.66 0.087 6.63 1.3 11.21
10/23/2022 3:15:00 PM 8.73 47.714 0.087 6.66 1.22 11.12
10/23/2022 3:30:00 PM 8.71 47.678 0.087 6.63 1.69 11.06
10/23/2022 3:45:00 PM 8.68 47.624 0.086 6.63 1.17 11.05
10/23/2022 4:00:00 PM 8.7 47.66 0.086 6.65 2.02 11.14
10/23/2022 4:15:00 PM 8.72 47.696 0.086 6.67 1.48 11.13
10/23/2022 4:30:00 PM 8.73 47.714 0.086 6.69 3.37 11.02
10/23/2022 4:45:00 PM 8.72 47.696 0.086 6.67 1.84 11.07
10/23/2022 5:00:00 PM 8.71 47.678 0.086 6.68 1.65 11.04
10/23/2022 5:15:00 PM 8.72 47.696 0.086 6.65 1.84 11.11
10/23/2022 5:30:00 PM 8.72 47.696 0.086 6.66 1.72 11.05
10/23/2022 5:45:00 PM 8.7 47.66 0.086 6.65 2.8 11.07
10/23/2022 6:00:00 PM 8.67 47.606 0.086 6.65 1.83 10.96
10/23/2022 6:15:00 PM 8.66 47.588 0.086 6.64 1.44 11.01
10/23/2022 6:30:00 PM 8.65 47.57 0.086 6.64 2.39 10.95
10/23/2022 6:45:00 PM 8.63 47.534 0.086 6.62 7.6 11.01
10/23/2022 7:00:00 PM 8.6 47.48 0.086 6.68 1.2 11
10/23/2022 7:15:00 PM 8.56 47.408 0.086 6.68 1.6 10.93
10/23/2022 7:30:00 PM 8.52 47.336 0.086 6.65 1.2 10.94
10/23/2022 7:45:00 PM 8.48 47.264 0.087 6.64 1.18 10.91
10/23/2022 8:00:00 PM 8.45 47.21 0.086 6.66 1.27 10.95
10/23/2022 8:15:00 PM 8.42 47.156 0.087 6.63 1.32 10.92
10/23/2022 8:30:00 PM 8.39 47.102 0.087 6.64 1.36 10.99
10/23/2022 8:45:00 PM 8.37 47.066 0.087 6.62 1.17 10.99
10/23/2022 9:00:00 PM 8.34 47.012 0.087 6.61 1.25 10.96
10/23/2022 9:15:00 PM 8.32 46.976 0.087 6.62 1.24 10.95
10/23/2022 9:30:00 PM 8.31 46.958 0.087 6.64 1.39 10.96
10/23/2022 9:45:00 PM 8.29 46.922 0.087 6.63 1.18 10.87
10/23/2022 10:00:00 PM 8.26 46.868 0.087 6.68 1.21 10.97
10/23/2022 10:15:00 PM 8.24 46.832 0.087 6.59 1.21 10.89
10/23/2022 10:30:00 PM 8.23 46.814 0.087 6.62 1.16 10.97
10/23/2022 10:45:00 PM 8.23 46.814 0.087 6.63 1.19 10.97
10/23/2022 11:00:00 PM 8.23 46.814 0.087 6.62 1.22 10.9
10/23/2022 11:15:00 PM 8.22 46.796 0.087 6.57 1.2 10.87
10/23/2022 11:30:00 PM 8.18 46.724 0.087 6.6 1.21 10.79
10/23/2022 11:45:00 PM 8.16 46.688 0.087 6.58 1.28 10.74
10/24/2022 12:00:00 AM 8.13 46.634 0.088 6.57 1.21 10.72
10/24/2022 12:15:00 AM 8.08 46.544 0.087 6.61 1.73 10.84
10/24/2022 12:30:00 AM 8.05 46.49 0.087 6.59 1.16 10.86
10/24/2022 12:45:00 AM 8.02 46.436 0.088 6.58 1.18 10.79
10/24/2022 1:00:00 AM 8 46.4 0.088 6.57 1.15 10.73
10/24/2022 1:15:00 AM 7.97 46.346 0.088 6.56 1.14 10.72
10/24/2022 1:30:00 AM 7.95 46.31 0.088 6.61 1.19 10.65
10/24/2022 1:45:00 AM 7.93 46.274 0.088 6.56 1.19 10.62
10/24/2022 2:00:00 AM 7.89 46.202 0.088 6.58 1.18 10.69
10/24/2022 2:15:00 AM 7.86 46.148 0.088 6.58 1.19 10.69
10/24/2022 2:30:00 AM 7.84 46.112 0.088 6.58 1.43 10.77
10/24/2022 2:45:00 AM 7.81 46.058 0.088 6.54 1.28 10.79
10/24/2022 3:00:00 AM 7.78 46.004 0.087 6.55 1.27 10.79
10/24/2022 3:15:00 AM 7.76 45.968 0.088 6.56 1.16 10.74
10/24/2022 3:30:00 AM 7.73 45.914 0.088 6.57 1.22 10.78
10/24/2022 3:45:00 AM 7.71 45.878 0.088 6.61 1.26 10.78
10/24/2022 4:00:00 AM 7.67 45.806 0.087 6.56 1.19 10.78
10/24/2022 4:15:00 AM 7.63 45.734 0.087 6.57 1.18 10.9
10/24/2022 4:30:00 AM 7.62 45.716 0.088 6.55 1.22 10.85
10/24/2022 4:45:00 AM 7.58 45.644 0.088 6.61 1.23 10.9
10/24/2022 5:00:00 AM 7.57 45.626 0.088 6.53 1.27 10.84
10/24/2022 5:15:00 AM 7.55 45.59 0.088 6.59 1.25 10.89
10/24/2022 5:30:00 AM 7.54 45.572 0.087 6.57 1.31 10.97
10/24/2022 5:45:00 AM 7.51 45.518 0.087 6.61 1.16 11.09
10/24/2022 6:00:00 AM 7.5 45.5 0.087 6.59 1.24 11.05
10/24/2022 6:15:00 AM 7.48 45.464 0.087 6.57 1.35 11.07
10/24/2022 6:30:00 AM 7.46 45.428 0.088 6.6 1.47 11
10/24/2022 6:45:00 AM 7.42 45.356 0.087 6.59 1.25 11.05
10/24/2022 7:00:00 AM 7.39 45.302 0.087 6.66 1.2 11.1
10/24/2022 7:15:00 AM 7.36 45.248 0.087 6.58 1.38 11.09
10/24/2022 7:30:00 AM 7.33 45.194 0.087 6.58 1.21 11.06
10/24/2022 7:45:00 AM 7.29 45.122 0.087 6.61 1.21 11.16
10/24/2022 8:00:00 AM 7.28 45.104 0.087 6.59 1.16 11.16
10/24/2022 8:15:00 AM 7.27 45.086 0.087 6.65 1.26 11.15
10/24/2022 8:30:00 AM 7.27 45.086 0.088 6.63 3.71 11.2
10/24/2022 8:45:00 AM 7.28 45.104 0.088 6.65 4.23 11.13
10/24/2022 9:00:00 AM 7.32 45.176 0.087 6.58 4.95 11.27
10/24/2022 9:15:00 AM 7.41 45.338 0.087 6.63 3.71 11.37
10/24/2022 9:30:00 AM 7.43 45.374 0.087 6.67 3.38 11.55
10/24/2022 9:45:00 AM 7.55 45.59 0.087 6.67 4 11.63
10/24/2022 10:00:00 AM 7.63 45.734 0.087 6.67 5.77 11.61
10/24/2022 10:15:00 AM 7.73 45.914 0.087 6.67 1.71 11.59
10/24/2022 10:30:00 AM 7.83 46.094 0.087 6.68 1.75 11.65
10/24/2022 10:45:00 AM 7.99 46.382 0.087 6.71 2.47 11.61
10/24/2022 11:00:00 AM 8.13 46.634 0.087 6.69 1.77 11.6
10/24/2022 11:15:00 AM 8.34 47.012 0.087 6.72 2.19 11.41
10/24/2022 11:30:00 AM 8.65 47.57 0.087 6.64 2.44 11.31
10/24/2022 11:45:00 AM 8.86 47.948 0.087 6.64 1.19 11.33
10/24/2022 12:00:00 PM 8.99 48.182 0.087 6.67 2.67 11.29
10/24/2022 12:15:00 PM 9.19 48.542 0.087 6.67 1.58 11.29
10/24/2022 12:30:00 PM 9.28 48.704 0.087 6.66 2.19 11.31
10/24/2022 12:45:00 PM 9.33 48.794 0.087 6.66 3.11 11.17
10/24/2022 1:00:00 PM 9.53 49.154 0.087 6.7 2.81 11.19
10/24/2022 1:15:00 PM 9.59 49.262 0.087 6.67 1.17 11.14
10/24/2022 1:30:00 PM 9.67 49.406 0.087 6.71 1.48 11.11
10/24/2022 1:45:00 PM 9.73 49.514 0.087 6.66 1.39 11.05
10/24/2022 2:00:00 PM 9.78 49.604 0.087 6.71 1.18 11.03
10/24/2022 2:15:00 PM 9.81 49.658 0.087 6.65 1.07 10.95
10/24/2022 2:30:00 PM 9.97 49.946 0.087 6.67 1.12 10.92
10/24/2022 2:45:00 PM 10 50 0.087 6.64 1.08 10.87
10/24/2022 3:00:00 PM 10 50 0.087 6.67 1.11 10.9
10/24/2022 3:15:00 PM 10.08 50.144 0.087 6.66 1.1 10.84
10/24/2022 3:30:00 PM 10.08 50.144 0.087 6.72 1.12 10.75
10/24/2022 3:45:00 PM 10.06 50.108 0.087 6.62 1.09 10.74
10/24/2022 4:00:00 PM 10.04 50.072 0.087 6.67 1.13 10.71
10/24/2022 4:15:00 PM 10.01 50.018 0.087 6.64 4.29 10.55
10/24/2022 4:30:00 PM 10.05 50.09 0.087 6.63 5.81 10.57
10/24/2022 4:45:00 PM 10.06 50.108 0.087 6.73 1.22 10.56
10/24/2022 5:00:00 PM 10.1 50.18 0.087 6.7 1.45 10.64
10/24/2022 5:15:00 PM 10.1 50.18 0.087 6.69 1.69 10.6
10/24/2022 5:30:00 PM 10.1 50.18 0.087 6.67 1.9 10.54
10/24/2022 5:45:00 PM 10.08 50.144 0.087 6.71 1.7 10.48
10/24/2022 6:00:00 PM 10.09 50.162 0.087 6.65 1.75 10.46
10/24/2022 6:15:00 PM 10.08 50.144 0.087 6.66 3.05 10.47
10/24/2022 6:30:00 PM 10.06 50.108 0.087 6.63 1.22 10.5
10/24/2022 6:45:00 PM 10.06 50.108 0.087 6.62 1.14 10.52
10/24/2022 7:00:00 PM 10.03 50.054 0.087 6.63 1.33 10.47
10/24/2022 7:15:00 PM 10.02 50.036 0.087 6.62 1.16 10.48
10/24/2022 7:30:00 PM 9.99 49.982 0.087 6.61 1.13 10.47
10/24/2022 7:45:00 PM 9.95 49.91 0.087 6.67 1.16 10.43
10/24/2022 8:00:00 PM 9.92 49.856 0.087 6.61 1.15 10.43
10/24/2022 8:15:00 PM 9.9 49.82 0.087 6.62 1.15 10.47
10/24/2022 8:30:00 PM 9.87 49.766 0.087 6.6 1.16 10.5
10/24/2022 8:45:00 PM 9.82 49.676 0.087 6.6 1.21 10.46
10/24/2022 9:00:00 PM 9.8 49.64 0.087 6.66 1.21 10.47
10/24/2022 9:15:00 PM 9.77 49.586 0.087 6.61 1.17 10.48
10/24/2022 9:30:00 PM 9.74 49.532 0.087 6.67 1.1 10.47
10/24/2022 9:45:00 PM 9.7 49.46 0.087 6.58 1.24 10.44
10/24/2022 10:00:00 PM 9.69 49.442 0.087 6.61 1.31 10.48
10/24/2022 10:15:00 PM 9.67 49.406 0.087 6.65 1.12 10.5
10/24/2022 10:30:00 PM 9.64 49.352 0.087 6.57 1.13 10.54
10/24/2022 10:45:00 PM 9.61 49.298 0.087 6.6 1.19 10.56
10/24/2022 11:00:00 PM 9.58 49.244 0.087 6.64 1.08 10.57
10/24/2022 11:15:00 PM 9.54 49.172 0.088 6.62 1.14 10.51
10/24/2022 11:30:00 PM 9.5 49.1 0.088 6.65 1.2 10.52
10/24/2022 11:45:00 PM 9.47 49.046 0.087 6.58 1.14 10.52
10/25/2022 12:00:00 AM 9.43 48.974 0.088 6.61 1.18 10.52
10/25/2022 12:15:00 AM 9.41 48.938 0.088 6.63 1.22 10.51
10/25/2022 12:30:00 AM 9.42 48.956 0.088 6.56 1.17 10.5
10/25/2022 12:45:00 AM 9.43 48.974 0.088 6.56 1.25 10.51
10/25/2022 1:00:00 AM 9.43 48.974 0.088 6.67 1.13 10.57
10/25/2022 1:15:00 AM 9.44 48.992 0.088 6.58 1.25 10.55
10/25/2022 1:30:00 AM 9.44 48.992 0.088 6.66 1.2 10.53
10/25/2022 1:45:00 AM 9.44 48.992 0.088 6.61 1.13 10.55
10/25/2022 2:00:00 AM 9.45 49.01 0.088 6.66 1.13 10.6
10/25/2022 2:15:00 AM 9.45 49.01 0.088 6.67 1.16 10.63
10/25/2022 2:30:00 AM 9.44 48.992 0.088 6.59 1.12 10.57
10/25/2022 2:45:00 AM 9.45 49.01 0.088 6.59 1.25 10.61
10/25/2022 3:00:00 AM 9.45 49.01 0.088 6.61 1.17 10.59
10/25/2022 3:15:00 AM 9.45 49.01 0.088 6.66 1.33 10.54
10/25/2022 3:30:00 AM 9.46 49.028 0.088 6.66 1.3 10.58
10/25/2022 3:45:00 AM 9.47 49.046 0.088 6.59 1.14 10.59
10/25/2022 4:00:00 AM 9.47 49.046 0.088 6.62 1.15 10.54
10/25/2022 4:15:00 AM 9.47 49.046 0.088 6.59 1.18 10.47
10/25/2022 4:30:00 AM 9.48 49.064 0.088 6.55 1.1 10.57
10/25/2022 4:45:00 AM 9.48 49.064 0.088 6.58 1.11 10.57
10/25/2022 5:00:00 AM 9.49 49.082 0.088 6.58 1.12 10.54
10/25/2022 5:15:00 AM 9.5 49.1 0.088 6.58 1.14 10.54
10/25/2022 5:30:00 AM 9.5 49.1 0.088 6.57 1.19 10.54
10/25/2022 5:45:00 AM 9.51 49.118 0.088 6.64 1.13 10.57
10/25/2022 6:00:00 AM 9.52 49.136 0.088 6.6 1.28 10.58
10/25/2022 6:15:00 AM 9.52 49.136 0.088 6.62 1.11 10.6
10/25/2022 6:30:00 AM 9.53 49.154 0.088 6.57 1.18 10.52
10/25/2022 6:45:00 AM 9.53 49.154 0.088 6.58 1.14 10.53
10/25/2022 7:00:00 AM 9.55 49.19 0.088 6.61 1.15 10.54
10/25/2022 7:15:00 AM 9.55 49.19 0.088 6.6 1.12 10.51
10/25/2022 7:30:00 AM 9.57 49.226 0.088 6.64 1.15 10.44
10/25/2022 7:45:00 AM 9.58 49.244 0.088 6.6 1.2 10.49
10/25/2022 8:00:00 AM 9.59 49.262 0.088 6.58 1.17 10.46
10/25/2022 8:15:00 AM 9.61 49.298 0.088 6.64 1.11 10.4
10/25/2022 8:30:00 AM 9.63 49.334 0.088 6.59 1.1 10.48
10/25/2022 8:45:00 AM 9.66 49.388 0.088 6.59 1.36 10.5
10/25/2022 9:00:00 AM 9.71 49.478 0.088 6.68 1.14 10.62
10/25/2022 9:15:00 AM 9.76 49.568 0.088 6.6 1.13 10.58
10/25/2022 9:30:00 AM 9.83 49.694 0.088 6.63 1.07 10.59
10/25/2022 9:45:00 AM 9.91 49.838 0.088 6.68 1.09 10.63
10/25/2022 10:00:00 AM 10 50 0.088 6.6 1.09 10.65
10/25/2022 10:15:00 AM 10.09 50.162 0.088 6.68 1.19 10.75
10/25/2022 10:30:00 AM 10.2 50.36 0.088 6.63 1.24 10.75
10/25/2022 10:45:00 AM 10.32 50.576 0.088 6.71 1.12 10.73
10/25/2022 11:00:00 AM 10.45 50.81 0.088 6.68 1.21 10.66
10/25/2022 11:15:00 AM 10.6 51.08 0.087 6.67 1.09 10.72
10/25/2022 11:30:00 AM 10.76 51.368 0.087 6.7 1.1 10.74
10/25/2022 11:45:00 AM 11 51.8 0.087 6.69 1.18 10.68
10/25/2022 12:00:00 PM 11.18 52.124 0.088 6.68 1.25 10.56
10/25/2022 12:15:00 PM 11.45 52.61 0.088 6.68 1.09 10.57
10/25/2022 12:30:00 PM 11.6 52.88 0.087 6.73 1.06 10.52
10/25/2022 12:45:00 PM 11.61 52.898 0.088 6.69 1.08 10.46
10/25/2022 1:00:00 PM 11.72 53.096 0.087 6.64 1.06 10.48
10/25/2022 1:15:00 PM 11.75 53.15 0.088 6.69 1.08 10.42
10/25/2022 1:30:00 PM 11.81 53.258 0.088 6.63 1.11 10.36
10/25/2022 1:45:00 PM 11.8 53.24 0.088 6.67 1.13 10.37
10/25/2022 2:00:00 PM 11.8 53.24 0.088 6.66 1.09 10.34
10/25/2022 2:15:00 PM 11.83 53.294 0.088 6.7 1.08 10.23
10/25/2022 2:30:00 PM 11.9 53.42 0.087 6.63 1.17 10.18
10/25/2022 2:45:00 PM 11.94 53.492 0.087 6.74 3.51 10.23
10/25/2022 3:00:00 PM 11.97 53.546 0.087 6.66 4.89 10.22
10/25/2022 3:15:00 PM 12.01 53.618 0.087 6.68 1.02 10.14
10/25/2022 3:30:00 PM 11.96 53.528 0.087 6.73 1.08 10.15
10/25/2022 3:45:00 PM 11.89 53.402 0.088 6.71 1.07 10.03
10/25/2022 4:00:00 PM 11.85 53.33 0.088 6.65 1.04 10.03
10/25/2022 4:15:00 PM 11.85 53.33 0.087 6.68 1.01 10.06
10/25/2022 4:30:00 PM 11.78 53.204 0.087 6.66 1.07 10
10/25/2022 4:45:00 PM 11.76 53.168 0.087 6.66 1.02 10.03
10/25/2022 5:00:00 PM 11.73 53.114 0.088 6.64 1.04 9.97
10/25/2022 5:15:00 PM 11.67 53.006 0.088 6.7 1.04 9.93
10/25/2022 5:30:00 PM 11.65 52.97 0.088 6.63 1.11 9.94
10/25/2022 5:45:00 PM 11.64 52.952 0.088 6.7 1.04 9.98
10/25/2022 6:00:00 PM 11.6 52.88 0.088 6.7 1.02 9.94
10/25/2022 6:15:00 PM 11.58 52.844 0.088 6.59 1.08 9.92
10/25/2022 6:30:00 PM 11.54 52.772 0.088 6.67 1.06 9.84
10/25/2022 6:45:00 PM 11.53 52.754 0.088 6.58 1.09 9.86
10/25/2022 7:00:00 PM 11.49 52.682 0.088 6.66 1.07 9.83
10/25/2022 7:15:00 PM 11.46 52.628 0.088 6.62 1.13 9.78
10/25/2022 7:30:00 PM 11.46 52.628 0.088 6.65 1.11 9.81
10/25/2022 7:45:00 PM 11.46 52.628 0.088 6.68 1.12 9.81
10/25/2022 8:00:00 PM 11.47 52.646 0.088 6.62 1.12 9.83
10/25/2022 8:15:00 PM 11.46 52.628 0.088 6.7 1.09 9.86
10/25/2022 8:30:00 PM 11.46 52.628 0.088 6.58 1.08 9.83
10/25/2022 8:45:00 PM 11.42 52.556 0.088 6.62 1.1 9.8
10/25/2022 9:00:00 PM 11.42 52.556 0.088 6.58 1.09 9.8
10/25/2022 9:15:00 PM 11.42 52.556 0.088 6.62 1.07 9.81
10/25/2022 9:30:00 PM 11.42 52.556 0.088 6.58 1.1 9.76
10/25/2022 9:45:00 PM 11.48 52.664 0.088 6.61 1.1 9.81
10/25/2022 10:00:00 PM 11.49 52.682 0.088 6.68 1.21 9.81
10/25/2022 10:15:00 PM 11.51 52.718 0.088 6.61 1.1 9.83
10/25/2022 10:30:00 PM 11.52 52.736 0.088 6.63 1.15 9.79
10/25/2022 10:45:00 PM 11.5 52.7 0.088 6.62 1.12 9.74
10/25/2022 11:00:00 PM 11.52 52.736 0.088 6.61 1.08 9.78
10/25/2022 11:15:00 PM 11.52 52.736 0.088 6.67 1.12 9.8
10/25/2022 11:30:00 PM 11.49 52.682 0.088 6.63 1.06 9.75
10/25/2022 11:45:00 PM 11.47 52.646 0.089 6.6 1.16 9.72
10/26/2022 12:00:00 AM 11.45 52.61 0.089 6.58 1.1 9.7
10/26/2022 12:15:00 AM 11.45 52.61 0.089 6.62 1.08 9.77
10/26/2022 12:30:00 AM 11.43 52.574 0.089 6.6 1.16 9.76
10/26/2022 12:45:00 AM 11.44 52.592 0.088 6.63 1.11 9.83
10/26/2022 1:00:00 AM 11.42 52.556 0.088 6.64 1.09 9.82
10/26/2022 1:15:00 AM 11.41 52.538 0.088 6.68 1.1 9.81
10/26/2022 1:30:00 AM 11.39 52.502 0.088 6.56 1.07 9.83
10/26/2022 1:45:00 AM 11.35 52.43 0.089 6.63 1.11 9.78
10/26/2022 2:00:00 AM 11.34 52.412 0.088 6.62 1.08 9.81
10/26/2022 2:15:00 AM 11.33 52.394 0.088 6.64 1.12 9.87
10/26/2022 2:30:00 AM 11.3 52.34 0.088 6.65 1.14 9.87
10/26/2022 2:45:00 AM 11.27 52.286 0.089 6.61 1.15 9.84
10/26/2022 3:00:00 AM 11.23 52.214 0.089 6.67 1.11 9.84
10/26/2022 3:15:00 AM 11.2 52.16 0.089 6.6 1.16 9.82
10/26/2022 3:30:00 AM 11.16 52.088 0.089 6.58 1.07 9.88
10/26/2022 3:45:00 AM 11.11 51.998 0.089 6.59 1.06 9.87
10/26/2022 4:00:00 AM 11.08 51.944 0.088 6.62 1.11 9.91
10/26/2022 4:15:00 AM 11.07 51.926 0.089 6.62 1.08 9.85
10/26/2022 4:30:00 AM 11.04 51.872 0.089 6.64 1.09 9.87
10/26/2022 4:45:00 AM 10.99 51.782 0.089 6.6 1.06 9.85
10/26/2022 5:00:00 AM 10.97 51.746 0.089 6.6 1.15 9.83
10/26/2022 5:15:00 AM 10.93 51.674 0.089 6.61 1.18 9.86
10/26/2022 5:30:00 AM 10.91 51.638 0.089 6.61 1.09 9.86
10/26/2022 5:45:00 AM 10.87 51.566 0.089 6.6 1.15 9.91
10/26/2022 6:00:00 AM 10.85 51.53 0.089 6.66 1.63 9.92
10/26/2022 6:15:00 AM 10.81 51.458 0.089 6.59 1.32 9.94
10/26/2022 6:30:00 AM 10.79 51.422 0.088 6.6 1.19 9.95
10/26/2022 6:45:00 AM 10.76 51.368 0.089 6.6 1.19 9.92
10/26/2022 7:00:00 AM 10.73 51.314 0.089 6.61 1.17 9.95
10/26/2022 7:15:00 AM 10.67 51.206 0.089 6.59 1.19 9.89
10/26/2022 7:30:00 AM 10.63 51.134 0.088 6.58 1.15 9.96
10/26/2022 7:45:00 AM 10.56 51.008 0.089 6.63 1.09 9.94
10/26/2022 8:00:00 AM 10.53 50.954 0.088 6.59 1.14 9.97
10/26/2022 8:15:00 AM 10.52 50.936 0.089 6.63 1.09 10.01
10/26/2022 8:30:00 AM 10.52 50.936 0.089 6.64 1.13 10.1
10/26/2022 8:45:00 AM 10.51 50.918 0.088 6.64 1.09 10.13
10/26/2022 9:00:00 AM 10.58 51.044 0.089 6.62 1.15 10.14
10/26/2022 9:15:00 AM 10.71 51.278 0.088 6.68 1.11 10.21
10/26/2022 9:30:00 AM 10.82 51.476 0.088 6.65 1.15 10.35
10/26/2022 9:45:00 AM 10.92 51.656 0.088 6.65 1.16 10.31
10/26/2022 10:00:00 AM 11.02 51.836 0.088 6.69 1.16 10.37
10/26/2022 10:15:00 AM 11.07 51.926 0.088 6.68 1.13 10.44
10/26/2022 10:30:00 AM 11.05 51.89 0.088 6.68 1.16 10.33
10/26/2022 10:45:00 AM 11.06 51.908 0.088 6.75 1.08 10.37
10/26/2022 11:00:00 AM 11.19 52.142 0.088 6.65 1.12 10.37
10/26/2022 11:15:00 AM 11.39 52.502 0.088 6.66 1.16 10.33
10/26/2022 11:30:00 AM 11.44 52.592 0.088 6.75 1.12 10.37
10/26/2022 11:45:00 AM 11.6 52.88 0.088 6.68 1.14 10.33
10/26/2022 12:00:00 PM 11.68 53.024 0.088 6.67 1.17 10.3
10/26/2022 12:15:00 PM 11.75 53.15 0.088 6.7 1.22 10.34
10/26/2022 12:30:00 PM 11.76 53.168 0.088 6.76 1.13 10.33
10/26/2022 12:45:00 PM 11.73 53.114 0.088 6.75 1.1 10.23
10/26/2022 1:00:00 PM 11.71 53.078 0.088 6.67 1.13 10.25
10/26/2022 1:15:00 PM 11.68 53.024 0.088 6.7 1.11 10.13
10/26/2022 1:30:00 PM 11.66 52.988 0.088 6.67 1.12 10.04
10/26/2022 1:45:00 PM 11.71 53.078 0.088 6.74 1.13 10.13
10/26/2022 2:00:00 PM 11.71 53.078 0.088 6.68 1.08 10.09
10/26/2022 2:15:00 PM 11.71 53.078 0.088 6.68 1.1 10.07
10/26/2022 2:30:00 PM 11.71 53.078 0.088 6.68 1.05 9.97
10/26/2022 2:45:00 PM 11.71 53.078 0.088 6.69 1.07 9.98
10/26/2022 3:00:00 PM 11.68 53.024 0.088 6.62 1.34 9.93
10/26/2022 3:15:00 PM 11.66 52.988 0.088 6.67 1.23 9.9
10/26/2022 3:30:00 PM 11.65 52.97 0.088 6.7 1.51 9.87
10/26/2022 3:45:00 PM 11.64 52.952 0.088 6.65 1.19 9.89
10/26/2022 4:00:00 PM 11.69 53.042 0.088 6.71 1.21 10
10/26/2022 4:15:00 PM 11.67 53.006 0.088 6.71 1.09 9.97
10/26/2022 4:30:00 PM 11.68 53.024 0.088 6.71 1.17 9.99
10/26/2022 4:45:00 PM 11.65 52.97 0.088 6.72 1.14 9.96
10/26/2022 5:00:00 PM 11.66 52.988 0.088 6.62 1.1 9.99
10/26/2022 5:15:00 PM 11.66 52.988 0.088 6.72 1.17 9.97
10/26/2022 5:30:00 PM 11.62 52.916 0.088 6.58 1.1 9.89
10/26/2022 5:45:00 PM 11.61 52.898 0.088 6.7 1.08 9.84
10/26/2022 6:00:00 PM 11.59 52.862 0.088 6.64 1.21 9.86
10/26/2022 6:15:00 PM 11.56 52.808 0.088 6.67 1.23 9.83
10/26/2022 6:30:00 PM 11.5 52.7 0.088 6.6 1.14 9.78
10/26/2022 6:45:00 PM 11.47 52.646 0.089 6.63 1.15 9.78
10/26/2022 7:00:00 PM 11.47 52.646 0.088 6.62 1.11 9.83
10/26/2022 7:15:00 PM 11.46 52.628 0.088 6.64 1.13 9.82
10/26/2022 7:30:00 PM 11.46 52.628 0.088 6.64 1.16 9.81
10/26/2022 7:45:00 PM 11.42 52.556 0.088 6.6 1.21 9.81
10/26/2022 8:00:00 PM 11.39 52.502 0.089 6.65 1.1 9.8
10/26/2022 8:15:00 PM 11.38 52.484 0.088 6.61 1.11 9.84
10/26/2022 8:30:00 PM 11.36 52.448 0.089 6.68 1.08 9.8
10/26/2022 8:45:00 PM 11.34 52.412 0.089 6.66 1.14 9.8
10/26/2022 9:00:00 PM 11.33 52.394 0.089 6.6 1.12 9.8
10/26/2022 9:15:00 PM 11.3 52.34 0.089 6.65 1.19 9.79
10/26/2022 9:30:00 PM 11.28 52.304 0.089 6.56 1.12 9.77
10/26/2022 9:45:00 PM 11.26 52.268 0.089 6.58 1.13 9.81
10/26/2022 10:00:00 PM 11.24 52.232 0.089 6.64 1.15 9.8
10/26/2022 10:15:00 PM 11.22 52.196 0.089 6.6 1.1 9.78
10/26/2022 10:30:00 PM 11.21 52.178 0.088 6.68 1.15 9.89
10/26/2022 10:45:00 PM 11.18 52.124 0.088 6.62 1.12 9.87
10/26/2022 11:00:00 PM 11.16 52.088 0.089 6.67 1.09 9.82
10/26/2022 11:15:00 PM 11.13 52.034 0.089 6.59 1.13 9.78
10/26/2022 11:30:00 PM 11.1 51.98 0.088 6.65 1.19 9.89
10/26/2022 11:45:00 PM 11.07 51.926 0.089 6.59 1.11 9.78
10/27/2022 12:00:00 AM 11.04 51.872 0.088 6.56 1.09 9.89
10/27/2022 12:15:00 AM 11.01 51.818 0.088 6.68 1.1 9.91
10/27/2022 12:30:00 AM 10.98 51.764 0.088 6.61 1.1 9.89
10/27/2022 12:45:00 AM 10.96 51.728 0.089 6.68 1.12 9.92
10/27/2022 1:00:00 AM 10.93 51.674 0.088 6.61 1.16 9.95
10/27/2022 1:15:00 AM 10.92 51.656 0.088 6.64 1.08 9.99
10/27/2022 1:30:00 AM 10.89 51.602 0.088 6.63 1.11 9.93
10/27/2022 1:45:00 AM 10.85 51.53 0.088 6.59 1.12 10.02
10/27/2022 2:00:00 AM 10.83 51.494 0.088 6.6 1.09 10.02
10/27/2022 2:15:00 AM 10.81 51.458 0.089 6.63 1.13 9.95
10/27/2022 2:30:00 AM 10.77 51.386 0.088 6.64 1.13 10.06
10/27/2022 2:45:00 AM 10.75 51.35 0.089 6.56 1.14 9.98
10/27/2022 3:00:00 AM 10.72 51.296 0.088 6.6 1.1 10.04
10/27/2022 3:15:00 AM 10.69 51.242 0.088 6.68 1.16 10.09
10/27/2022 3:30:00 AM 10.65 51.17 0.089 6.61 1.12 10.04
10/27/2022 3:45:00 AM 10.62 51.116 0.088 6.6 1.11 10.06
10/27/2022 4:00:00 AM 10.58 51.044 0.089 6.67 1.12 10.06
10/27/2022 4:15:00 AM 10.54 50.972 0.088 6.6 1.18 10.12
10/27/2022 4:30:00 AM 10.51 50.918 0.089 6.64 1.12 10.1
10/27/2022 4:45:00 AM 10.48 50.864 0.089 6.62 1.14 10.07
10/27/2022 5:00:00 AM 10.43 50.774 0.088 6.68 1.1 10.15
10/27/2022 5:15:00 AM 10.4 50.72 0.089 6.66 1.34 10.15
10/27/2022 5:30:00 AM 10.36 50.648 0.088 6.61 1.14 10.19
10/27/2022 5:45:00 AM 10.33 50.594 0.089 6.64 1.16 10.19
10/27/2022 6:00:00 AM 10.3 50.54 0.089 6.64 1.08 10.22
10/27/2022 6:15:00 AM 10.24 50.432 0.089 6.62 1.14 10.1
10/27/2022 6:30:00 AM 10.15 50.27 0.089 6.57 1.17 10.14
10/27/2022 6:45:00 AM 10.08 50.144 0.089 6.64 1.18 10.08
10/27/2022 7:00:00 AM 10 50 0.089 6.6 1.16 10.13
10/27/2022 7:15:00 AM 9.91 49.838 0.089 6.68 1.18 10.24
10/27/2022 7:30:00 AM 9.93 49.874 0.089 6.65 1.28 10.05
10/27/2022 7:45:00 AM 9.9 49.82 0.089 6.6 1.14 10.17
10/27/2022 8:00:00 AM 9.89 49.802 0.089 6.59 1.14 10.16
10/27/2022 8:15:00 AM 9.88 49.784 0.089 6.61 1.16 10.27
10/27/2022 8:30:00 AM 9.88 49.784 0.089 6.67 1.07 10.3
10/27/2022 8:45:00 AM 9.89 49.802 0.089 6.62 1.08 10.37
10/27/2022 9:00:00 AM 9.9 49.82 0.089 6.65 1.11 10.31
10/27/2022 9:15:00 AM 9.91 49.838 0.089 6.68 1.16 10.43
10/27/2022 9:30:00 AM 9.95 49.91 0.089 6.63 1.11 10.38
10/27/2022 9:45:00 AM 9.9 49.82 0.089 6.67 1.15 10.56
10/27/2022 10:00:00 AM 9.9 49.82 0.089 6.64 1.12 10.63
10/27/2022 10:15:00 AM 9.95 49.91 0.089 6.65 1.31 10.62
10/27/2022 10:30:00 AM 10.05 50.09 0.088 6.65 1.11 10.7
10/27/2022 10:45:00 AM 10.17 50.306 0.088 6.73 1.09 10.84
10/27/2022 11:00:00 AM 10.26 50.468 0.089 6.74 1.11 10.72
10/27/2022 11:15:00 AM 10.4 50.72 0.089 6.69 2.29 10.69
10/27/2022 11:30:00 AM 10.62 51.116 0.089 6.72 1.09 10.54
10/27/2022 11:45:00 AM 10.72 51.296 0.088 6.71 1.09 10.72
10/27/2022 12:00:00 PM 10.86 51.548 0.088 6.77 1.04 10.77
10/27/2022 12:15:00 PM 10.92 51.656 0.088 6.74 1.12 10.75
10/27/2022 12:30:00 PM 11.05 51.89 0.089 6.7 1.06 10.45
10/27/2022 12:45:00 PM 10.92 51.656 0.088 6.72 1.07 10.72
10/27/2022 1:00:00 PM 10.94 51.692 0.088 6.66 1.15 10.63
10/27/2022 1:15:00 PM 10.97 51.746 0.088 6.71 1.11 10.7
10/27/2022 1:30:00 PM 11.01 51.818 0.089 6.68 1.16 10.62
10/27/2022 1:45:00 PM 11.02 51.836 0.088 6.72 1.31 10.65
10/27/2022 2:00:00 PM 10.96 51.728 0.088 6.74 1.29 10.75
10/27/2022 2:15:00 PM 11 51.8 0.088 6.71 1.25 10.55
10/27/2022 2:30:00 PM 10.96 51.728 0.089 6.68 1.07 10.55
10/27/2022 2:45:00 PM 10.95 51.71 0.088 6.69 1.07 10.59
10/27/2022 3:00:00 PM 10.91 51.638 0.088 6.69 1.09 10.5
10/27/2022 3:15:00 PM 10.85 51.53 0.088 6.71 1.06 10.49
10/27/2022 3:30:00 PM 10.8 51.44 0.089 6.69 1.1 10.35
10/27/2022 3:45:00 PM 10.73 51.314 0.089 6.65 1.24 10.27
10/27/2022 4:00:00 PM 10.62 51.116 0.089 6.66 1.12 10.3
10/27/2022 4:15:00 PM 10.54 50.972 0.089 6.66 1.06 10.41
10/27/2022 4:30:00 PM 10.49 50.882 0.088 6.72 1.08 10.43
10/27/2022 4:45:00 PM 10.46 50.828 0.088 6.66 1.09 10.47
10/27/2022 5:00:00 PM 10.42 50.756 0.088 6.7 0.98 10.46
10/27/2022 5:15:00 PM 10.4 50.72 0.088 6.66 1.11 10.43
10/27/2022 5:30:00 PM 10.36 50.648 0.089 6.63 1.16 10.36
10/27/2022 5:45:00 PM 10.32 50.576 0.089 6.65 1.17 10.29
10/27/2022 6:00:00 PM 10.26 50.468 0.089 6.68 1.06 10.4
10/27/2022 6:15:00 PM 10.22 50.396 0.089 6.66 1.09 10.37
10/27/2022 6:30:00 PM 10.17 50.306 0.089 6.64 1.09 10.3
10/27/2022 6:45:00 PM 10.11 50.198 0.089 6.64 1.04 10.29
10/27/2022 7:00:00 PM 10.05 50.09 0.089 6.6 1.14 10.3
10/27/2022 7:15:00 PM 9.98 49.964 0.089 6.66 1.13 10.28
10/27/2022 7:30:00 PM 9.91 49.838 0.089 6.62 1.19 10.29
10/27/2022 7:45:00 PM 9.83 49.694 0.089 6.68 1.19 10.32
10/27/2022 8:00:00 PM 9.75 49.55 0.089 6.6 1.17 10.29
10/27/2022 8:15:00 PM 9.67 49.406 0.089 6.64 1.13 10.33
10/27/2022 8:30:00 PM 9.59 49.262 0.089 6.61 1.16 10.29
10/27/2022 8:45:00 PM 9.52 49.136 0.089 6.61 1.15 10.26
10/27/2022 9:00:00 PM 9.43 48.974 0.089 6.61 1.35 10.37
10/27/2022 9:15:00 PM 9.34 48.812 0.089 6.61 1.09 10.41
10/27/2022 9:30:00 PM 9.26 48.668 0.089 6.67 1.09 10.47
10/27/2022 9:45:00 PM 9.19 48.542 0.089 6.62 1.14 10.53
10/27/2022 10:00:00 PM 9.11 48.398 0.089 6.62 1.07 10.54
10/27/2022 10:15:00 PM 9.04 48.272 0.089 6.63 1.11 10.53
10/27/2022 10:30:00 PM 8.94 48.092 0.089 6.67 1.12 10.64
10/27/2022 10:45:00 PM 8.87 47.966 0.089 6.63 1.54 10.65
10/27/2022 11:00:00 PM 8.8 47.84 0.089 6.68 1.16 10.68
10/27/2022 11:15:00 PM 8.71 47.678 0.089 6.62 1.14 10.76
10/27/2022 11:30:00 PM 8.67 47.606 0.089 6.66 1.14 10.66
10/27/2022 11:45:00 PM 8.57 47.426 0.089 6.58 1.15 10.74
10/28/2022 12:00:00 AM 8.5 47.3 0.089 6.62 1.16 10.78
10/28/2022 12:15:00 AM 8.41 47.138 0.089 6.63 1.14 10.83
10/28/2022 12:30:00 AM 8.33 46.994 0.089 6.62 1.12 10.85
10/28/2022 12:45:00 AM 8.27 46.886 0.089 6.58 1.17 10.88
10/28/2022 1:00:00 AM 8.17 46.706 0.089 6.69 1.13 10.94
10/28/2022 1:15:00 AM 8.08 46.544 0.089 6.6 1.13 10.99
10/28/2022 1:30:00 AM 8.02 46.436 0.089 6.65 1.12 10.99
10/28/2022 1:45:00 AM 7.99 46.382 0.089 6.6 1.09 10.94
10/28/2022 2:00:00 AM 7.91 46.238 0.089 6.66 1.11 11
10/28/2022 2:15:00 AM 7.85 46.13 0.089 6.65 1.16 11
10/28/2022 2:30:00 AM 7.77 45.986 0.089 6.63 1.13 11.09
10/28/2022 2:45:00 AM 7.69 45.842 0.089 6.64 1.16 11.16
10/28/2022 3:00:00 AM 7.69 45.842 0.089 6.59 1.2 11.02
10/28/2022 3:15:00 AM 7.61 45.698 0.089 6.6 1.15 11.1
10/28/2022 3:30:00 AM 7.59 45.662 0.089 6.64 1.11 11.04
10/28/2022 3:45:00 AM 7.49 45.482 0.089 6.63 1.1 11.13
10/28/2022 4:00:00 AM 7.42 45.356 0.089 6.63 1.13 11.18
10/28/2022 4:15:00 AM 7.33 45.194 0.089 6.65 1.11 11.27
10/28/2022 4:30:00 AM 7.29 45.122 0.089 6.63 1.12 11.29
10/28/2022 4:45:00 AM 7.24 45.032 0.089 6.64 1.14 11.29
10/28/2022 5:00:00 AM 7.21 44.978 0.089 6.59 1.12 11.29
10/28/2022 5:15:00 AM 7.14 44.852 0.089 6.68 1.09 11.36
10/28/2022 5:30:00 AM 7.12 44.816 0.089 6.68 1.08 11.35
10/28/2022 5:45:00 AM 7.04 44.672 0.089 6.62 1.14 11.41
10/28/2022 6:00:00 AM 6.97 44.546 0.089 6.66 1.14 11.46
10/28/2022 6:15:00 AM 6.91 44.438 0.089 6.64 1.11 11.47
10/28/2022 6:30:00 AM 6.84 44.312 0.089 6.65 1.1 11.51
10/28/2022 6:45:00 AM 6.85 44.33 0.089 6.61 1.11 11.43
10/28/2022 7:00:00 AM 6.76 44.168 0.089 6.64 1.12 11.52
10/28/2022 7:15:00 AM 6.71 44.078 0.089 6.65 1.12 11.54
10/28/2022 7:30:00 AM 6.66 43.988 0.089 6.6 1.2 11.55
10/28/2022 7:45:00 AM 6.59 43.862 0.089 6.63 1.34 11.6
10/28/2022 8:00:00 AM 6.53 43.754 0.089 6.65 1.14 11.7
10/28/2022 8:15:00 AM 6.52 43.736 0.089 6.67 1.17 11.74
10/28/2022 8:30:00 AM 6.59 43.862 0.089 6.63 1.19 11.61
10/28/2022 8:45:00 AM 6.59 43.862 0.089 6.68 1.86 11.62
10/28/2022 9:00:00 AM 6.59 43.862 0.089 6.63 1.19 11.76
10/28/2022 9:15:00 AM 6.63 43.934 0.089 6.64 2.6 11.8
10/28/2022 9:30:00 AM 6.65 43.97 0.089 6.67 1.22 11.92
10/28/2022 9:45:00 AM 6.74 44.132 0.089 6.69 1.17 11.95
10/28/2022 10:00:00 AM 6.87 44.366 0.089 6.67 1.82 11.93
10/28/2022 10:15:00 AM 6.98 44.564 0.088 6.69 1.16 11.97
10/28/2022 10:30:00 AM 7.07 44.726 0.088 6.72 1.36 12
10/28/2022 10:45:00 AM 7.15 44.87 0.088 6.7 1.07 12
10/28/2022 11:00:00 AM 7.27 45.086 0.089 6.7 1.09 11.9
10/28/2022 11:15:00 AM 7.33 45.194 0.088 6.7 1.07 12
10/28/2022 11:30:00 AM 7.61 45.698 0.088 6.74 1.07 11.87
10/28/2022 11:45:00 AM 7.9 46.22 0.088 6.69 1.06 11.8
10/28/2022 12:00:00 PM 8.06 46.508 0.088 6.73 1.05 11.8
10/28/2022 12:15:00 PM 8.19 46.742 0.088 6.68 1.06 11.82
10/28/2022 12:30:00 PM 8.31 46.958 0.088 6.67 1.06 11.73
10/28/2022 12:45:00 PM 8.31 46.958 0.088 6.7 1.07 11.75
10/28/2022 1:00:00 PM 8.35 47.03 0.088 6.72 1.08 11.67
10/28/2022 1:15:00 PM 8.43 47.174 0.089 6.66 1.06 11.55
10/28/2022 1:30:00 PM 8.41 47.138 0.088 6.73 1.05 11.66
10/28/2022 1:45:00 PM 8.41 47.138 0.088 6.68 1.07 11.64
10/28/2022 2:00:00 PM 8.46 47.228 0.088 6.7 1.11 11.59
10/28/2022 2:15:00 PM 8.5 47.3 0.088 6.7 1.06 11.57
10/28/2022 2:30:00 PM 8.56 47.408 0.088 6.71 1.07 11.58
10/28/2022 2:45:00 PM 8.67 47.606 0.088 6.72 1.06 11.55
10/28/2022 3:00:00 PM 8.76 47.768 0.088 6.72 1.05 11.58
10/28/2022 3:15:00 PM 8.87 47.966 0.088 6.7 1.1 11.53
10/28/2022 3:30:00 PM 8.95 48.11 0.088 6.73 1.09 11.55
10/28/2022 3:45:00 PM 9.04 48.272 0.088 6.7 1.07 11.44
10/28/2022 4:00:00 PM 9.07 48.326 0.088 6.7 1.08 11.44
10/28/2022 4:15:00 PM 9.12 48.416 0.088 6.71 1.04 11.35
10/28/2022 4:30:00 PM 9.15 48.47 0.088 6.78 1.05 11.33
10/28/2022 4:45:00 PM 9.16 48.488 0.088 6.71 1.05 11.27
10/28/2022 5:00:00 PM 9.21 48.578 0.088 6.68 1.04 11.06
10/28/2022 5:15:00 PM 9.17 48.506 0.088 6.67 1 11.17
10/28/2022 5:30:00 PM 9.11 48.398 0.088 6.76 1.02 11.22
10/28/2022 5:45:00 PM 9.05 48.29 0.088 6.66 1.01 11.17
10/28/2022 6:00:00 PM 8.96 48.128 0.088 6.76 1.16 11.22
10/28/2022 6:15:00 PM 8.88 47.984 0.088 6.64 1.06 11.15
10/28/2022 6:30:00 PM 8.8 47.84 0.088 6.68 1.06 11.09
10/28/2022 6:45:00 PM 8.72 47.696 0.088 6.64 1.09 11.07
10/28/2022 7:00:00 PM 8.65 47.57 0.088 6.69 1.08 11.06
10/28/2022 7:15:00 PM 8.57 47.426 0.088 6.66 1.07 11.05
10/28/2022 7:30:00 PM 8.5 47.3 0.088 6.71 1.05 11.04
10/28/2022 7:45:00 PM 8.44 47.192 0.088 6.7 1.06 11.02
10/28/2022 8:00:00 PM 8.38 47.084 0.089 6.67 1.1 10.99
10/28/2022 8:15:00 PM 8.31 46.958 0.088 6.61 1.07 11.02
10/28/2022 8:30:00 PM 8.24 46.832 0.089 6.63 1.08 11.02
10/28/2022 8:45:00 PM 8.18 46.724 0.089 6.66 1.09 11.04
10/28/2022 9:00:00 PM 8.12 46.616 0.089 6.65 1.04 11.08
10/28/2022 9:15:00 PM 8.07 46.526 0.089 6.6 1.11 11.04
10/28/2022 9:30:00 PM 8 46.4 0.089 6.64 1.05 11.06
10/28/2022 9:45:00 PM 7.93 46.274 0.089 6.61 1.07 11.04
10/28/2022 10:00:00 PM 7.87 46.166 0.089 6.66 1.07 11.06
10/28/2022 10:15:00 PM 7.82 46.076 0.089 6.59 1.09 10.98
10/28/2022 10:30:00 PM 7.72 45.896 0.089 6.63 1.08 11.08
10/28/2022 10:45:00 PM 7.67 45.806 0.089 6.62 1.08 11.03
10/28/2022 11:00:00 PM 7.56 45.608 0.089 6.61 1.07 11.17
10/28/2022 11:15:00 PM 7.52 45.536 0.089 6.65 1.13 11.12
10/28/2022 11:30:00 PM 7.42 45.356 0.089 6.6 1.09 11.2
10/28/2022 11:45:00 PM 7.34 45.212 0.089 6.61 1.14 11.2
10/29/2022 12:00:00 AM 7.25 45.05 0.089 6.67 1.05 11.25
10/29/2022 12:15:00 AM 7.21 44.978 0.089 6.68 1.07 11.24
10/29/2022 12:30:00 AM 7.11 44.798 0.089 6.68 1.14 11.33
10/29/2022 12:45:00 AM 7.04 44.672 0.089 6.62 1.13 11.38
10/29/2022 1:00:00 AM 7.01 44.618 0.089 6.68 1.08 11.34
10/29/2022 1:15:00 AM 6.9 44.42 0.089 6.64 1.09 11.45
10/29/2022 1:30:00 AM 6.86 44.348 0.089 6.53 1.16 11.41
10/29/2022 1:45:00 AM 6.77 44.186 0.089 6.55 1.13 11.46
10/29/2022 2:00:00 AM 6.78 44.204 0.09 6.57 1.14 11.42
10/29/2022 2:15:00 AM 6.65 43.97 0.089 6.6 1.14 11.47
10/29/2022 2:30:00 AM 6.62 43.916 0.089 6.56 1.15 11.48
10/29/2022 2:45:00 AM 6.56 43.808 0.089 6.59 1.14 11.51
10/29/2022 3:00:00 AM 6.55 43.79 0.09 6.54 1.11 11.46
10/29/2022 3:15:00 AM 6.47 43.646 0.09 6.62 1.1 11.5
10/29/2022 3:30:00 AM 6.36 43.448 0.089 6.64 1.12 11.6
10/29/2022 3:45:00 AM 6.39 43.502 0.09 6.6 1.11 11.56
10/29/2022 4:00:00 AM 6.34 43.412 0.09 6.54 1.12 11.56
10/29/2022 4:15:00 AM 6.2 43.16 0.09 6.65 1.18 11.72
10/29/2022 4:30:00 AM 6.15 43.07 0.09 6.62 1.09 11.73
10/29/2022 4:45:00 AM 6.1 42.98 0.09 6.62 1.11 11.76
10/29/2022 5:00:00 AM 6.09 42.962 0.09 6.63 1.11 11.7
10/29/2022 5:15:00 AM 5.96 42.728 0.09 6.64 1.15 11.83
10/29/2022 5:30:00 AM 6.01 42.818 0.09 6.57 1.13 11.69
10/29/2022 5:45:00 AM 5.96 42.728 0.09 6.56 1.13 11.72
10/29/2022 6:00:00 AM 5.84 42.512 0.09 6.57 1.1 11.82
10/29/2022 6:15:00 AM 5.84 42.512 0.09 6.59 1.13 11.76
10/29/2022 6:30:00 AM 5.71 42.278 0.09 6.65 1.19 11.88
10/29/2022 6:45:00 AM 5.75 42.35 0.09 6.53 1.11 11.84
10/29/2022 7:00:00 AM 5.68 42.224 0.09 6.64 1.09 11.84
10/29/2022 7:15:00 AM 5.61 42.098 0.09 6.57 1.09 11.89
10/29/2022 7:30:00 AM 5.47 41.846 0.09 6.66 1.1 12.02
10/29/2022 7:45:00 AM 5.48 41.864 0.09 6.57 1.12 12
10/29/2022 8:00:00 AM 5.61 42.098 0.091 6.59 1.08 11.77
10/29/2022 8:15:00 AM 5.46 41.828 0.09 6.62 1.12 11.91
10/29/2022 8:30:00 AM 5.41 41.738 0.09 6.61 1.08 11.99
10/29/2022 8:45:00 AM 5.4 41.72 0.09 6.6 1.15 12.01
10/29/2022 9:00:00 AM 5.37 41.666 0.09 6.6 1.08 12.1
10/29/2022 9:15:00 AM 5.25 41.45 0.09 6.67 1.07 12.33
10/29/2022 9:30:00 AM 5.3 41.54 0.09 6.68 1.02 12.4
10/29/2022 9:45:00 AM 5.44 41.792 0.09 6.65 1.09 12.31
10/29/2022 10:00:00 AM 5.56 42.008 0.09 6.68 1.1 12.22
10/29/2022 10:15:00 AM 5.63 42.134 0.09 6.68 1.09 12.27
10/29/2022 10:30:00 AM 5.76 42.368 0.09 6.67 1.08 12.25
10/29/2022 10:45:00 AM 5.83 42.494 0.09 6.72 1.1 12.36
10/29/2022 11:00:00 AM 5.96 42.728 0.09 6.73 1.07 12.38
10/29/2022 11:15:00 AM 6.17 43.106 0.09 6.71 1.07 12.29
10/29/2022 11:30:00 AM 6.45 43.61 0.09 6.76 1.09 12.26
10/29/2022 11:45:00 AM 6.71 44.078 0.09 6.71 1.05 12.21
10/29/2022 12:00:00 PM 7 44.6 0.09 6.72 1.02 12.13
10/29/2022 12:15:00 PM 7.13 44.834 0.09 6.73 1.04 12.1
10/29/2022 12:30:00 PM 7.39 45.302 0.091 6.68 1.01 11.84
10/29/2022 12:45:00 PM 7.34 45.212 0.09 6.67 1.01 11.87
10/29/2022 1:00:00 PM 7.31 45.158 0.09 6.71 0.99 12.01
10/29/2022 1:15:00 PM 7.5 45.5 0.09 6.71 1.05 11.93
10/29/2022 1:30:00 PM 7.52 45.536 0.09 6.73 1.05 11.94
10/29/2022 1:45:00 PM 7.63 45.734 0.09 6.69 1.02 11.87
10/29/2022 2:00:00 PM 7.71 45.878 0.09 6.68 1.05 11.79
10/29/2022 2:15:00 PM 7.69 45.842 0.09 6.77 1.04 11.83
10/29/2022 2:30:00 PM 7.77 45.986 0.09 6.69 1.05 11.76
10/29/2022 2:45:00 PM 7.81 46.058 0.09 6.67 0.98 11.71
10/29/2022 3:00:00 PM 7.84 46.112 0.09 6.68 1.11 11.69
10/29/2022 3:15:00 PM 7.82 46.076 0.09 6.73 1.98 11.67
10/29/2022 3:30:00 PM 7.82 46.076 0.09 6.71 1.06 11.66
10/29/2022 3:45:00 PM 7.74 45.932 0.09 6.71 1.01 11.62
10/29/2022 4:00:00 PM 7.66 45.788 0.091 6.7 1.04 11.54
10/29/2022 4:15:00 PM 7.61 45.698 0.091 6.74 1.11 11.55
10/29/2022 4:30:00 PM 7.6 45.68 0.091 6.71 1 11.52
10/29/2022 4:45:00 PM 7.58 45.644 0.091 6.69 0.99 11.56
10/29/2022 5:00:00 PM 7.57 45.626 0.091 6.67 1.11 11.56
10/29/2022 5:15:00 PM 7.56 45.608 0.091 6.71 1.01 11.55
10/29/2022 5:30:00 PM 7.55 45.59 0.09 6.66 1.04 11.54
10/29/2022 5:45:00 PM 7.57 45.626 0.091 6.69 1.04 11.47
10/29/2022 6:00:00 PM 7.55 45.59 0.091 6.66 1.03 11.47
10/29/2022 6:15:00 PM 7.52 45.536 0.091 6.65 1.04 11.47
10/29/2022 6:30:00 PM 7.51 45.518 0.091 6.64 1.04 11.36
10/29/2022 6:45:00 PM 7.46 45.428 0.091 6.67 1.02 11.4
10/29/2022 7:00:00 PM 7.42 45.356 0.091 6.63 1.09 11.38
10/29/2022 7:15:00 PM 7.37 45.266 0.091 6.69 1.1 11.39
10/29/2022 7:30:00 PM 7.34 45.212 0.091 6.6 1.06 11.36
10/29/2022 7:45:00 PM 7.3 45.14 0.091 6.66 1 11.32
10/29/2022 8:00:00 PM 7.25 45.05 0.091 6.66 1.09 11.32
10/29/2022 8:15:00 PM 7.19 44.942 0.091 6.68 1 11.35
10/29/2022 8:30:00 PM 7.15 44.87 0.091 6.63 1.05 11.33
10/29/2022 8:45:00 PM 7.09 44.762 0.092 6.67 1.05 11.35
10/29/2022 9:00:00 PM 7.04 44.672 0.092 6.61 1.03 11.34
10/29/2022 9:15:00 PM 6.99 44.582 0.092 6.63 1.02 11.33
10/29/2022 9:30:00 PM 6.91 44.438 0.092 6.61 1.12 11.38
10/29/2022 9:45:00 PM 6.89 44.402 0.092 6.63 1.04 11.32
10/29/2022 10:00:00 PM 6.79 44.222 0.092 6.62 1.1 11.42
10/29/2022 10:15:00 PM 6.75 44.15 0.092 6.69 1.07 11.44
10/29/2022 10:30:00 PM 6.74 44.132 0.092 6.56 1.08 11.33
10/29/2022 10:45:00 PM 6.63 43.934 0.092 6.64 1.09 11.4
10/29/2022 11:00:00 PM 6.57 43.826 0.092 6.62 1.05 11.48
10/29/2022 11:15:00 PM 6.51 43.718 0.092 6.61 1.11 11.49
10/29/2022 11:30:00 PM 6.47 43.646 0.092 6.63 1.07 11.5
10/29/2022 11:45:00 PM 6.39 43.502 0.092 6.61 1.09 11.56
10/30/2022 12:00:00 AM 6.35 43.43 0.092 6.66 1.09 11.54
10/30/2022 12:15:00 AM 6.28 43.304 0.092 6.67 1.1 11.59
10/30/2022 12:30:00 AM 6.19 43.142 0.092 6.65 1.1 11.66
10/30/2022 12:45:00 AM 6.18 43.124 0.092 6.6 1.08 11.64
10/30/2022 1:00:00 AM 6.1 42.98 0.092 6.67 1.06 11.65
10/30/2022 1:15:00 AM 6.04 42.872 0.092 6.58 1.09 11.69
10/30/2022 1:30:00 AM 5.95 42.71 0.092 6.63 1.09 11.75
10/30/2022 1:45:00 AM 5.87 42.566 0.092 6.62 1.24 11.83
10/30/2022 2:00:00 AM 5.85 42.53 0.093 6.65 1.13 11.8
10/30/2022 2:15:00 AM 5.78 42.404 0.093 6.63 1.07 11.8
10/30/2022 2:30:00 AM 5.78 42.404 0.093 6.58 1.06 11.72
10/30/2022 2:45:00 AM 5.76 42.368 0.093 6.59 1.11 11.68
10/30/2022 3:00:00 AM 5.69 42.242 0.093 6.68 1.07 11.76
10/30/2022 3:15:00 AM 5.58 42.044 0.093 6.62 1.07 11.86
10/30/2022 3:30:00 AM 5.59 42.062 0.093 6.61 1.12 11.83
10/30/2022 3:45:00 AM 5.48 41.864 0.093 6.61 1.11 11.89
10/30/2022 4:00:00 AM 5.49 41.882 0.093 6.6 1.14 11.86
10/30/2022 4:15:00 AM 5.4 41.72 0.093 6.63 1.27 11.92
10/30/2022 4:30:00 AM 5.28 41.504 0.093 6.61 1.08 12.06
10/30/2022 4:45:00 AM 5.29 41.522 0.093 6.65 1.07 12.02
10/30/2022 5:00:00 AM 5.26 41.468 0.093 6.63 1.11 11.99
10/30/2022 5:15:00 AM 5.2 41.36 0.093 6.68 1.12 12.01
10/30/2022 5:30:00 AM 5.2 41.36 0.093 6.58 1.13 11.98
10/30/2022 5:45:00 AM 5.06 41.108 0.093 6.61 1.09 12.09
10/30/2022 6:00:00 AM 5.06 41.108 0.093 6.61 1.12 12.11
10/30/2022 6:15:00 AM 5.03 41.054 0.093 6.6 1.1 12.05
10/30/2022 6:30:00 AM 5.02 41.036 0.093 6.67 1.09 12.03
10/30/2022 6:45:00 AM 4.92 40.856 0.093 6.66 1.11 12.12
10/30/2022 7:00:00 AM 4.86 40.748 0.093 6.63 1.12 12.14
10/30/2022 7:15:00 AM 4.82 40.676 0.093 6.65 1.13 12.14
10/30/2022 7:30:00 AM 4.72 40.496 0.093 6.6 1.09 12.23
10/30/2022 7:45:00 AM 4.71 40.478 0.093 6.66 1.08 12.22
10/30/2022 8:00:00 AM 4.72 40.496 0.093 6.6 1.08 12.19
10/30/2022 8:15:00 AM 4.64 40.352 0.093 6.64 1.05 12.31
10/30/2022 8:30:00 AM 4.65 40.37 0.093 6.61 1.1 12.33
10/30/2022 8:45:00 AM 4.61 40.298 0.093 6.67 1.05 12.38
10/30/2022 9:00:00 AM 4.58 40.244 0.093 6.66 1.07 12.43
10/30/2022 9:15:00 AM 4.56 40.208 0.093 6.54 1.1 12.49
10/30/2022 9:30:00 AM 4.61 40.298 0.093 6.6 1.14 12.52
10/30/2022 9:45:00 AM 4.77 40.586 0.093 6.65 1.07 12.38
10/30/2022 10:00:00 AM 4.86 40.748 0.093 6.6 1.09 12.3
10/30/2022 10:15:00 AM 4.87 40.766 0.093 6.69 1.03 12.48
10/30/2022 10:30:00 AM 4.99 40.982 0.093 6.65 1.06 12.53
10/30/2022 10:45:00 AM 5.15 41.27 0.093 6.68 1.1 12.59
10/30/2022 11:00:00 AM 5.3 41.54 0.093 6.71 1.07 12.54
10/30/2022 11:15:00 AM 5.47 41.846 0.093 6.69 1.06 12.45
10/30/2022 11:30:00 AM 5.69 42.242 0.093 6.68 1.09 12.4
10/30/2022 11:45:00 AM 6.17 43.106 0.093 6.7 1.04 12.18
10/30/2022 12:00:00 PM 6.25 43.25 0.093 6.73 1.01 12.35
10/30/2022 12:15:00 PM 6.35 43.43 0.093 6.73 1.05 12.34
10/30/2022 12:30:00 PM 6.77 44.186 0.094 6.62 1.01 11.89
10/30/2022 12:45:00 PM 6.64 43.952 0.093 6.67 1.02 12
10/30/2022 1:00:00 PM 6.6 43.88 0.093 6.69 1.04 12.17
10/30/2022 1:15:00 PM 6.67 44.006 0.093 6.7 1.03 12.2
10/30/2022 1:30:00 PM 6.76 44.168 0.093 6.76 1 12.17
10/30/2022 1:45:00 PM 6.79 44.222 0.092 6.71 0.99 12.25
10/30/2022 2:00:00 PM 6.95 44.51 0.093 6.72 1.03 12.25
10/30/2022 2:15:00 PM 7.12 44.816 0.093 6.72 1.03 12.18
10/30/2022 2:30:00 PM 7.12 44.816 0.093 6.69 1.02 12.03
10/30/2022 2:45:00 PM 7.34 45.212 0.093 6.64 0.97 11.68
10/30/2022 3:00:00 PM 7.24 45.032 0.093 6.69 1.02 11.72
10/30/2022 3:15:00 PM 7.26 45.068 0.093 6.69 1.03 11.85
10/30/2022 3:30:00 PM 7.35 45.23 0.093 6.71 1.01 11.93
10/30/2022 3:45:00 PM 7.34 45.212 0.092 6.74 0.99 11.96
10/30/2022 4:00:00 PM 7.34 45.212 0.093 6.69 0.99 11.84
10/30/2022 4:15:00 PM 7.41 45.338 0.093 6.72 1.02 11.56
10/30/2022 4:30:00 PM 7.35 45.23 0.093 6.66 1.04 11.61
10/30/2022 4:45:00 PM 7.34 45.212 0.093 6.7 0.99 11.59
10/30/2022 5:00:00 PM 7.31 45.158 0.093 6.66 1 11.62
10/30/2022 5:15:00 PM 7.33 45.194 0.093 6.71 0.97 11.66
10/30/2022 5:30:00 PM 7.33 45.194 0.093 6.67 1.12 11.66
10/30/2022 5:45:00 PM 7.35 45.23 0.093 6.7 1.04 11.59
10/30/2022 6:00:00 PM 7.36 45.248 0.093 6.67 1.07 11.55
10/30/2022 6:15:00 PM 7.33 45.194 0.093 6.73 1.04 11.55
10/30/2022 6:30:00 PM 7.35 45.23 0.093 6.66 1.04 11.48
10/30/2022 6:45:00 PM 7.33 45.194 0.093 6.67 1.32 11.45
10/30/2022 7:00:00 PM 7.33 45.194 0.093 6.66 1.11 11.42
10/30/2022 7:15:00 PM 7.33 45.194 0.093 6.67 1.13 11.36
10/30/2022 7:30:00 PM 7.29 45.122 0.093 6.65 1.02 11.4
10/30/2022 7:45:00 PM 7.27 45.086 0.093 6.63 1.08 11.39
10/30/2022 8:00:00 PM 7.24 45.032 0.093 6.67 1.07 11.39
10/30/2022 8:15:00 PM 7.21 44.978 0.093 6.61 1.27 11.36
10/30/2022 8:30:00 PM 7.16 44.888 0.093 6.62 1.02 11.39
10/30/2022 8:45:00 PM 7.12 44.816 0.094 6.67 1.04 11.4
10/30/2022 9:00:00 PM 7.1 44.78 0.094 6.67 1.04 11.4
10/30/2022 9:15:00 PM 7.08 44.744 0.094 6.6 1.12 11.4
10/30/2022 9:30:00 PM 7.06 44.708 0.094 6.66 1.08 11.4
10/30/2022 9:45:00 PM 7.04 44.672 0.094 6.64 1.09 11.39
10/30/2022 10:00:00 PM 7.01 44.618 0.094 6.65 1.1 11.42
10/30/2022 10:15:00 PM 7 44.6 0.094 6.68 1.09 11.33
10/30/2022 10:30:00 PM 6.97 44.546 0.094 6.58 1.09 11.29
10/30/2022 10:45:00 PM 6.94 44.492 0.094 6.61 1.04 11.29
10/30/2022 11:00:00 PM 6.89 44.402 0.094 6.67 1.06 11.31
10/30/2022 11:15:00 PM 6.83 44.294 0.094 6.62 1.08 11.37
10/30/2022 11:30:00 PM 6.81 44.258 0.094 6.6 1.07 11.37
10/30/2022 11:45:00 PM 6.77 44.186 0.094 6.6 1.02 11.42
10/31/2022 12:00:00 AM 6.74 44.132 0.094 6.68 1.05 11.38
10/31/2022 12:15:00 AM 6.68 44.024 0.094 6.64 1.01 11.41
10/31/2022 12:30:00 AM 6.65 43.97 0.094 6.66 1.22 11.37
10/31/2022 12:45:00 AM 6.6 43.88 0.094 6.59 1.11 11.4
10/31/2022 1:00:00 AM 6.54 43.772 0.094 6.6 1.14 11.43
10/31/2022 1:15:00 AM 6.5 43.7 0.094 6.64 1.1 11.46
10/31/2022 1:30:00 AM 6.46 43.628 0.094 6.64 1.07 11.49
10/31/2022 1:45:00 AM 6.44 43.592 0.094 6.61 1.06 11.43
10/31/2022 2:00:00 AM 6.38 43.484 0.094 6.63 1.09 11.47
10/31/2022 2:15:00 AM 6.34 43.412 0.094 6.6 1.04 11.51
10/31/2022 2:30:00 AM 6.29 43.322 0.094 6.61 1.08 11.52
10/31/2022 2:45:00 AM 6.3 43.34 0.095 6.58 1.07 11.48
10/31/2022 3:00:00 AM 6.27 43.286 0.094 6.62 1.07 11.54
10/31/2022 3:15:00 AM 6.23 43.214 0.094 6.62 1.08 11.61
10/31/2022 3:30:00 AM 6.21 43.178 0.094 6.61 1.09 11.6
10/31/2022 3:45:00 AM 6.18 43.124 0.095 6.6 1.08 11.65
10/31/2022 4:00:00 AM 6.19 43.142 0.095 6.6 1.03 11.59
10/31/2022 4:15:00 AM 6.18 43.124 0.097 6.59 1.03 11.57
10/31/2022 4:30:00 AM 6.13 43.034 0.097 6.6 1.05 11.6
10/31/2022 4:45:00 AM 6.09 42.962 0.095 6.67 1.11 11.63
10/31/2022 5:00:00 AM 6.05 42.89 0.095 6.63 1.05 11.67
10/31/2022 5:15:00 AM 6 42.8 0.096 6.6 1.14 11.69
10/31/2022 5:30:00 AM 6.03 42.854 0.094 6.62 1.03 11.56
10/31/2022 5:45:00 AM 5.95 42.71 0.096 6.6 1.03 11.66
10/31/2022 6:00:00 AM 5.9 42.62 0.094 6.67 1.07 11.73
10/31/2022 6:15:00 AM 5.92 42.656 0.095 6.59 1.06 11.69
10/31/2022 6:30:00 AM 5.9 42.62 0.094 6.65 1.1 11.74
10/31/2022 6:45:00 AM 5.9 42.62 0.094 6.61 1.08 11.78
10/31/2022 7:00:00 AM 5.95 42.71 0.094 6.68 1.06 11.75
10/31/2022 7:15:00 AM 6 42.8 0.094 6.6 1.07 11.66
10/31/2022 7:30:00 AM 5.95 42.71 0.094 6.64 1.06 11.7
10/31/2022 7:45:00 AM 5.93 42.674 0.094 6.64 1.04 11.76
10/31/2022 8:00:00 AM 5.94 42.692 0.094 6.61 1.08 11.83
10/31/2022 8:15:00 AM 5.98 42.764 0.094 6.65 1.05 11.79
10/31/2022 8:30:00 AM 6.01 42.818 0.094 6.66 1.07 11.78
10/31/2022 8:45:00 AM 6.04 42.872 0.094 6.62 1.06 11.8
10/31/2022 9:00:00 AM 6.07 42.926 0.094 6.63 1.05 11.83
10/31/2022 9:15:00 AM 6.15 43.07 0.094 6.62 1.1 11.79
10/31/2022 9:30:00 AM 6.21 43.178 0.094 6.65 1.07 11.83
10/31/2022 9:45:00 AM 6.23 43.214 0.094 6.72 1.03 11.92
10/31/2022 10:00:00 AM 6.27 43.286 0.093 6.67 1.06 11.99
10/31/2022 10:15:00 AM 6.35 43.43 0.093 6.69 1.05 12.01
10/31/2022 10:30:00 AM 6.46 43.628 0.093 6.66 1.07 11.99
10/31/2022 10:45:00 AM 6.59 43.862 0.093 6.72 1.04 12.07
10/31/2022 11:00:00 AM 6.71 44.078 0.094 6.68 1.03 12.02
10/31/2022 11:15:00 AM 6.93 44.474 0.093 6.68 1.03 11.85
10/31/2022 11:30:00 AM 6.96 44.528 0.093 6.69 1.05 11.95
10/31/2022 11:45:00 AM 7.03 44.654 0.093 6.69 1 11.97
10/31/2022 12:00:00 PM 7.11 44.798 0.093 6.71 1.02 11.96
10/31/2022 12:15:00 PM 7.24 45.032 0.093 6.69 1.01 11.92
10/31/2022 12:30:00 PM 7.35 45.23 0.093 6.72 1.04 11.89
10/31/2022 12:45:00 PM 7.42 45.356 0.093 6.72 1.22 11.85
10/31/2022 1:00:00 PM 7.49 45.482 0.093 6.69 1.05 11.79
10/31/2022 1:15:00 PM 7.56 45.608 0.093 6.7 1.03 11.76
10/31/2022 1:30:00 PM 7.65 45.77 0.093 6.73 0.96 11.71
10/31/2022 1:45:00 PM 7.73 45.914 0.093 6.69 1.04 11.69
10/31/2022 2:00:00 PM 7.78 46.004 0.093 6.69 1.04 11.62
10/31/2022 2:15:00 PM 7.82 46.076 0.093 6.69 0.99 11.58
10/31/2022 2:30:00 PM 7.92 46.256 0.093 6.67 1.01 11.62
10/31/2022 2:45:00 PM 8.02 46.436 0.093 6.69 1 11.6
10/31/2022 3:00:00 PM 8.09 46.562 0.093 6.68 1 11.56
10/31/2022 3:15:00 PM 8.13 46.634 0.092 6.69 1.13 11.47
10/31/2022 3:30:00 PM 8.18 46.724 0.093 6.71 1.04 11.51
10/31/2022 3:45:00 PM 8.19 46.742 0.093 6.69 1 11.44
10/31/2022 4:00:00 PM 8.22 46.796 0.093 6.7 1.02 11.4
10/31/2022 4:15:00 PM 8.26 46.868 0.093 6.7 1.08 11.38
10/31/2022 4:30:00 PM 8.3 46.94 0.093 6.66 1.02 11.34
10/31/2022 4:45:00 PM 8.33 46.994 0.093 6.74 1.03 11.34
10/31/2022 5:00:00 PM 8.32 46.976 0.093 6.67 1.04 11.26
10/31/2022 5:15:00 PM 8.34 47.012 0.093 6.64 0.98 11.23
10/31/2022 5:30:00 PM 8.32 46.976 0.093 6.64 1.05 11.18
10/31/2022 5:45:00 PM 8.31 46.958 0.093 6.64 1.05 11.15
10/31/2022 6:00:00 PM 8.3 46.94 0.093 6.65 1.04 11.11
10/31/2022 6:15:00 PM 8.29 46.922 0.093 6.63 0.99 11.07
10/31/2022 6:30:00 PM 8.29 46.922 0.093 6.7 1.07 11.04
10/31/2022 6:45:00 PM 8.3 46.94 0.093 6.63 1.03 11.05
10/31/2022 7:00:00 PM 8.29 46.922 0.093 6.67 1.05 11.01
10/31/2022 7:15:00 PM 8.3 46.94 0.093 6.63 1.08 11.01
10/31/2022 7:30:00 PM 8.3 46.94 0.093 6.67 1 10.95
10/31/2022 7:45:00 PM 8.31 46.958 0.093 6.65 1.06 10.96
10/31/2022 8:00:00 PM 8.31 46.958 0.093 6.61 1.08 10.95
10/31/2022 8:15:00 PM 8.33 46.994 0.093 6.61 1.07 10.94
10/31/2022 8:30:00 PM 8.34 47.012 0.093 6.66 1.07 10.97
10/31/2022 8:45:00 PM 8.33 46.994 0.093 6.61 1.06 10.92
10/31/2022 9:00:00 PM 8.33 46.994 0.093 6.61 1.05 10.94
10/31/2022 9:15:00 PM 8.33 46.994 0.093 6.64 1.09 10.91
10/31/2022 9:30:00 PM 8.33 46.994 0.093 6.65 1.09 10.9
10/31/2022 9:45:00 PM 8.35 47.03 0.093 6.58 1.08 10.92
10/31/2022 10:00:00 PM 8.35 47.03 0.093 6.63 1.1 10.92
10/31/2022 10:15:00 PM 8.35 47.03 0.093 6.59 1.05 10.9
10/31/2022 10:30:00 PM 8.35 47.03 0.093 6.59 1.06 10.92
10/31/2022 10:45:00 PM 8.36 47.048 0.093 6.65 1.05 10.91
10/31/2022 11:00:00 PM 8.36 47.048 0.093 6.56 1.01 10.88
10/31/2022 11:15:00 PM 8.36 47.048 0.093 6.59 1.04 10.92
10/31/2022 11:30:00 PM 8.36 47.048 0.093 6.6 1.06 10.92
10/31/2022 11:45:00 PM 8.36 47.048 0.093 6.6 1.17 10.83
11/1/2022 12:00:00 AM 8.36 47.048 0.093 6.57 1.1 10.9
11/1/2022 12:15:00 AM 8.37 47.066 0.093 6.57 1.06 10.91
11/1/2022 12:30:00 AM 8.38 47.084 0.093 6.61 1.1 10.93
11/1/2022 12:45:00 AM 8.38 47.084 0.093 6.66 1.06 10.91
11/1/2022 1:00:00 AM 8.39 47.102 0.093 6.59 1.15 10.89
11/1/2022 1:15:00 AM 8.4 47.12 0.093 6.62 1.22 10.92
11/1/2022 1:30:00 AM 8.4 47.12 0.093 6.61 1.08 10.92
11/1/2022 1:45:00 AM 8.41 47.138 0.093 6.57 1.11 10.96
11/1/2022 2:00:00 AM 8.42 47.156 0.093 6.6 1.37 11
11/1/2022 2:15:00 AM 8.43 47.174 0.093 6.65 1.12 10.99
11/1/2022 2:30:00 AM 8.43 47.174 0.093 6.58 1.02 10.98
11/1/2022 2:45:00 AM 8.44 47.192 0.093 6.66 1.05 10.97
11/1/2022 3:00:00 AM 8.45 47.21 0.093 6.62 1.03 10.96
11/1/2022 3:15:00 AM 8.46 47.228 0.093 6.6 1.07 10.98
11/1/2022 3:30:00 AM 8.46 47.228 0.094 6.6 1.09 10.94
11/1/2022 3:45:00 AM 8.46 47.228 0.094 6.63 1.02 10.96
11/1/2022 4:00:00 AM 8.47 47.246 0.093 6.66 1.09 10.96
11/1/2022 4:15:00 AM 8.49 47.282 0.093 6.58 1.08 10.98
11/1/2022 4:30:00 AM 8.49 47.282 0.094 6.62 1.07 10.89
11/1/2022 4:45:00 AM 8.5 47.3 0.093 6.64 1.14 10.86
11/1/2022 5:00:00 AM 8.5 47.3 0.094 6.55 1.06 10.86
11/1/2022 5:15:00 AM 8.52 47.336 0.094 6.63 1.1 10.85
11/1/2022 5:30:00 AM 8.53 47.354 0.093 6.58 1.12 10.87
11/1/2022 5:45:00 AM 8.53 47.354 0.094 6.64 1.08 10.89
11/1/2022 6:00:00 AM 8.54 47.372 0.093 6.64 1.04 10.86
11/1/2022 6:15:00 AM 8.56 47.408 0.094 6.59 1.1 10.86
11/1/2022 6:30:00 AM 8.57 47.426 0.094 6.66 1.13 10.88
11/1/2022 6:45:00 AM 8.57 47.426 0.094 6.65 1.13 10.85
11/1/2022 7:00:00 AM 8.57 47.426 0.094 6.62 1.12 10.87
11/1/2022 7:15:00 AM 8.58 47.444 0.094 6.56 1.19 10.87
11/1/2022 7:30:00 AM 8.58 47.444 0.094 6.57 1.09 10.86
11/1/2022 7:45:00 AM 8.59 47.462 0.094 6.58 1.1 10.88
11/1/2022 8:00:00 AM 8.6 47.48 0.094 6.56 1.11 10.83
11/1/2022 8:15:00 AM 8.61 47.498 0.094 6.63 1.09 10.84
11/1/2022 8:30:00 AM 8.61 47.498 0.094 6.62 1.08 10.85
11/1/2022 8:45:00 AM 8.63 47.534 0.094 6.64 1.08 10.91
11/1/2022 9:00:00 AM 8.66 47.588 0.094 6.6 1.11 10.91
11/1/2022 9:15:00 AM 8.68 47.624 0.094 6.64 1.06 10.98
11/1/2022 9:30:00 AM 8.71 47.678 0.094 6.6 1.04 10.97
11/1/2022 9:45:00 AM 8.77 47.786 0.094 6.66 1.2 11.02
11/1/2022 10:00:00 AM 8.82 47.876 0.094 6.62 1.03 11.02
11/1/2022 10:15:00 AM 8.88 47.984 0.094 6.63 1.1 11.14
11/1/2022 10:30:00 AM 8.97 48.146 0.094 6.69 1.05 11.15
11/1/2022 10:45:00 AM 9.07 48.326 0.093 6.68 1.03 11.18
11/1/2022 11:00:00 AM 9.16 48.488 0.094 6.67 1.02 11.16
11/1/2022 11:15:00 AM 9.3 48.74 0.093 6.72 1.01 11.18
11/1/2022 11:30:00 AM 9.43 48.974 0.094 6.67 1.01 11.2
11/1/2022 11:45:00 AM 9.58 49.244 0.094 6.74 1.06 11.17
11/1/2022 12:00:00 PM 9.92 49.856 0.095 6.69 0.98 11.15
11/1/2022 12:15:00 PM 10.03 50.054 0.094 6.74 1.06 11.13
11/1/2022 12:30:00 PM 10.26 50.468 0.093 6.75 1.04 11.11
11/1/2022 12:45:00 PM 10.21 50.378 0.095 6.7 1.03 11.11
11/1/2022 1:00:00 PM 10.25 50.45 0.093 6.72 1.07 11.08
11/1/2022 1:15:00 PM 10.37 50.666 0.093 6.78 1.01 11.12
11/1/2022 1:30:00 PM 10.39 50.702 0.095 6.7 0.97 11.05
11/1/2022 1:45:00 PM 10.4 50.72 0.093 6.78 1.02 11.06
11/1/2022 2:00:00 PM 10.46 50.828 0.093 6.77 1.02 11.05
11/1/2022 2:15:00 PM 10.53 50.954 0.094 6.76 0.97 11.02
11/1/2022 2:30:00 PM 10.64 51.152 0.093 6.8 0.99 11
11/1/2022 2:45:00 PM 10.66 51.188 0.095 6.75 0.97 10.97
11/1/2022 3:00:00 PM 10.65 51.17 0.094 6.73 1.02 10.9
11/1/2022 3:15:00 PM 10.67 51.206 0.093 6.78 1.02 10.88
11/1/2022 3:30:00 PM 10.69 51.242 0.096 6.7 1.01 10.86
11/1/2022 3:45:00 PM 10.77 51.386 0.093 6.75 1.03 10.86
11/1/2022 4:00:00 PM 10.85 51.53 0.094 6.74 0.97 10.87
11/1/2022 4:15:00 PM 10.89 51.602 0.094 6.76 1 10.89
11/1/2022 4:30:00 PM 10.88 51.584 0.094 6.72 1 10.79
11/1/2022 4:45:00 PM 10.92 51.656 0.093 6.79 0.97 10.82
11/1/2022 5:00:00 PM 10.88 51.584 0.095 6.7 1 10.73
11/1/2022 5:15:00 PM 10.88 51.584 0.094 6.72 1 10.72
11/1/2022 5:30:00 PM 10.82 51.476 0.094 6.71 1.01 10.65
11/1/2022 5:45:00 PM 10.79 51.422 0.094 6.75 0.95 10.61
11/1/2022 6:00:00 PM 10.76 51.368 0.095 6.69 0.97 10.57
11/1/2022 6:15:00 PM 10.73 51.314 0.094 6.7 1 10.54
11/1/2022 6:30:00 PM 10.7 51.26 0.095 6.66 0.97 10.47
11/1/2022 6:45:00 PM 10.67 51.206 0.097 6.62 1.04 10.49
11/1/2022 7:00:00 PM 10.61 51.098 0.096 6.63 1.07 10.47
11/1/2022 7:15:00 PM 10.55 50.99 0.095 6.62 1.03 10.48
11/1/2022 7:30:00 PM 10.45 50.81 0.094 6.69 1.04 10.4
11/1/2022 7:45:00 PM 10.41 50.738 0.095 6.66 1.01 10.49
11/1/2022 8:00:00 PM 10.33 50.594 0.097 6.63 1.05 10.49
11/1/2022 8:15:00 PM 10.28 50.504 0.097 6.62 1.04 10.5
11/1/2022 8:30:00 PM 10.22 50.396 0.095 6.62 1.07 10.52
11/1/2022 8:45:00 PM 10.16 50.288 0.095 6.69 1.06 10.49
11/1/2022 9:00:00 PM 10.11 50.198 0.096 6.64 1.04 10.55
11/1/2022 9:15:00 PM 10.1 50.18 0.096 6.62 1.04 10.54
11/1/2022 9:30:00 PM 10.08 50.144 0.096 6.65 1.03 10.54
11/1/2022 9:45:00 PM 10.04 50.072 0.095 6.69 1.06 10.56
11/1/2022 10:00:00 PM 9.97 49.946 0.097 6.62 1.06 10.54
11/1/2022 10:15:00 PM 9.92 49.856 0.095 6.65 1.02 10.62
11/1/2022 10:30:00 PM 9.87 49.766 0.095 6.65 1.02 10.63
11/1/2022 10:45:00 PM 9.82 49.676 0.096 6.64 1.05 10.59
11/1/2022 11:00:00 PM 9.79 49.622 0.096 6.64 1.08 10.63
11/1/2022 11:15:00 PM 9.79 49.622 0.096 6.65 1.04 10.65
11/1/2022 11:30:00 PM 9.78 49.604 0.097 6.61 1.01 10.62
11/1/2022 11:45:00 PM 9.77 49.586 0.095 6.69 1.02 10.66
11/2/2022 12:00:00 AM 9.76 49.568 0.098 6.61 1.07 10.64
11/2/2022 12:15:00 AM 9.74 49.532 0.095 6.67 1.05 10.68
11/2/2022 12:30:00 AM 9.73 49.514 0.098 6.6 1.07 10.66
11/2/2022 12:45:00 AM 9.71 49.478 0.095 6.68 1 10.7
11/2/2022 1:00:00 AM 9.65 49.37 0.096 6.63 1.12 10.69
11/2/2022 1:15:00 AM 9.59 49.262 0.097 6.61 1.06 10.66
11/2/2022 1:30:00 AM 9.54 49.172 0.095 6.66 1 10.71
11/2/2022 1:45:00 AM 9.48 49.064 0.096 6.65 1.03 10.69
11/2/2022 2:00:00 AM 9.44 48.992 0.096 6.65 1.04 10.74
11/2/2022 2:15:00 AM 9.42 48.956 0.098 6.59 1.07 10.75
11/2/2022 2:30:00 AM 9.4 48.92 0.095 6.62 1 10.74
11/2/2022 2:45:00 AM 9.37 48.866 0.096 6.63 1.08 10.77
11/2/2022 3:00:00 AM 9.33 48.794 0.095 6.63 1.02 10.76
11/2/2022 3:15:00 AM 9.3 48.74 0.096 6.65 1.05 10.75
11/2/2022 3:30:00 AM 9.27 48.686 0.096 6.68 1.02 10.78
11/2/2022 3:45:00 AM 9.24 48.632 0.098 6.61 1.07 10.81
11/2/2022 4:00:00 AM 9.22 48.596 0.095 6.68 1.08 10.82
11/2/2022 4:15:00 AM 9.2 48.56 0.095 6.61 1.07 10.84
11/2/2022 4:30:00 AM 9.16 48.488 0.095 6.64 1.05 10.83
11/2/2022 4:45:00 AM 9.12 48.416 0.095 6.63 1.02 10.86
11/2/2022 5:00:00 AM 9.1 48.38 0.096 6.65 1.04 10.84
11/2/2022 5:15:00 AM 9.06 48.308 0.096 6.62 1.09 10.88
11/2/2022 5:30:00 AM 9.03 48.254 0.095 6.64 1.02 10.87
11/2/2022 5:45:00 AM 9 48.2 0.097 6.62 1.05 10.9
11/2/2022 6:00:00 AM 8.98 48.164 0.095 6.64 1.05 10.88
11/2/2022 6:15:00 AM 8.94 48.092 0.096 6.62 1.02 10.88
11/2/2022 6:30:00 AM 8.91 48.038 0.095 6.69 1.01 10.93
11/2/2022 6:45:00 AM 8.89 48.002 0.099 6.59 1.05 10.93
11/2/2022 7:00:00 AM 8.87 47.966 0.095 6.64 1.03 10.93
11/2/2022 7:15:00 AM 8.84 47.912 0.097 6.63 1.01 10.96
11/2/2022 7:30:00 AM 8.83 47.894 0.095 6.68 1.05 10.95
11/2/2022 7:45:00 AM 8.8 47.84 0.096 6.62 1.15 10.98
11/2/2022 8:00:00 AM 8.78 47.804 0.097 6.58 1.07 10.95
11/2/2022 8:15:00 AM 8.76 47.768 0.095 6.63 1.04 11.03
11/2/2022 8:30:00 AM 8.77 47.786 0.097 6.62 1.17 11.08
11/2/2022 8:45:00 AM 8.8 47.84 0.096 6.62 1.03 11.05
11/2/2022 9:00:00 AM 8.82 47.876 0.096 6.63 1.02 11.08
11/2/2022 9:15:00 AM 8.85 47.93 0.097 6.62 1.06 11.17
11/2/2022 9:30:00 AM 8.89 48.002 0.095 6.68 1.05 11.21
11/2/2022 9:45:00 AM 8.95 48.11 0.096 6.73 1.01 11.25
11/2/2022 10:00:00 AM 9.01 48.218 0.098 6.64 1.02 11.32
11/2/2022 10:15:00 AM 9.03 48.254 0.089 6.72 1.17 11.05
11/2/2022 10:30:00 AM 9.1 48.38 0.09 7.38 1.11 11.14
11/2/2022 10:45:00 AM 9.19 48.542 0.089 7.13 1.06 11.11
11/2/2022 11:00:00 AM 9.29 48.722 0.09 7.05 1 11.02
11/2/2022 11:15:00 AM 9.39 48.902 0.09 7.04 1 11.16
11/2/2022 11:30:00 AM 9.48 49.064 0.091 6.94 1.03 11.11
11/2/2022 11:45:00 AM 9.69 49.442 0.091 6.9 0.98 11.04
11/2/2022 12:00:00 PM 9.9 49.82 0.087 6.87 0.99 11.05
11/2/2022 12:15:00 PM 10.03 50.054 0.09 6.85 0.96 11.01
11/2/2022 12:30:00 PM 10.12 50.216 0.09 6.9 0.97 10.91
11/2/2022 12:45:00 PM 10.15 50.27 0.089 6.93 1.01 10.84
11/2/2022 1:00:00 PM 10.2 50.36 0.09 6.92 0.96 10.89
11/2/2022 1:15:00 PM 10.28 50.504 0.089 6.95 0.98 10.86
11/2/2022 1:30:00 PM 10.36 50.648 0.089 6.95 0.95 10.84
11/2/2022 1:45:00 PM 10.41 50.738 0.09 7.19 1.06 10.83
11/2/2022 2:00:00 PM 10.48 50.864 0.089 7.15 0.96 10.66
11/2/2022 2:15:00 PM 10.52 50.936 0.09 7.03 0.96 10.68
11/2/2022 2:30:00 PM 10.56 51.008 0.09 7.24 0.96 10.62
11/2/2022 2:45:00 PM 10.54 50.972 0.088 6.97 0.96 10.64
11/2/2022 3:00:00 PM 10.58 51.044 0.088 7.05 0.99 10.7
11/2/2022 3:15:00 PM 10.64 51.152 0.09 7.03 0.97 10.59
11/2/2022 3:30:00 PM 10.56 51.008 0.089 7 0.96 10.62
11/2/2022 3:45:00 PM 10.44 50.792 0.089 6.94 1.02 10.61
11/2/2022 4:00:00 PM 10.38 50.684 0.089 6.89 0.96 10.52
11/2/2022 4:15:00 PM 10.31 50.558 0.089 7.06 0.97 10.58
11/2/2022 4:30:00 PM 10.28 50.504 0.09 6.73 0.98 10.5
11/2/2022 4:45:00 PM 10.24 50.432 0.092 6.8 1.09 10.49
11/2/2022 5:00:00 PM 10.23 50.414 0.092 6.79 0.98 10.52
11/2/2022 5:15:00 PM 10.2 50.36 0.091 6.78 0.97 10.5
11/2/2022 5:30:00 PM 10.16 50.288 0.091 6.74 0.96 10.48
11/2/2022 5:45:00 PM 10.12 50.216 0.092 6.71 0.98 10.46
11/2/2022 6:00:00 PM 10.1 50.18 0.092 6.71 1.02 10.45
11/2/2022 6:15:00 PM 10.05 50.09 0.089 6.62 0.98 10.42
11/2/2022 6:30:00 PM 10 50 0.09 6.59 1 10.39
11/2/2022 6:45:00 PM 9.96 49.928 0.089 6.64 1.01 10.41
11/2/2022 7:00:00 PM 9.9 49.82 0.09 6.68 1.02 10.4
11/2/2022 7:15:00 PM 9.83 49.694 0.087 6.55 1.05 10.33
11/2/2022 7:30:00 PM 9.77 49.586 0.089 6.52 1.01 10.35
11/2/2022 7:45:00 PM 9.72 49.496 0.088 6.52 1.02 10.37
11/2/2022 8:00:00 PM 9.66 49.388 0.091 6.54 0.98 10.39
11/2/2022 8:15:00 PM 9.59 49.262 0.091 6.54 1.01 10.38
11/2/2022 8:30:00 PM 9.53 49.154 0.089 6.51 1.02 10.41
11/2/2022 8:45:00 PM 9.47 49.046 0.091 6.52 0.98 10.37
11/2/2022 9:00:00 PM 9.41 48.938 0.091 6.55 1 10.38
11/2/2022 9:15:00 PM 9.36 48.848 0.089 6.57 0.96 10.4
11/2/2022 9:30:00 PM 9.3 48.74 0.089 6.54 0.99 10.43
11/2/2022 9:45:00 PM 9.24 48.632 0.089 6.51 1.03 10.45
11/2/2022 10:00:00 PM 9.18 48.524 0.089 6.48 1.05 10.49
11/2/2022 10:15:00 PM 9.13 48.434 0.087 6.42 1.01 10.45
11/2/2022 10:30:00 PM 9.05 48.29 0.09 6.44 1.03 10.46
11/2/2022 10:45:00 PM 8.99 48.182 0.091 6.46 1.02 10.51
11/2/2022 11:00:00 PM 8.93 48.074 0.091 6.48 0.99 10.54
11/2/2022 11:15:00 PM 8.87 47.966 0.092 6.47 1 10.57
11/2/2022 11:30:00 PM 8.79 47.822 0.091 6.52 0.98 10.57
11/2/2022 11:45:00 PM 8.74 47.732 0.09 6.52 1.02 10.55
11/3/2022 12:00:00 AM 8.66 47.588 0.089 6.41 1.02 10.59
11/3/2022 12:15:00 AM 8.61 47.498 0.09 6.42 1.02 10.57
11/3/2022 12:30:00 AM 8.52 47.336 0.09 6.37 1 10.61
11/3/2022 12:45:00 AM 8.46 47.228 0.089 6.4 1 10.65
11/3/2022 1:00:00 AM 8.4 47.12 0.09 6.35 1.02 10.61
11/3/2022 1:15:00 AM 8.35 47.03 0.092 6.32 1 10.58
11/3/2022 1:30:00 AM 8.27 46.886 0.092 6.32 1.04 10.65
11/3/2022 1:45:00 AM 8.22 46.796 0.091 6.29 1 10.57
11/3/2022 2:00:00 AM 8.19 46.742 0.094 6.3 0.99 10.58
11/3/2022 2:15:00 AM 8.12 46.616 0.089 6.32 1 10.61
11/3/2022 2:30:00 AM 8.05 46.49 0.089 6.32 1.01 10.75
11/3/2022 2:45:00 AM 8.02 46.436 0.09 6.3 1.03 10.73
11/3/2022 3:00:00 AM 8 46.4 0.087 6.3 1.01 10.75
11/3/2022 3:15:00 AM 7.97 46.346 0.089 6.34 1.01 10.78
11/3/2022 3:30:00 AM 7.94 46.292 0.088 6.34 1.05 10.83
11/3/2022 3:45:00 AM 7.95 46.31 0.088 6.34 1.02 10.78
11/3/2022 4:00:00 AM 7.91 46.238 0.087 6.35 1.01 10.77
11/3/2022 4:15:00 AM 7.86 46.148 0.089 6.35 1.02 10.8
11/3/2022 4:30:00 AM 7.83 46.094 0.089 6.36 1.03 10.88
11/3/2022 4:45:00 AM 7.82 46.076 0.091 6.36 1.03 10.87
11/3/2022 5:00:00 AM 7.81 46.058 0.09 6.33 1.06 10.85
11/3/2022 5:15:00 AM 7.77 45.986 0.09 6.34 1.01 10.88
11/3/2022 5:30:00 AM 7.78 46.004 0.091 6.31 1 10.79
11/3/2022 5:45:00 AM 7.71 45.878 0.092 6.33 1.05 10.89
11/3/2022 6:00:00 AM 7.69 45.842 0.093 6.33 1.06 10.89
11/3/2022 6:15:00 AM 7.65 45.77 0.092 6.33 1 10.93
11/3/2022 6:30:00 AM 7.63 45.734 0.094 6.34 1.04 10.96
11/3/2022 6:45:00 AM 7.61 45.698 0.091 6.33 1.03 10.96
11/3/2022 7:00:00 AM 7.61 45.698 0.093 6.34 0.98 10.96
11/3/2022 7:15:00 AM 7.59 45.662 0.092 6.36 1 10.94
11/3/2022 7:30:00 AM 7.56 45.608 0.092 6.34 1 10.89
11/3/2022 7:45:00 AM 7.56 45.608 0.089 6.33 1.04 10.92
11/3/2022 8:00:00 AM 7.5 45.5 0.092 6.34 1.01 10.98
11/3/2022 8:15:00 AM 7.47 45.446 0.09 6.35 1.02 11.05
11/3/2022 8:30:00 AM 7.47 45.446 0.09 6.36 1.04 10.97
11/3/2022 8:45:00 AM 7.48 45.464 0.089 6.37 0.98 11.02
11/3/2022 9:00:00 AM 7.45 45.41 0.089 6.46 1.01 11.2
11/3/2022 9:15:00 AM 7.46 45.428 0.089 6.46 1.03 11.28
11/3/2022 9:30:00 AM 7.52 45.536 0.091 6.43 0.99 11.19
11/3/2022 9:45:00 AM 7.56 45.608 0.091 6.45 1.02 11.28
11/3/2022 10:00:00 AM 7.57 45.626 0.09 6.52 0.98 11.45
11/3/2022 10:15:00 AM 7.62 45.716 0.091 6.49 1.01 11.47
11/3/2022 10:30:00 AM 7.72 45.896 0.091 6.47 1.01 11.42
11/3/2022 10:45:00 AM 7.88 46.184 0.088 6.48 1 11.55
11/3/2022 11:00:00 AM 7.99 46.382 0.088 6.48 1.01 11.55
11/3/2022 11:15:00 AM 8.12 46.616 0.088 6.49 0.97 11.49
11/3/2022 11:30:00 AM 8.27 46.886 0.09 6.44 0.99 11.36
11/3/2022 11:45:00 AM 8.45 47.21 0.088 6.45 0.99 11.33
11/3/2022 12:00:00 PM 8.58 47.444 0.088 6.49 1 11.4
11/3/2022 12:15:00 PM 8.7 47.66 0.087 6.48 0.98 11.43
11/3/2022 12:30:00 PM 8.8 47.84 0.09 6.45 0.94 11.32
11/3/2022 12:45:00 PM 8.86 47.948 0.089 6.44 0.99 11.27
11/3/2022 1:00:00 PM 8.92 48.056 0.091 6.45 1 11.27
11/3/2022 1:15:00 PM 9.06 48.308 0.089 6.4 1 11.07
11/3/2022 1:30:00 PM 9.04 48.272 0.087 6.39 0.96 11.1
11/3/2022 1:45:00 PM 9.16 48.488 0.089 6.38 0.97 11.02
11/3/2022 2:00:00 PM 9.1 48.38 0.089 6.42 0.97 11.2
11/3/2022 2:15:00 PM 9.2 48.56 0.087 6.44 0.97 11.23
11/3/2022 2:30:00 PM 9.35 48.83 0.088 6.4 0.99 11.06
11/3/2022 2:45:00 PM 9.38 48.884 0.09 6.37 0.93 10.91
11/3/2022 3:00:00 PM 9.41 48.938 0.089 6.38 0.96 10.93
11/3/2022 3:15:00 PM 9.45 49.01 0.09 6.38 0.96 10.92
11/3/2022 3:30:00 PM 9.48 49.064 0.09 6.37 0.96 10.87
11/3/2022 3:45:00 PM 9.33 48.794 0.088 6.37 0.94 10.89
11/3/2022 4:00:00 PM 9.27 48.686 0.089 6.38 1.05 10.92
11/3/2022 4:15:00 PM 9.25 48.65 0.089 6.38 0.98 10.85
11/3/2022 4:30:00 PM 9.24 48.632 0.088 6.38 0.95 10.85
11/3/2022 4:45:00 PM 9.22 48.596 0.088 6.38 0.96 10.85
11/3/2022 5:00:00 PM 9.22 48.596 0.088 6.36 0.98 10.79
11/3/2022 5:15:00 PM 9.21 48.578 0.088 6.37 1 10.82
11/3/2022 5:30:00 PM 9.2 48.56 0.087 6.37 0.98 10.77
11/3/2022 5:45:00 PM 9.18 48.524 0.088 6.36 0.96 10.75
11/3/2022 6:00:00 PM 9.17 48.506 0.087 6.35 0.95 10.71
11/3/2022 6:15:00 PM 9.15 48.47 0.088 6.42 1.01 10.66
11/3/2022 6:30:00 PM 9.11 48.398 0.089 6.37 1.01 10.64
11/3/2022 6:45:00 PM 9.09 48.362 0.088 6.3 0.98 10.57
11/3/2022 7:00:00 PM 9.06 48.308 0.09 6.32 1.01 10.59
11/3/2022 7:15:00 PM 9.02 48.236 0.09 6.3 0.98 10.49
11/3/2022 7:30:00 PM 8.98 48.164 0.09 6.3 1.02 10.54
11/3/2022 7:45:00 PM 8.94 48.092 0.091 6.28 1.01 10.53
11/3/2022 8:00:00 PM 8.9 48.02 0.089 6.3 1.14 10.54
11/3/2022 8:15:00 PM 8.86 47.948 0.091 6.29 1.11 10.59
11/3/2022 8:30:00 PM 8.81 47.858 0.09 6.29 1.05 10.56
11/3/2022 8:45:00 PM 8.77 47.786 0.09 6.26 1.02 10.54
11/3/2022 9:00:00 PM 8.72 47.696 0.089 6.29 1.02 10.59
11/3/2022 9:15:00 PM 8.68 47.624 0.089 6.28 1.03 10.57
11/3/2022 9:30:00 PM 8.62 47.516 0.089 6.27 1.04 10.57
11/3/2022 9:45:00 PM 8.58 47.444 0.088 6.28 1.02 10.59
11/3/2022 10:00:00 PM 8.54 47.372 0.088 6.28 1.02 10.6
11/3/2022 10:15:00 PM 8.49 47.282 0.088 6.28 1.04 10.66
11/3/2022 10:30:00 PM 8.45 47.21 0.09 6.27 1.03 10.62
11/3/2022 10:45:00 PM 8.41 47.138 0.089 6.27 1.01 10.6
11/3/2022 11:00:00 PM 8.36 47.048 0.09 6.26 1 10.59
11/3/2022 11:15:00 PM 8.31 46.958 0.092 6.25 1.05 10.67
11/3/2022 11:30:00 PM 8.25 46.85 0.091 6.27 1.02 10.72
11/3/2022 11:45:00 PM 8.21 46.778 0.09 6.26 1.05 10.67
11/4/2022 12:00:00 AM 8.16 46.688 0.09 6.26 1.01 10.67
11/4/2022 12:15:00 AM 8.1 46.58 0.089 6.26 1 10.7
11/4/2022 12:30:00 AM 8.07 46.526 0.089 6.26 1.03 10.71
11/4/2022 12:45:00 AM 8.03 46.454 0.088 6.26 1.02 10.72
11/4/2022 1:00:00 AM 7.98 46.364 0.088 6.26 1.06 10.71
11/4/2022 1:15:00 AM 7.93 46.274 0.089 6.26 1.05 10.79
11/4/2022 1:30:00 AM 7.87 46.166 0.089 6.27 1.06 10.8
11/4/2022 1:45:00 AM 7.85 46.13 0.088 6.26 1.04 10.78
11/4/2022 2:00:00 AM 7.79 46.022 0.089 6.26 1.03 10.82
11/4/2022 2:15:00 AM 7.75 45.95 0.09 6.26 1.04 10.8
11/4/2022 2:30:00 AM 7.68 45.824 0.091 6.27 1.03 10.9
11/4/2022 2:45:00 AM 7.66 45.788 0.091 6.26 1.01 10.87
11/4/2022 3:00:00 AM 7.6 45.68 0.091 6.26 1.03 10.85
11/4/2022 3:15:00 AM 7.58 45.644 0.091 6.27 1.04 10.89
11/4/2022 3:30:00 AM 7.52 45.536 0.091 6.26 1.03 10.92
11/4/2022 3:45:00 AM 7.46 45.428 0.09 6.27 1.03 10.95
11/4/2022 4:00:00 AM 7.44 45.392 0.09 6.26 1.05 10.92
11/4/2022 4:15:00 AM 7.38 45.284 0.09 6.27 1.04 10.98
11/4/2022 4:30:00 AM 7.39 45.302 0.089 6.25 1.06 10.91
11/4/2022 4:45:00 AM 7.31 45.158 0.089 6.26 1.03 10.98
11/4/2022 5:00:00 AM 7.25 45.05 0.088 6.28 1.06 11.08
11/4/2022 5:15:00 AM 7.24 45.032 0.089 6.27 1.1 11.04
11/4/2022 5:30:00 AM 7.19 44.942 0.088 6.27 1.06 11.04
11/4/2022 5:45:00 AM 7.15 44.87 0.089 6.27 1.04 11.04
11/4/2022 6:00:00 AM 7.1 44.78 0.09 6.27 1.06 11.11
11/4/2022 6:15:00 AM 7.06 44.708 0.091 6.27 1.03 11.12
11/4/2022 6:30:00 AM 7.06 44.708 0.09 6.26 1.04 11.07
11/4/2022 6:45:00 AM 6.99 44.582 0.09 6.27 1.39 11.15
11/4/2022 7:00:00 AM 7.03 44.654 0.091 6.24 1 11.05
11/4/2022 7:15:00 AM 6.93 44.474 0.09 6.26 1.04 11.2
11/4/2022 7:30:00 AM 6.91 44.438 0.091 6.27 1.02 11.17
11/4/2022 7:45:00 AM 6.9 44.42 0.089 6.26 1.03 11.12
11/4/2022 8:00:00 AM 6.87 44.366 0.088 6.25 1.03 11.13
11/4/2022 8:15:00 AM 6.83 44.294 0.089 6.27 1.04 11.21
11/4/2022 8:30:00 AM 6.82 44.276 0.089 6.27 1.06 11.26
11/4/2022 8:45:00 AM 6.8 44.24 0.089 6.29 1.01 11.36
11/4/2022 9:00:00 AM 6.82 44.276 0.089 6.29 1.04 11.39
11/4/2022 9:15:00 AM 6.81 44.258 0.09 6.3 1.03 11.43
11/4/2022 9:30:00 AM 6.8 44.24 0.088 6.32 1.02 11.57
11/4/2022 9:45:00 AM 6.87 44.366 0.089 6.32 1.03 11.57
11/4/2022 10:00:00 AM 6.96 44.528 0.09 6.32 1.04 11.56
11/4/2022 10:15:00 AM 7.06 44.708 0.09 6.33 1.01 11.6
11/4/2022 10:30:00 AM 7.19 44.942 0.09 6.35 1.02 11.64
11/4/2022 10:45:00 AM 7.33 45.194 0.089 6.34 1.01 11.61
11/4/2022 11:00:00 AM 7.45 45.41 0.087 6.36 1.04 11.67
11/4/2022 11:15:00 AM 7.64 45.752 0.09 6.37 1.04 11.65
11/4/2022 11:30:00 AM 7.82 46.076 0.089 6.36 0.99 11.58
11/4/2022 11:45:00 AM 7.99 46.382 0.087 6.36 1 11.54
11/4/2022 12:00:00 PM 8.29 46.922 0.09 6.33 0.98 11.41
11/4/2022 12:15:00 PM 8.46 47.228 0.088 6.32 0.99 11.33
11/4/2022 12:30:00 PM 8.51 47.318 0.089 6.32 0.96 11.27
11/4/2022 12:45:00 PM 8.65 47.57 0.089 6.32 0.99 11.27
11/4/2022 1:00:00 PM 8.75 47.75 0.088 6.32 1 11.2
11/4/2022 1:15:00 PM 8.71 47.678 0.088 6.36 0.98 11.39
11/4/2022 1:30:00 PM 8.79 47.822 0.088 6.37 0.98 11.4
11/4/2022 1:45:00 PM 8.91 48.038 0.089 6.37 1 11.33
11/4/2022 2:00:00 PM 9 48.2 0.09 6.38 0.98 11.31
11/4/2022 2:15:00 PM 9.15 48.47 0.087 6.38 0.97 11.28
11/4/2022 2:30:00 PM 9.4 48.92 0.088 6.34 0.99 11.08
11/4/2022 2:45:00 PM 9.31 48.758 0.088 6.36 0.99 11.17
11/4/2022 3:00:00 PM 9.39 48.902 0.088 6.38 0.99 11.15
11/4/2022 3:15:00 PM 9.46 49.028 0.09 6.36 0.93 11.06
11/4/2022 3:30:00 PM 9.47 49.046 0.089 6.36 0.95 11.05
11/4/2022 3:45:00 PM 9.63 49.334 0.09 6.34 0.96 10.89
11/4/2022 4:00:00 PM 9.56 49.208 0.089 6.31 0.98 10.81
11/4/2022 4:15:00 PM 9.55 49.19 0.089 6.36 1 10.88
11/4/2022 4:30:00 PM 9.58 49.244 0.089 6.34 0.98 10.85
11/4/2022 4:45:00 PM 9.59 49.262 0.09 6.34 0.97 10.79
11/4/2022 5:00:00 PM 9.61 49.298 0.09 6.36 0.97 10.86
11/4/2022 5:15:00 PM 9.64 49.352 0.09 6.34 0.98 10.8
11/4/2022 5:30:00 PM 9.68 49.424 0.089 6.35 0.98 10.77
11/4/2022 5:45:00 PM 9.66 49.388 0.088 6.34 1 10.72
11/4/2022 6:00:00 PM 9.65 49.37 0.088 6.34 0.95 10.69
11/4/2022 6:15:00 PM 9.6 49.28 0.09 6.32 1.01 10.61
11/4/2022 6:30:00 PM 9.59 49.262 0.09 6.33 1 10.6
11/4/2022 6:45:00 PM 9.56 49.208 0.09 6.33 0.98 10.57
11/4/2022 7:00:00 PM 9.53 49.154 0.089 6.31 1.4 10.5
11/4/2022 7:15:00 PM 9.51 49.118 0.089 6.3 1.01 10.46
11/4/2022 7:30:00 PM 9.49 49.082 0.089 6.29 1.04 10.45
11/4/2022 7:45:00 PM 9.47 49.046 0.091 6.29 1.02 10.42
11/4/2022 8:00:00 PM 9.46 49.028 0.089 6.29 1.02 10.43
11/4/2022 8:15:00 PM 9.46 49.028 0.09 6.3 0.98 10.46
11/4/2022 8:30:00 PM 9.43 48.974 0.089 6.28 1.01 10.42
11/4/2022 8:45:00 PM 9.42 48.956 0.089 6.29 1.03 10.44
11/4/2022 9:00:00 PM 9.4 48.92 0.09 6.29 1 10.46
11/4/2022 9:15:00 PM 9.38 48.884 0.089 6.29 1 10.47
11/4/2022 9:30:00 PM 9.35 48.83 0.089 6.3 1.05 10.48
11/4/2022 9:45:00 PM 9.33 48.794 0.089 6.29 1.04 10.47
11/4/2022 10:00:00 PM 9.3 48.74 0.088 6.29 1.03 10.47
11/4/2022 10:15:00 PM 9.28 48.704 0.089 6.28 1.05 10.44
11/4/2022 10:30:00 PM 9.28 48.704 0.089 6.28 1.09 10.43
11/4/2022 10:45:00 PM 9.26 48.668 0.089 6.3 1.03 10.49
11/4/2022 11:00:00 PM 9.25 48.65 0.09 6.3 1.09 10.49
11/4/2022 11:15:00 PM 9.22 48.596 0.089 6.28 0.99 10.39
11/4/2022 11:30:00 PM 9.2 48.56 0.089 6.28 0.99 10.4
11/4/2022 11:45:00 PM 9.18 48.524 0.09 6.28 1.03 10.38
11/5/2022 12:00:00 AM 9.15 48.47 0.088 6.28 1.01 10.49
11/5/2022 12:15:00 AM 9.13 48.434 0.088 6.28 1.03 10.49
11/5/2022 12:30:00 AM 9.11 48.398 0.09 6.29 1 10.46
11/5/2022 12:45:00 AM 9.08 48.344 0.089 6.29 1.04 10.5
11/5/2022 1:00:00 AM 9.06 48.308 0.09 6.27 1.07 10.4
11/5/2022 1:15:00 AM 9.02 48.236 0.09 6.29 1.01 10.54
11/5/2022 1:30:00 AM 9.01 48.218 0.09 6.28 1 10.41
11/5/2022 1:45:00 AM 8.99 48.182 0.09 6.29 1 10.45
11/5/2022 2:00:00 AM 8.99 48.182 0.09 6.29 1.02 10.44
11/5/2022 2:15:00 AM 8.96 48.128 0.09 6.28 1 10.45
11/5/2022 2:30:00 AM 8.94 48.092 0.09 6.31 1.04 10.58
11/5/2022 2:45:00 AM 8.94 48.092 0.091 6.3 1.01 10.56
11/5/2022 3:00:00 AM 8.93 48.074 0.09 6.29 0.98 10.55
11/5/2022 3:15:00 AM 8.93 48.074 0.091 6.29 0.98 10.49
11/5/2022 3:30:00 AM 8.89 48.002 0.09 6.3 1 10.59
11/5/2022 3:45:00 AM 8.88 47.984 0.09 6.31 1.02 10.57
11/5/2022 4:00:00 AM 8.85 47.93 0.089 6.3 0.99 10.6
11/5/2022 4:15:00 AM 8.82 47.876 0.09 6.3 1.04 10.58
11/5/2022 4:30:00 AM 8.8 47.84 0.089 6.27 1.03 10.51
11/5/2022 4:45:00 AM 8.76 47.768 0.089 6.27 1.01 10.54
11/5/2022 5:00:00 AM 8.73 47.714 0.089 6.29 0.99 10.62
11/5/2022 5:15:00 AM 8.72 47.696 0.089 6.28 1.02 10.59
11/5/2022 5:30:00 AM 8.68 47.624 0.089 6.29 1.02 10.62
11/5/2022 5:45:00 AM 8.65 47.57 0.089 6.28 1 10.57
11/5/2022 6:00:00 AM 8.63 47.534 0.088 6.27 1.03 10.61
11/5/2022 6:15:00 AM 8.61 47.498 0.088 6.27 1 10.52
11/5/2022 6:30:00 AM 8.58 47.444 0.089 6.27 1.02 10.55
11/5/2022 6:45:00 AM 8.57 47.426 0.088 6.25 1.02 10.5
11/5/2022 7:00:00 AM 8.53 47.354 0.089 6.26 1.04 10.53
11/5/2022 7:15:00 AM 8.5 47.3 0.089 6.26 1.02 10.57
11/5/2022 7:30:00 AM 8.47 47.246 0.089 6.26 1.01 10.59
11/5/2022 7:45:00 AM 8.46 47.228 0.089 6.27 1 10.62
11/5/2022 8:00:00 AM 8.45 47.21 0.089 6.26 1.02 10.63
11/5/2022 8:15:00 AM 8.47 47.246 0.089 6.26 1.01 10.59
11/5/2022 8:30:00 AM 8.5 47.3 0.089 6.27 0.99 10.72
11/5/2022 8:45:00 AM 8.52 47.336 0.089 6.29 1.02 10.79
11/5/2022 9:00:00 AM 8.56 47.408 0.089 6.29 0.99 10.8
11/5/2022 9:15:00 AM 8.62 47.516 0.088 6.3 1.02 10.9
11/5/2022 9:30:00 AM 8.7 47.66 0.088 6.31 1.01 10.87
11/5/2022 9:45:00 AM 8.79 47.822 0.089 6.32 1 10.95
11/5/2022 10:00:00 AM 8.91 48.038 0.09 6.33 1 10.94
11/5/2022 10:15:00 AM 9.03 48.254 0.089 6.34 0.98 10.93
11/5/2022 10:30:00 AM 9.15 48.47 0.089 6.35 0.98 10.94
11/5/2022 10:45:00 AM 9.31 48.758 0.088 6.37 1.01 11
11/5/2022 11:00:00 AM 9.49 49.082 0.089 6.38 0.98 11.02
11/5/2022 11:15:00 AM 9.77 49.586 0.088 6.37 0.96 10.98
11/5/2022 11:30:00 AM 9.97 49.946 0.088 6.42 0.95 10.99
11/5/2022 11:45:00 AM 10.21 50.378 0.089 6.45 0.96 10.99
11/5/2022 12:00:00 PM 10.49 50.882 0.088 6.7 0.94 10.87
11/5/2022 12:15:00 PM 10.6 51.08 0.089 6.86 0.95 10.71
11/5/2022 12:30:00 PM 10.79 51.422 0.089 7 0.92 10.8
11/5/2022 12:45:00 PM 10.91 51.638 0.09 6.84 0.95 10.62
11/5/2022 1:00:00 PM 11.08 51.944 0.088 6.83 0.92 10.75
11/5/2022 1:15:00 PM 11.16 52.088 0.088 6.76 0.96 10.68
11/5/2022 1:30:00 PM 11.33 52.394 0.089 6.91 0.94 10.63
11/5/2022 1:45:00 PM 11.46 52.628 0.089 7.03 0.95 10.54
11/5/2022 2:00:00 PM 11.61 52.898 0.089 7.06 0.91 10.53
11/5/2022 2:15:00 PM 11.73 53.114 0.088 6.99 0.92 10.53
11/5/2022 2:30:00 PM 11.83 53.294 0.088 7 0.93 10.49
11/5/2022 2:45:00 PM 11.94 53.492 0.09 6.66 0.96 10.32
11/5/2022 3:00:00 PM 12.12 53.816 0.088 6.88 0.96 10.38
11/5/2022 3:15:00 PM 12.12 53.816 0.089 6.83 0.9 10.3
11/5/2022 3:30:00 PM 12.17 53.906 0.089 6.64 0.94 10.14
11/5/2022 3:45:00 PM 12.2 53.96 0.088 6.64 0.96 9.99
11/5/2022 4:00:00 PM 12.28 54.104 0.088 6.62 0.96 10.13
11/5/2022 4:15:00 PM 12.34 54.212 0.087 6.64 0.92 10.14
11/5/2022 4:30:00 PM 12.42 54.356 0.087 6.61 0.94 10.14
11/5/2022 4:45:00 PM 12.37 54.266 0.088 6.57 0.93 10.07
11/5/2022 5:00:00 PM 12.48 54.464 0.088 6.53 0.94 10.03
11/5/2022 5:15:00 PM 12.45 54.41 0.088 6.44 0.93 9.98
11/5/2022 5:30:00 PM 12.54 54.572 0.088 6.42 0.94 9.96
11/5/2022 5:45:00 PM 12.55 54.59 0.088 6.43 0.94 9.94
11/5/2022 6:00:00 PM 12.49 54.482 0.088 6.4 0.9 9.78
11/5/2022 6:15:00 PM 12.52 54.536 0.087 6.41 0.95 9.78
11/5/2022 6:30:00 PM 12.48 54.464 0.088 6.39 0.93 9.69
11/5/2022 6:45:00 PM 12.52 54.536 0.088 6.38 0.93 9.63
11/5/2022 7:00:00 PM 12.53 54.554 0.088 6.4 0.95 9.63
11/5/2022 7:15:00 PM 12.53 54.554 0.089 6.39 0.93 9.58
11/5/2022 7:30:00 PM 12.51 54.518 0.088 6.39 0.93 9.55
11/5/2022 7:45:00 PM 12.56 54.608 0.09 6.4 0.93 9.56
11/5/2022 8:00:00 PM 12.48 54.464 0.088 6.38 0.96 9.47
11/5/2022 8:15:00 PM 12.4 54.32 0.089 6.39 0.96 9.44
11/5/2022 8:30:00 PM 12.5 54.5 0.089 6.4 0.98 9.43
11/5/2022 8:45:00 PM 12.48 54.464 0.088 6.41 0.96 9.47
11/5/2022 9:00:00 PM 12.5 54.5 0.089 6.44 1.02 9.49
11/5/2022 9:15:00 PM 12.42 54.356 0.089 6.45 1.02 9.49
11/5/2022 9:30:00 PM 12.42 54.356 0.089 6.43 0.96 9.43
11/5/2022 9:45:00 PM 12.42 54.356 0.089 6.42 0.98 9.44
11/5/2022 10:00:00 PM 12.4 54.32 0.089 6.43 0.96 9.47
11/5/2022 10:15:00 PM 12.43 54.374 0.088 6.41 0.96 9.42
11/5/2022 10:30:00 PM 12.42 54.356 0.089 6.42 0.96 9.39
11/5/2022 10:45:00 PM 12.49 54.482 0.089 6.46 0.97 9.43
11/5/2022 11:00:00 PM 12.43 54.374 0.089 6.49 0.98 9.38
11/5/2022 11:15:00 PM 12.45 54.41 0.089 6.46 0.93 9.39
11/5/2022 11:30:00 PM 12.4 54.32 0.089 6.47 0.97 9.24
11/5/2022 11:45:00 PM 12.39 54.302 0.089 7.25 0.95 9.37
11/6/2022 12:00:00 AM 12.48 54.464 0.089 7.18 0.96 9.43
11/6/2022 12:15:00 AM 12.52 54.536 0.09 7.08 0.95 9.41
11/6/2022 12:30:00 AM 12.51 54.518 0.09 7.29 0.96 9.38
11/6/2022 12:45:00 AM 12.44 54.392 0.09 7.27 0.98 9.3
11/6/2022 1:00:00 AM 12.46 54.428 0.09 7.2 0.99 9.37
11/6/2022 1:15:00 AM 12.49 54.482 0.09 7.18 0.96 9.36
11/6/2022 1:30:00 AM 12.41 54.338 0.089 7.28 0.94 9.42
11/6/2022 1:45:00 AM 12.36 54.248 0.088 7.6 0.93 9.36
11/6/2022 2:00:00 AM 12.33 54.194 0.089 7.85 68.09 9.39
11/6/2022 2:15:00 AM 12.32 54.176 0.09 7.04 0.94 9.42
11/6/2022 2:30:00 AM 12.29 54.122 0.089 6.82 0.99 9.42
11/6/2022 2:45:00 AM 12.26 54.068 0.089 6.82 1.04 9.41
11/6/2022 3:00:00 AM 12.25 54.05 0.09 6.64 0.96 9.4
11/6/2022 3:15:00 AM 12.2 53.96 0.09 6.54 0.95 9.42
11/6/2022 3:30:00 AM 12.22 53.996 0.09 6.61 0.91 9.42
11/6/2022 3:45:00 AM 12.18 53.924 0.09 6.59 1.02 9.38
11/6/2022 4:00:00 AM 12.18 53.924 0.09 6.6 0.95 9.44
11/6/2022 4:15:00 AM 12.11 53.798 0.09 6.45 1.02 9.41
11/6/2022 4:30:00 AM 12.09 53.762 0.09 6.42 0.96 9.43
11/6/2022 4:45:00 AM 12.08 53.744 0.09 6.45 0.97 9.46
11/6/2022 5:00:00 AM 12.09 53.762 0.09 6.41 0.96 9.44
11/6/2022 5:15:00 AM 12.13 53.834 0.09 6.42 0.97 9.41
11/6/2022 5:30:00 AM 12.08 53.744 0.09 6.41 0.96 9.44
11/6/2022 5:45:00 AM 12.11 53.798 0.09 6.4 0.98 9.46
11/6/2022 6:00:00 AM 12.09 53.762 0.09 6.4 0.94 9.34
11/6/2022 6:15:00 AM 12.01 53.618 0.09 6.38 0.96 9.33
11/6/2022 6:30:00 AM 12 53.6 0.091 6.4 0.97 9.45
11/6/2022 6:45:00 AM 11.98 53.564 0.09 6.38 0.98 9.39
11/6/2022 7:00:00 AM 11.98 53.564 0.09 6.4 1 9.41
11/6/2022 7:15:00 AM 11.94 53.492 0.09 6.37 0.98 9.36
11/6/2022 7:30:00 AM 12 53.6 0.09 6.38 0.95 9.48
11/6/2022 7:45:00 AM 12.05 53.69 0.09 6.39 0.95 9.58
11/6/2022 8:00:00 AM 12.05 53.69 0.09 6.4 0.97 9.65
11/6/2022 8:15:00 AM 12.08 53.744 0.09 6.41 0.92 9.7
11/6/2022 8:30:00 AM 12.09 53.762 0.09 6.41 1.01 9.71
11/6/2022 8:45:00 AM 12.14 53.852 0.09 6.43 0.94 9.75
11/6/2022 9:00:00 AM 12.15 53.87 0.093 6.44 0.93 9.78
11/6/2022 9:15:00 AM 12.14 53.852 0.09 6.44 0.94 9.74
11/6/2022 9:30:00 AM 12.2 53.96 0.09 6.45 0.91 9.79
11/6/2022 9:45:00 AM 12.37 54.266 0.089 6.46 1 9.86
11/6/2022 10:00:00 AM 12.45 54.41 0.095 6.46 0.94 9.84
11/6/2022 10:15:00 AM 12.5 54.5 0.09 6.47 0.95 9.81
11/6/2022 10:30:00 AM 12.65 54.77 0.09 6.5 1.03 9.87
11/6/2022 10:45:00 AM 12.76 54.968 0.089 6.5 0.96 9.89
11/6/2022 11:00:00 AM 12.86 55.148 0.09 6.49 1.05 9.85
11/6/2022 11:15:00 AM 12.94 55.292 0.089 6.5 0.96 9.86
11/6/2022 11:30:00 AM 12.94 55.292 0.089 6.51 0.99 9.86
11/6/2022 11:45:00 AM 13.01 55.418 0.089 6.5 0.98 9.84
11/6/2022 12:00:00 PM 13.06 55.508 0.088 6.5 0.98 9.9
11/6/2022 12:15:00 PM 13.08 55.544 0.089 6.49 0.92 9.82
11/6/2022 12:30:00 PM 13.12 55.616 0.09 6.49 0.94 9.79
11/6/2022 12:45:00 PM 13.21 55.778 0.09 6.54 0.91 9.89
11/6/2022 1:00:00 PM 13.28 55.904 0.089 6.53 0.92 9.85
11/6/2022 1:15:00 PM 13.43 56.174 0.093 6.55 0.92 9.86
11/6/2022 1:30:00 PM 13.55 56.39 0.089 6.53 0.91 9.84
11/6/2022 1:45:00 PM 13.59 56.462 0.089 6.55 0.93 9.83
11/6/2022 2:00:00 PM 13.67 56.606 0.089 6.54 0.93 9.79
11/6/2022 2:15:00 PM 13.69 56.642 0.089 6.52 0.91 9.76
11/6/2022 2:30:00 PM 13.75 56.75 0.089 6.51 0.96 9.71
11/6/2022 2:45:00 PM 13.67 56.606 0.088 6.53 0.92 9.67
11/6/2022 3:00:00 PM 13.69 56.642 0.088 6.52 0.95 9.57
11/6/2022 3:15:00 PM 13.66 56.588 0.088 6.53 0.92 9.59
11/6/2022 3:30:00 PM 13.64 56.552 0.089 6.53 0.91 9.48
11/6/2022 3:45:00 PM 13.66 56.588 0.089 6.55 0.92 9.59
11/6/2022 4:00:00 PM 13.61 56.498 0.089 6.55 0.94 9.57
11/6/2022 4:15:00 PM 13.55 56.39 0.089 6.53 0.92 9.55
11/6/2022 4:30:00 PM 13.49 56.282 0.089 6.5 0.94 9.49
11/6/2022 4:45:00 PM 13.45 56.21 0.089 6.52 0.89 9.46
11/6/2022 5:00:00 PM 13.41 56.138 0.089 6.54 0.93 9.42
11/6/2022 5:15:00 PM 13.36 56.048 0.089 6.68 0.9 9.35
11/6/2022 5:30:00 PM 13.36 56.048 0.089 6.45 0.98 9.29
11/6/2022 5:45:00 PM 13.33 55.994 0.089 6.45 0.94 9.24
11/6/2022 6:00:00 PM 13.34 56.012 0.089 6.5 0.95 9.25
11/6/2022 6:15:00 PM 13.25 55.85 0.09 6.49 0.91 9.23
11/6/2022 6:30:00 PM 13.21 55.778 0.09 6.52 0.93 9.13
11/6/2022 6:45:00 PM 13.15 55.67 0.09 6.47 1.01 9.13
11/6/2022 7:00:00 PM 13.16 55.688 0.09 6.47 0.96 9.15
11/6/2022 7:15:00 PM 13.18 55.724 0.09 6.48 0.93 9.19
11/6/2022 7:30:00 PM 13.14 55.652 0.09 6.49 1.02 9.21
11/6/2022 7:45:00 PM 13.08 55.544 0.09 6.54 0.93 9.15
11/6/2022 8:00:00 PM 13.07 55.526 0.09 6.57 0.98 9.22
11/6/2022 8:15:00 PM 13.04 55.472 0.09 6.51 1 9.21
11/6/2022 8:30:00 PM 13.02 55.436 0.09 6.47 0.94 9.21
11/6/2022 8:45:00 PM 12.97 55.346 0.09 6.45 0.99 9.2
11/6/2022 9:00:00 PM 12.95 55.31 0.09 6.47 0.97 9.19
11/6/2022 9:15:00 PM 12.9 55.22 0.09 6.54 0.97 9.19
11/6/2022 9:30:00 PM 12.87 55.166 0.09 6.46 0.93 9.17
11/6/2022 9:45:00 PM 12.86 55.148 0.09 6.45 0.93 9.22
11/6/2022 10:00:00 PM 12.82 55.076 0.09 6.44 0.97 9.18
11/6/2022 10:15:00 PM 12.8 55.04 0.09 6.45 1 9.23
11/6/2022 10:30:00 PM 12.77 54.986 0.09 6.44 0.94 9.19
11/6/2022 10:45:00 PM 12.73 54.914 0.091 6.45 1 9.21
11/6/2022 11:00:00 PM 12.72 54.896 0.09 6.45 0.99 9.28
11/6/2022 11:15:00 PM 12.64 54.752 0.09 6.45 1.06 9.23
11/6/2022 11:30:00 PM 12.61 54.698 0.091 6.45 1 9.26
11/6/2022 11:45:00 PM 12.58 54.644 0.09 6.45 1.04 9.26
11/7/2022 12:00:00 AM 12.55 54.59 0.09 6.43 0.99 9.3
11/7/2022 12:15:00 AM 12.53 54.554 0.09 6.43 0.96 9.28
11/7/2022 12:30:00 AM 12.49 54.482 0.091 6.45 0.99 9.28
11/7/2022 12:45:00 AM 12.48 54.464 0.092 6.43 0.96 9.31
11/7/2022 1:00:00 AM 12.47 54.446 0.096 6.42 0.99 9.33
11/7/2022 1:15:00 AM 12.44 54.392 0.091 6.43 0.98 9.29
11/7/2022 1:30:00 AM 12.42 54.356 0.09 6.42 0.95 9.23
11/7/2022 1:45:00 AM 12.39 54.302 0.091 6.43 0.99 9.22
11/7/2022 2:00:00 AM 12.37 54.266 0.09 6.42 0.96 9.3
11/7/2022 2:15:00 AM 12.33 54.194 0.09 6.43 1 9.38
11/7/2022 2:30:00 AM 12.3 54.14 0.09 6.45 0.98 9.35
11/7/2022 2:45:00 AM 12.28 54.104 0.091 6.49 1.15 9.32
11/7/2022 3:00:00 AM 12.21 53.978 0.09 6.44 0.96 9.31
11/7/2022 3:15:00 AM 12.14 53.852 0.09 6.45 0.97 9.37
11/7/2022 3:30:00 AM 12.07 53.726 0.09 6.44 1.01 9.4
11/7/2022 3:45:00 AM 12.01 53.618 0.09 6.48 1.02 9.4
11/7/2022 4:00:00 AM 11.97 53.546 0.091 6.46 0.99 9.37
11/7/2022 4:15:00 AM 11.88 53.384 0.09 6.46 0.97 9.37
11/7/2022 4:30:00 AM 11.82 53.276 0.09 6.49 0.99 9.36
11/7/2022 4:45:00 AM 11.75 53.15 0.09 6.52 0.98 9.5
11/7/2022 5:00:00 AM 11.66 52.988 0.091 6.5 0.94 9.42
11/7/2022 5:15:00 AM 11.6 52.88 0.091 6.5 1.01 9.44
11/7/2022 5:30:00 AM 11.53 52.754 0.091 6.47 1.03 9.52
11/7/2022 5:45:00 AM 11.45 52.61 0.091 6.45 1.03 9.52
11/7/2022 6:00:00 AM 11.38 52.484 0.091 6.43 1.01 9.54
11/7/2022 6:15:00 AM 11.34 52.412 0.091 6.44 0.99 9.52
11/7/2022 6:30:00 AM 11.28 52.304 0.09 6.57 1.04 9.56
11/7/2022 6:45:00 AM 11.21 52.178 0.09 6.54 1 9.6
11/7/2022 7:00:00 AM 11.15 52.07 0.09 6.52 1.01 9.62
11/7/2022 7:15:00 AM 11.1 51.98 0.09 6.43 1 9.64
11/7/2022 7:30:00 AM 11.07 51.926 0.09 6.44 0.98 9.63
11/7/2022 7:45:00 AM 11.01 51.818 0.09 6.48 0.97 9.73
11/7/2022 8:00:00 AM 11 51.8 0.09 6.46 0.96 9.65
11/7/2022 8:15:00 AM 10.95 51.71 0.09 6.52 0.97 9.85
11/7/2022 8:30:00 AM 10.95 51.71 0.101 6.56 0.99 10.04
11/7/2022 8:45:00 AM 11.01 51.818 0.09 6.54 1 10.02
11/7/2022 9:00:00 AM 11.07 51.926 0.09 6.54 1.01 10.19
11/7/2022 9:15:00 AM 11.15 52.07 0.089 6.52 1.05 10.16
11/7/2022 9:30:00 AM 11.24 52.232 0.09 6.53 0.96 10.19
11/7/2022 9:45:00 AM 11.33 52.394 0.094 6.54 0.99 10.21
11/7/2022 10:00:00 AM 11.43 52.574 0.09 6.56 0.96 10.21
11/7/2022 10:15:00 AM 11.55 52.79 0.09 6.54 1.01 10.23
11/7/2022 10:30:00 AM 11.72 53.096 0.089 6.53 0.94 10.1
11/7/2022 10:45:00 AM 11.76 53.168 0.09 6.52 1.05 10.08
11/7/2022 11:00:00 AM 11.94 53.492 0.09 6.51 0.96 10.07
11/7/2022 11:15:00 AM 12 53.6 0.09 6.52 0.95 10.09
11/7/2022 11:30:00 AM 12.06 53.708 0.09 6.52 0.98 9.97
11/7/2022 11:45:00 AM 12.11 53.798 0.091 6.55 0.94 10.07
11/7/2022 12:00:00 PM 12.02 53.636 0.09 6.54 1.08 10.12
11/7/2022 12:15:00 PM 11.99 53.582 0.09 6.47 0.98 9.77
11/7/2022 12:30:00 PM 12.03 53.654 0.09 6.52 1.05 9.96
11/7/2022 12:45:00 PM 12.01 53.618 0.09 6.55 0.95 10.04
11/7/2022 1:00:00 PM 12.05 53.69 0.094 6.58 0.94 10.08
11/7/2022 1:15:00 PM 12.07 53.726 0.096 6.58 1.01 10.03
11/7/2022 1:30:00 PM 12.06 53.708 0.089 6.57 0.96 10
11/7/2022 1:45:00 PM 12.06 53.708 0.089 6.64 0.97 9.97
11/7/2022 2:00:00 PM 12.06 53.708 0.09 6.66 0.96 10.05
11/7/2022 2:15:00 PM 12.07 53.726 0.089 6.59 0.93 9.89
11/7/2022 2:30:00 PM 12.03 53.654 0.09 6.55 0.97 9.85
11/7/2022 2:45:00 PM 11.79 53.222 0.089 6.53 0.99 9.84
11/7/2022 3:00:00 PM 11.73 53.114 0.09 6.49 0.98 9.61
11/7/2022 3:15:00 PM 11.63 52.934 0.09 6.53 0.93 9.74
11/7/2022 3:30:00 PM 11.55 52.79 0.09 6.53 1 9.83
11/7/2022 3:45:00 PM 11.5 52.7 0.09 6.51 0.97 9.75
11/7/2022 4:00:00 PM 11.43 52.574 0.09 6.52 1.02 9.76
11/7/2022 4:15:00 PM 11.35 52.43 0.09 6.51 0.97 9.81
11/7/2022 4:30:00 PM 11.3 52.34 0.09 6.5 1 9.79
11/7/2022 4:45:00 PM 11.23 52.214 0.089 6.49 0.98 9.76
11/7/2022 5:00:00 PM 11.18 52.124 0.09 6.47 1.01 9.62
11/7/2022 5:15:00 PM 11.1 51.98 0.089 6.48 0.98 9.65
11/7/2022 5:30:00 PM 11.04 51.872 0.09 6.46 1.03 9.56
11/7/2022 5:45:00 PM 10.96 51.728 0.09 6.5 1 9.62
11/7/2022 6:00:00 PM 10.86 51.548 0.09 6.5 1.83 9.61
11/7/2022 6:15:00 PM 10.78 51.404 0.09 6.47 1.02 9.54
11/7/2022 6:30:00 PM 10.73 51.314 0.091 6.46 0.99 9.46
11/7/2022 6:45:00 PM 10.62 51.116 0.09 6.47 0.98 9.48
11/7/2022 7:00:00 PM 10.53 50.954 0.09 6.47 1.27 9.6
11/7/2022 7:15:00 PM 10.47 50.846 0.09 6.48 1.05 9.6
11/7/2022 7:30:00 PM 10.42 50.756 0.091 6.46 1.01 9.57
11/7/2022 7:45:00 PM 10.31 50.558 0.09 6.49 1.01 9.68
11/7/2022 8:00:00 PM 10.24 50.432 0.09 6.51 1.01 9.78
11/7/2022 8:15:00 PM 10.22 50.396 0.091 6.52 1.02 9.79
11/7/2022 8:30:00 PM 10.17 50.306 0.09 6.51 0.99 9.73
11/7/2022 8:45:00 PM 10.13 50.234 0.09 6.47 1.01 9.74
11/7/2022 9:00:00 PM 10.08 50.144 0.091 6.45 1.04 9.75
11/7/2022 9:15:00 PM 10.05 50.09 0.091 6.47 1.05 9.62
11/7/2022 9:30:00 PM 9.94 49.892 0.09 6.48 1.02 9.86
11/7/2022 9:45:00 PM 9.92 49.856 0.091 6.46 0.98 9.74
11/7/2022 10:00:00 PM 9.82 49.676 0.09 6.47 1 9.84
11/7/2022 10:15:00 PM 9.77 49.586 0.089 6.45 1.04 9.85
11/7/2022 10:30:00 PM 9.7 49.46 0.091 6.47 1.01 9.98
11/7/2022 10:45:00 PM 9.65 49.37 0.091 6.45 1.02 9.92
11/7/2022 11:00:00 PM 9.53 49.154 0.09 6.47 1.01 10.04
11/7/2022 11:15:00 PM 9.51 49.118 0.091 6.44 1.08 9.99
11/7/2022 11:30:00 PM 9.42 48.956 0.09 6.43 1.06 10.04
11/7/2022 11:45:00 PM 9.38 48.884 0.09 6.43 1.02 9.98
11/8/2022 12:00:00 AM 9.33 48.794 0.09 6.45 1.03 10.06
11/8/2022 12:15:00 AM 9.26 48.668 0.09 6.44 1.19 10.08
11/8/2022 12:30:00 AM 9.17 48.506 0.09 6.46 1.06 10.18
11/8/2022 12:45:00 AM 9.11 48.398 0.09 6.47 1.08 10.23
11/8/2022 1:00:00 AM 9.04 48.272 0.09 6.45 1.02 10.25
11/8/2022 1:15:00 AM 8.98 48.164 0.09 6.44 1.06 10.26
11/8/2022 1:30:00 AM 8.91 48.038 0.09 6.45 1.07 10.27
11/8/2022 1:45:00 AM 8.83 47.894 0.091 6.44 1.06 10.38
11/8/2022 2:00:00 AM 8.74 47.732 0.09 6.45 1.03 10.42
11/8/2022 2:15:00 AM 8.7 47.66 0.089 6.45 1.02 10.38
11/8/2022 2:30:00 AM 8.64 47.552 0.09 6.46 1.03 10.42
11/8/2022 2:45:00 AM 8.59 47.462 0.09 6.47 1.06 10.44
11/8/2022 3:00:00 AM 8.55 47.39 0.09 6.47 1.06 10.44
11/8/2022 3:15:00 AM 8.5 47.3 0.09 6.47 1.04 10.46
11/8/2022 3:30:00 AM 8.47 47.246 0.09 6.46 1.02 10.42
11/8/2022 3:45:00 AM 8.4 47.12 0.09 6.44 1.04 10.4
11/8/2022 4:00:00 AM 8.29 46.922 0.091 6.47 1.03 10.56
11/8/2022 4:15:00 AM 8.26 46.868 0.091 6.52 1.01 10.56
11/8/2022 4:30:00 AM 8.21 46.778 0.091 6.52 1.07 10.54
11/8/2022 4:45:00 AM 8.12 46.616 0.089 6.65 1.02 10.62
11/8/2022 5:00:00 AM 8.06 46.508 0.089 6.49 1.05 10.64
11/8/2022 5:15:00 AM 8 46.4 0.09 6.54 1.02 10.66
11/8/2022 5:30:00 AM 7.95 46.31 0.09 6.51 0.98 10.7
11/8/2022 5:45:00 AM 7.92 46.256 0.09 6.5 1.02 10.66
11/8/2022 6:00:00 AM 7.84 46.112 0.09 6.48 1.04 10.68
11/8/2022 6:15:00 AM 7.76 45.968 0.09 6.48 1.05 10.79
11/8/2022 6:30:00 AM 7.69 45.842 0.09 6.49 1.03 10.81
11/8/2022 6:45:00 AM 7.64 45.752 0.091 6.49 1.02 10.82
11/8/2022 7:00:00 AM 7.6 45.68 0.09 6.49 1.04 10.87
11/8/2022 7:15:00 AM 7.6 45.68 0.09 6.49 1.02 10.85
11/8/2022 7:30:00 AM 7.55 45.59 0.09 6.5 1.03 10.95
11/8/2022 7:45:00 AM 7.61 45.698 0.09 6.48 1.04 10.92
11/8/2022 8:00:00 AM 7.58 45.644 0.09 6.51 1.01 11.08
11/8/2022 8:15:00 AM 7.49 45.482 0.09 6.52 1.02 11.22
11/8/2022 8:30:00 AM 7.49 45.482 0.089 6.53 1.27 11.29
11/8/2022 8:45:00 AM 7.52 45.536 0.089 6.54 1.02 11.33
11/8/2022 9:00:00 AM 7.64 45.752 0.09 6.5 1.03 11.17
11/8/2022 9:15:00 AM 7.64 45.752 0.089 6.54 1.02 11.39
11/8/2022 9:30:00 AM 7.78 46.004 0.089 6.52 0.99 11.4
11/8/2022 9:45:00 AM 7.94 46.292 0.089 6.52 1 11.26
11/8/2022 10:00:00 AM 8.22 46.796 0.091 6.48 1.02 10.98
11/8/2022 10:15:00 AM 8.19 46.742 0.089 6.55 1 11.34
11/8/2022 10:30:00 AM 8.32 46.976 0.089 6.54 1.01 11.4
11/8/2022 10:45:00 AM 8.66 47.588 0.089 6.48 0.99 10.97
11/8/2022 11:00:00 AM 8.63 47.534 0.089 6.54 0.99 11.29
11/8/2022 11:15:00 AM 8.77 47.786 0.089 6.57 0.97 11.4
11/8/2022 11:30:00 AM 8.88 47.984 0.089 6.53 1 11.24
11/8/2022 11:45:00 AM 9.09 48.362 0.09 6.46 0.98 10.86
11/8/2022 12:00:00 PM 8.97 48.146 0.095 6.5 0.97 11.11
11/8/2022 12:15:00 PM 8.98 48.164 0.089 6.5 0.96 11.11
11/8/2022 12:30:00 PM 8.95 48.11 0.089 6.51 0.95 11.14
11/8/2022 12:45:00 PM 8.91 48.038 0.089 6.51 0.99 11.21
11/8/2022 1:00:00 PM 9.08 48.344 0.089 6.46 0.96 10.85
11/8/2022 1:15:00 PM 9.15 48.47 0.089 6.53 0.97 10.75
11/8/2022 1:30:00 PM 9.1 48.38 0.089 6.51 0.92 10.95
11/8/2022 1:45:00 PM 9.31 48.758 0.09 6.43 0.96 10.59
11/8/2022 2:00:00 PM 9.08 48.344 0.089 6.52 0.97 11.07
11/8/2022 2:15:00 PM 9.23 48.614 0.088 6.46 0.94 10.64
11/8/2022 2:30:00 PM 9.16 48.488 0.088 6.46 0.95 10.66
11/8/2022 2:45:00 PM 8.97 48.146 0.09 6.48 0.99 10.73
11/8/2022 3:00:00 PM 8.9 48.02 0.089 6.48 0.97 10.72
11/8/2022 3:15:00 PM 8.83 47.894 0.089 6.49 0.97 10.75
11/8/2022 3:30:00 PM 8.76 47.768 0.089 6.47 0.97 10.78
11/8/2022 3:45:00 PM 8.75 47.75 0.089 6.47 0.99 10.74
11/8/2022 4:00:00 PM 8.73 47.714 0.089 6.46 1.02 10.7
11/8/2022 4:15:00 PM 8.69 47.642 0.089 6.5 1 10.78
11/8/2022 4:30:00 PM 8.71 47.678 0.089 6.48 0.97 10.64
11/8/2022 4:45:00 PM 8.64 47.552 0.089 6.5 1.02 10.82
11/8/2022 5:00:00 PM 8.65 47.57 0.089 6.48 1 10.64
11/8/2022 5:15:00 PM 8.6 47.48 0.089 6.5 1.06 10.64
11/8/2022 5:30:00 PM 8.53 47.354 0.089 6.51 1.02 10.69
11/8/2022 5:45:00 PM 8.47 47.246 0.089 6.51 1.03 10.72
11/8/2022 6:00:00 PM 8.45 47.21 0.089 6.51 1.04 10.67
11/8/2022 6:15:00 PM 8.4 47.12 0.089 6.48 1.13 10.6
11/8/2022 6:30:00 PM 8.34 47.012 0.09 6.47 1 10.64
11/8/2022 6:45:00 PM 8.27 46.886 0.09 6.49 1.02 10.64
11/8/2022 7:00:00 PM 8.24 46.832 0.09 6.48 1.05 10.58
11/8/2022 7:15:00 PM 8.18 46.724 0.09 6.47 1.03 10.67
11/8/2022 7:30:00 PM 8.08 46.544 0.089 6.46 1.09 10.73
11/8/2022 7:45:00 PM 8.07 46.526 0.089 6.46 1.06 10.7
11/8/2022 8:00:00 PM 8.01 46.418 0.089 6.46 1.02 10.68
11/8/2022 8:15:00 PM 7.92 46.256 0.114 6.48 1.03 10.76
11/8/2022 8:30:00 PM 7.82 46.076 0.089 6.48 1.03 10.86
11/8/2022 8:45:00 PM 7.84 46.112 0.089 6.47 1.06 10.77
11/8/2022 9:00:00 PM 7.74 45.932 0.089 6.47 1.03 10.81
11/8/2022 9:15:00 PM 7.77 45.986 0.089 6.48 1.03 10.67
11/8/2022 9:30:00 PM 7.62 45.716 0.09 6.5 1.05 10.85
11/8/2022 9:45:00 PM 7.62 45.716 0.09 6.48 1.03 10.78
11/8/2022 10:00:00 PM 7.51 45.518 0.089 6.5 1.03 10.84
11/8/2022 10:15:00 PM 7.44 45.392 0.089 6.5 1.05 10.93
11/8/2022 10:30:00 PM 7.38 45.284 0.09 6.48 1.02 10.91
11/8/2022 10:45:00 PM 7.34 45.212 0.089 6.48 1.05 10.93
11/8/2022 11:00:00 PM 7.28 45.104 0.09 6.5 1.05 10.97
11/8/2022 11:15:00 PM 7.22 44.996 0.089 6.53 1.04 10.97
11/8/2022 11:30:00 PM 7.16 44.888 0.09 6.53 1.04 10.97
11/8/2022 11:45:00 PM 7.14 44.852 0.09 6.5 1.06 10.95
11/9/2022 12:00:00 AM 6.95 44.51 0.09 6.53 1.03 11.15
11/9/2022 12:15:00 AM 7 44.6 0.09 6.52 1.04 11.03
11/9/2022 12:30:00 AM 6.95 44.51 0.09 6.5 1.01 11.05
11/9/2022 12:45:00 AM 6.86 44.348 0.117 6.52 1.05 11.09
11/9/2022 1:00:00 AM 6.8 44.24 0.09 6.51 1.1 11.12
11/9/2022 1:15:00 AM 6.78 44.204 0.09 6.52 1.06 11.17
11/9/2022 1:30:00 AM 6.69 44.042 0.089 6.53 1.05 11.19
11/9/2022 1:45:00 AM 6.61 43.898 0.089 6.55 1.08 11.22
11/9/2022 2:00:00 AM 6.61 43.898 0.09 6.52 1.05 11.18
11/9/2022 2:15:00 AM 6.68 44.024 0.09 6.52 1.06 11.13
11/9/2022 2:30:00 AM 6.57 43.826 0.09 6.52 1.05 11.14
11/9/2022 2:45:00 AM 6.48 43.664 0.09 6.52 1.04 11.19
11/9/2022 3:00:00 AM 6.43 43.574 0.091 6.52 1.08 11.23
11/9/2022 3:15:00 AM 6.26 43.268 0.089 6.56 1.1 11.38
11/9/2022 3:30:00 AM 6.29 43.322 0.089 6.54 1.03 11.3
11/9/2022 3:45:00 AM 6.29 43.322 0.09 6.56 1.04 11.26
11/9/2022 4:00:00 AM 6.16 43.088 0.089 6.57 1.03 11.39
11/9/2022 4:15:00 AM 6.26 43.268 0.09 6.54 1.02 11.18
11/9/2022 4:30:00 AM 6.09 42.962 0.089 6.57 1.05 11.34
11/9/2022 4:45:00 AM 5.99 42.782 0.089 6.58 1.08 11.44
11/9/2022 5:00:00 AM 6.05 42.89 0.089 6.56 1.09 11.32
11/9/2022 5:15:00 AM 6.02 42.836 0.09 6.56 1.05 11.39
11/9/2022 5:30:00 AM 5.93 42.674 0.09 6.56 1.04 11.37
11/9/2022 5:45:00 AM 5.9 42.62 0.09 6.56 1.06 11.42
11/9/2022 6:00:00 AM 5.82 42.476 0.09 6.55 1.07 11.48
11/9/2022 6:15:00 AM 5.7 42.26 0.09 6.57 1.05 11.61
11/9/2022 6:30:00 AM 5.73 42.314 0.09 6.56 1.07 11.51
11/9/2022 6:45:00 AM 5.69 42.242 0.09 6.59 1.03 11.57
11/9/2022 7:00:00 AM 5.68 42.224 0.09 6.56 1.04 11.52
11/9/2022 7:15:00 AM 5.56 42.008 0.089 6.58 1.06 11.61
11/9/2022 7:30:00 AM 5.47 41.846 0.09 6.57 1.04 11.73
11/9/2022 7:45:00 AM 5.53 41.954 0.089 6.58 1.04 11.66
11/9/2022 8:00:00 AM 5.43 41.774 0.088 6.58 1.06 11.79
11/9/2022 8:15:00 AM 5.48 41.864 0.089 6.56 1.04 11.68
11/9/2022 8:30:00 AM 5.44 41.792 0.089 6.57 1.04 11.82
11/9/2022 8:45:00 AM 5.41 41.738 0.089 6.6 1.04 12
11/9/2022 9:00:00 AM 5.55 41.99 0.089 6.58 1.06 11.93
11/9/2022 9:15:00 AM 5.73 42.314 0.092 6.57 1.03 11.78
11/9/2022 9:30:00 AM 5.61 42.098 0.088 6.61 1.05 12.13
11/9/2022 9:45:00 AM 5.77 42.386 0.089 6.61 1.06 12.12
11/9/2022 10:00:00 AM 5.9 42.62 0.088 6.61 1.03 12.07
11/9/2022 10:15:00 AM 6.1 42.98 0.089 6.59 1.03 12.06
11/9/2022 10:30:00 AM 6.43 43.574 0.089 6.55 1.02 11.77
11/9/2022 10:45:00 AM 6.5 43.7 0.089 6.54 1.03 11.85
11/9/2022 11:00:00 AM 6.93 44.474 0.089 6.49 1.01 11.53
11/9/2022 11:15:00 AM 7.02 44.636 0.089 6.52 1.01 11.68
11/9/2022 11:30:00 AM 6.9 44.42 0.088 6.57 1.01 11.96
11/9/2022 11:45:00 AM 6.94 44.492 0.088 6.58 1.03 12.04
11/9/2022 12:00:00 PM 6.93 44.474 0.088 6.58 1.04 12.01
11/9/2022 12:15:00 PM 7.04 44.672 0.089 6.58 1.03 11.92
11/9/2022 12:30:00 PM 7.14 44.852 0.089 6.58 1.01 11.81
11/9/2022 12:45:00 PM 7.14 44.852 0.089 6.58 0.96 11.83
11/9/2022 1:00:00 PM 7.29 45.122 0.088 6.54 1 11.61
11/9/2022 1:15:00 PM 7.37 45.266 0.088 6.53 0.99 11.5
11/9/2022 1:30:00 PM 7.45 45.41 0.089 6.53 1 11.5
11/9/2022 1:45:00 PM 7.46 45.428 0.088 6.54 1 11.36
11/9/2022 2:00:00 PM 7.47 45.446 0.088 6.58 1 11.69
11/9/2022 2:15:00 PM 7.53 45.554 0.088 6.6 0.97 11.83
11/9/2022 2:30:00 PM 7.52 45.536 0.088 6.58 1.04 11.72
11/9/2022 2:45:00 PM 7.57 45.626 0.089 6.53 1 11.39
11/9/2022 3:00:00 PM 7.56 45.608 0.089 6.49 1.03 11.09
11/9/2022 3:15:00 PM 7.45 45.41 0.088 6.53 1.08 11.24
11/9/2022 3:30:00 PM 7.37 45.266 0.088 6.53 1.03 11.35
11/9/2022 3:45:00 PM 7.34 45.212 0.088 6.54 1.04 11.31
11/9/2022 4:00:00 PM 7.29 45.122 0.088 6.55 1.03 11.33
11/9/2022 4:15:00 PM 7.28 45.104 0.088 6.56 1.02 11.32
11/9/2022 4:30:00 PM 7.23 45.014 0.088 6.58 1.03 11.38
11/9/2022 4:45:00 PM 7.24 45.032 0.089 6.57 1.04 11.23
11/9/2022 5:00:00 PM 7.22 44.996 0.088 6.56 1.01 11.19
11/9/2022 5:15:00 PM 7.18 44.924 0.088 6.56 1.01 11.2
11/9/2022 5:30:00 PM 7.16 44.888 0.089 6.54 1.03 11.14
11/9/2022 5:45:00 PM 7.11 44.798 0.088 6.52 1.05 11.17
11/9/2022 6:00:00 PM 7.08 44.744 0.089 6.52 1.04 11.12
11/9/2022 6:15:00 PM 7.03 44.654 0.088 6.53 1.08 11.14
11/9/2022 6:30:00 PM 6.96 44.528 0.089 6.54 1.04 11.2
11/9/2022 6:45:00 PM 6.91 44.438 0.089 6.54 1.01 11.16
11/9/2022 7:00:00 PM 6.9 44.42 0.089 6.52 1.05 11.13
11/9/2022 7:15:00 PM 6.91 44.438 0.089 6.51 1.09 11.03
11/9/2022 7:30:00 PM 6.85 44.33 0.089 6.53 1.02 11.07
11/9/2022 7:45:00 PM 6.83 44.294 0.089 6.52 1.12 11.06
11/9/2022 8:00:00 PM 6.77 44.186 0.089 6.51 1.07 11.09
11/9/2022 8:15:00 PM 6.74 44.132 0.089 6.53 1.02 11.09
11/9/2022 8:30:00 PM 6.65 43.97 0.089 6.52 1.04 11.2
11/9/2022 8:45:00 PM 6.66 43.988 0.089 6.51 1.06 11.12
11/9/2022 9:00:00 PM 6.59 43.862 0.09 6.53 1.06 11.16
11/9/2022 9:15:00 PM 6.51 43.718 0.089 6.52 1.07 11.27
11/9/2022 9:30:00 PM 6.49 43.682 0.089 6.51 1.08 11.25
11/9/2022 9:45:00 PM 6.49 43.682 0.089 6.51 1.12 11.17
11/9/2022 10:00:00 PM 6.41 43.538 0.089 6.53 1.06 11.25
11/9/2022 10:15:00 PM 6.38 43.484 0.089 6.51 1.1 11.21
11/9/2022 10:30:00 PM 6.34 43.412 0.089 6.51 1.05 11.23
11/9/2022 10:45:00 PM 6.32 43.376 0.089 6.5 1.05 11.18
11/9/2022 11:00:00 PM 6.24 43.232 0.089 6.51 1.09 11.29
11/9/2022 11:15:00 PM 6.2 43.16 0.089 6.5 1.06 11.34
11/9/2022 11:30:00 PM 6.15 43.07 0.089 6.51 1.05 11.32
11/9/2022 11:45:00 PM 6.1 42.98 0.089 6.53 1.07 11.33
11/10/2022 12:00:00 AM 6.03 42.854 0.089 6.51 1.08 11.36
11/10/2022 12:15:00 AM 6.02 42.836 0.089 6.51 1.05 11.32
11/10/2022 12:30:00 AM 6.01 42.818 0.089 6.5 1.09 11.34
11/10/2022 12:45:00 AM 5.96 42.728 0.089 6.51 1.08 11.41
11/10/2022 1:00:00 AM 5.87 42.566 0.089 6.5 1.06 11.44
11/10/2022 1:15:00 AM 5.88 42.584 0.089 6.5 1.07 11.35
11/10/2022 1:30:00 AM 5.82 42.476 0.09 6.51 1.05 11.4
11/10/2022 1:45:00 AM 5.73 42.314 0.089 6.52 1.06 11.46
11/10/2022 2:00:00 AM 5.77 42.386 0.09 6.5 1.08 11.37
11/10/2022 2:15:00 AM 5.68 42.224 0.089 6.52 1.05 11.47
11/10/2022 2:30:00 AM 5.67 42.206 0.089 6.52 1.09 11.45
11/10/2022 2:45:00 AM 5.58 42.044 0.089 6.51 1.07 11.51
11/10/2022 3:00:00 AM 5.51 41.918 0.089 6.52 1.06 11.61
11/10/2022 3:15:00 AM 5.53 41.954 0.089 6.51 1.06 11.54
11/10/2022 3:30:00 AM 5.5 41.9 0.089 6.53 1.06 11.55
11/10/2022 3:45:00 AM 5.38 41.684 0.089 6.53 1.11 11.65
11/10/2022 4:00:00 AM 5.36 41.648 0.088 6.53 1.08 11.62
11/10/2022 4:15:00 AM 5.36 41.648 0.089 6.53 1.1 11.62
11/10/2022 4:30:00 AM 5.32 41.576 0.089 6.53 1.06 11.64
11/10/2022 4:45:00 AM 5.17 41.306 0.089 6.56 1.12 11.79
11/10/2022 5:00:00 AM 5.35 41.63 0.09 6.51 1.06 11.54
11/10/2022 5:15:00 AM 5.25 41.45 0.089 6.54 1.08 11.61
11/10/2022 5:30:00 AM 5.21 41.378 0.089 6.53 1.09 11.6
11/10/2022 5:45:00 AM 5.08 41.144 0.089 6.52 1.1 11.77
11/10/2022 6:00:00 AM 5.02 41.036 0.089 6.52 1.05 11.81
11/10/2022 6:15:00 AM 5.08 41.144 0.09 6.49 1.1 11.72
11/10/2022 6:30:00 AM 4.98 40.964 0.089 6.5 1.08 11.78
11/10/2022 6:45:00 AM 5 41 0.089 6.51 1.05 11.77
11/10/2022 7:00:00 AM 4.98 40.964 0.116 6.52 1.1 11.77
11/10/2022 7:15:00 AM 4.93 40.874 0.088 6.53 1.04 11.81
11/10/2022 7:30:00 AM 4.83 40.694 0.088 6.51 1.04 11.95
11/10/2022 7:45:00 AM 4.83 40.694 0.088 6.5 1.04 11.9
11/10/2022 8:00:00 AM 4.87 40.766 0.089 6.5 1.07 11.96
11/10/2022 8:15:00 AM 4.79 40.622 0.088 6.51 1.07 12.03
11/10/2022 8:30:00 AM 4.76 40.568 0.088 6.52 1.06 12.12
11/10/2022 8:45:00 AM 4.83 40.694 0.088 6.53 1.12 12.18
11/10/2022 9:00:00 AM 4.94 40.892 0.088 6.57 1.05 12.15
11/10/2022 9:15:00 AM 5.14 41.252 0.089 6.57 1.03 11.95